<?xml version="1.0" encoding="UTF-8" standalone="no" ?>
<gpx xmlns="http://www.topografix.com/GPX/1/1" xmlns:xsi="http://www.w3.org/2001/XMLSchema-instance" xsi:schemaLocation="http://www.topografix.com/GPX/1/1 http://www.topografix.com/GPX/1/1/gpx.xsd" version="1.1" creator="VisuGPX - https://www.visugpx.com">
  <metadata>
    <name>Crêtes de Musan par Pierre Rousse</name>
    <desc><![CDATA[d'après "Vercors secret" de Pascal Sombardier - Glénat
]]></desc>
  </metadata>
  <trk>
    <name><![CDATA[Crêtes de Musan]]></name>
    <trkseg>
      <trkpt lat="44.99147" lon="5.19886">
        <ele>432.73</ele>
        <time>2016-08-28T07:15:29Z</time>
      </trkpt>
      <trkpt lat="44.99152" lon="5.19887">
        <ele>438.98</ele>
        <time>2016-08-28T07:15:44Z</time>
      </trkpt>
      <trkpt lat="44.99152" lon="5.19886">
        <ele>443.79</ele>
        <time>2016-08-28T07:15:46Z</time>
      </trkpt>
      <trkpt lat="44.99151" lon="5.19886">
        <ele>448.11</ele>
        <time>2016-08-28T07:15:48Z</time>
      </trkpt>
      <trkpt lat="44.99151" lon="5.19886">
        <ele>452.92</ele>
        <time>2016-08-28T07:15:50Z</time>
      </trkpt>
      <trkpt lat="44.99152" lon="5.19885">
        <ele>454.84</ele>
        <time>2016-08-28T07:15:52Z</time>
      </trkpt>
      <trkpt lat="44.99152" lon="5.19886">
        <ele>459.17</ele>
        <time>2016-08-28T07:15:53Z</time>
      </trkpt>
      <trkpt lat="44.99151" lon="5.19886">
        <ele>462.53</ele>
        <time>2016-08-28T07:15:55Z</time>
      </trkpt>
      <trkpt lat="44.99151" lon="5.19886">
        <ele>466.38</ele>
        <time>2016-08-28T07:15:57Z</time>
      </trkpt>
      <trkpt lat="44.99152" lon="5.19886">
        <ele>471.18</ele>
        <time>2016-08-28T07:16:00Z</time>
      </trkpt>
      <trkpt lat="44.99153" lon="5.19885">
        <ele>475.51</ele>
        <time>2016-08-28T07:16:03Z</time>
      </trkpt>
      <trkpt lat="44.99153" lon="5.19885">
        <ele>478.87</ele>
        <time>2016-08-28T07:16:06Z</time>
      </trkpt>
      <trkpt lat="44.99154" lon="5.19885">
        <ele>481.76</ele>
        <time>2016-08-28T07:16:09Z</time>
      </trkpt>
      <trkpt lat="44.99153" lon="5.19884">
        <ele>485.6</ele>
        <time>2016-08-28T07:16:13Z</time>
      </trkpt>
      <trkpt lat="44.99152" lon="5.19885">
        <ele>489.45</ele>
        <time>2016-08-28T07:16:17Z</time>
      </trkpt>
      <trkpt lat="44.99151" lon="5.19886">
        <ele>492.81</ele>
        <time>2016-08-28T07:16:22Z</time>
      </trkpt>
      <trkpt lat="44.99151" lon="5.19887">
        <ele>495.7</ele>
        <time>2016-08-28T07:16:26Z</time>
      </trkpt>
      <trkpt lat="44.99151" lon="5.19889">
        <ele>498.58</ele>
        <time>2016-08-28T07:16:31Z</time>
      </trkpt>
      <trkpt lat="44.99153" lon="5.19891">
        <ele>500.5</ele>
        <time>2016-08-28T07:16:34Z</time>
      </trkpt>
      <trkpt lat="44.99154" lon="5.19893">
        <ele>502.43</ele>
        <time>2016-08-28T07:16:36Z</time>
      </trkpt>
      <trkpt lat="44.99154" lon="5.19902">
        <ele>506.27</ele>
        <time>2016-08-28T07:16:43Z</time>
      </trkpt>
      <trkpt lat="44.99155" lon="5.19909">
        <ele>509.16</ele>
        <time>2016-08-28T07:16:48Z</time>
      </trkpt>
      <trkpt lat="44.99155" lon="5.1991">
        <ele>509.64</ele>
        <time>2016-08-28T07:16:49Z</time>
      </trkpt>
      <trkpt lat="44.99154" lon="5.19913">
        <ele>511.08</ele>
        <time>2016-08-28T07:16:52Z</time>
      </trkpt>
      <trkpt lat="44.99154" lon="5.19915">
        <ele>511.56</ele>
        <time>2016-08-28T07:16:53Z</time>
      </trkpt>
      <trkpt lat="44.99155" lon="5.19918">
        <ele>512.52</ele>
        <time>2016-08-28T07:16:55Z</time>
      </trkpt>
      <trkpt lat="44.99159" lon="5.19926">
        <ele>515.4</ele>
        <time>2016-08-28T07:17:02Z</time>
      </trkpt>
      <trkpt lat="44.9916" lon="5.19928">
        <ele>515.88</ele>
        <time>2016-08-28T07:17:04Z</time>
      </trkpt>
      <trkpt lat="44.99164" lon="5.1994">
        <ele>518.77</ele>
        <time>2016-08-28T07:17:14Z</time>
      </trkpt>
      <trkpt lat="44.99169" lon="5.19947">
        <ele>519.73</ele>
        <time>2016-08-28T07:17:20Z</time>
      </trkpt>
      <trkpt lat="44.99173" lon="5.19956">
        <ele>521.17</ele>
        <time>2016-08-28T07:17:35Z</time>
      </trkpt>
      <trkpt lat="44.99173" lon="5.19957">
        <ele>521.17</ele>
        <time>2016-08-28T07:17:39Z</time>
      </trkpt>
      <trkpt lat="44.99177" lon="5.19962">
        <ele>522.13</ele>
        <time>2016-08-28T07:17:43Z</time>
      </trkpt>
      <trkpt lat="44.99179" lon="5.19968">
        <ele>522.61</ele>
        <time>2016-08-28T07:17:47Z</time>
      </trkpt>
      <trkpt lat="44.99188" lon="5.19989">
        <ele>525.5</ele>
        <time>2016-08-28T07:18:02Z</time>
      </trkpt>
      <trkpt lat="44.99195" lon="5.20003">
        <ele>527.9</ele>
        <time>2016-08-28T07:18:16Z</time>
      </trkpt>
      <trkpt lat="44.99201" lon="5.20014">
        <ele>528.86</ele>
        <time>2016-08-28T07:18:29Z</time>
      </trkpt>
      <trkpt lat="44.99207" lon="5.2003">
        <ele>530.79</ele>
        <time>2016-08-28T07:18:44Z</time>
      </trkpt>
      <trkpt lat="44.99212" lon="5.20049">
        <ele>532.71</ele>
        <time>2016-08-28T07:18:58Z</time>
      </trkpt>
      <trkpt lat="44.99217" lon="5.20068">
        <ele>534.63</ele>
        <time>2016-08-28T07:19:12Z</time>
      </trkpt>
      <trkpt lat="44.99222" lon="5.20085">
        <ele>536.55</ele>
        <time>2016-08-28T07:19:24Z</time>
      </trkpt>
      <trkpt lat="44.99224" lon="5.20094">
        <ele>536.55</ele>
        <time>2016-08-28T07:19:29Z</time>
      </trkpt>
      <trkpt lat="44.99227" lon="5.201">
        <ele>536.55</ele>
        <time>2016-08-28T07:19:33Z</time>
      </trkpt>
      <trkpt lat="44.99233" lon="5.20118">
        <ele>537.99</ele>
        <time>2016-08-28T07:19:46Z</time>
      </trkpt>
      <trkpt lat="44.99237" lon="5.20126">
        <ele>538.96</ele>
        <time>2016-08-28T07:19:58Z</time>
      </trkpt>
      <trkpt lat="44.99241" lon="5.20134">
        <ele>538.96</ele>
        <time>2016-08-28T07:20:06Z</time>
      </trkpt>
      <trkpt lat="44.99242" lon="5.20149">
        <ele>539.92</ele>
        <time>2016-08-28T07:20:15Z</time>
      </trkpt>
      <trkpt lat="44.99247" lon="5.20167">
        <ele>540.88</ele>
        <time>2016-08-28T07:20:29Z</time>
      </trkpt>
      <trkpt lat="44.99247" lon="5.20188">
        <ele>541.36</ele>
        <time>2016-08-28T07:20:42Z</time>
      </trkpt>
      <trkpt lat="44.99247" lon="5.20211">
        <ele>543.28</ele>
        <time>2016-08-28T07:20:56Z</time>
      </trkpt>
      <trkpt lat="44.99248" lon="5.20237">
        <ele>545.69</ele>
        <time>2016-08-28T07:21:14Z</time>
      </trkpt>
      <trkpt lat="44.99255" lon="5.20261">
        <ele>548.09</ele>
        <time>2016-08-28T07:21:30Z</time>
      </trkpt>
      <trkpt lat="44.99256" lon="5.20277">
        <ele>549.05</ele>
        <time>2016-08-28T07:21:44Z</time>
      </trkpt>
      <trkpt lat="44.99257" lon="5.20284">
        <ele>549.53</ele>
        <time>2016-08-28T07:21:48Z</time>
      </trkpt>
      <trkpt lat="44.9926" lon="5.20289">
        <ele>550.49</ele>
        <time>2016-08-28T07:21:52Z</time>
      </trkpt>
      <trkpt lat="44.99266" lon="5.2031">
        <ele>551.93</ele>
        <time>2016-08-28T07:22:07Z</time>
      </trkpt>
      <trkpt lat="44.9927" lon="5.20333">
        <ele>553.38</ele>
        <time>2016-08-28T07:22:22Z</time>
      </trkpt>
      <trkpt lat="44.99272" lon="5.20358">
        <ele>553.86</ele>
        <time>2016-08-28T07:22:36Z</time>
      </trkpt>
      <trkpt lat="44.99273" lon="5.20369">
        <ele>554.34</ele>
        <time>2016-08-28T07:22:44Z</time>
      </trkpt>
      <trkpt lat="44.9928" lon="5.20385">
        <ele>556.26</ele>
        <time>2016-08-28T07:22:57Z</time>
      </trkpt>
      <trkpt lat="44.99291" lon="5.2039">
        <ele>558.18</ele>
        <time>2016-08-28T07:23:09Z</time>
      </trkpt>
      <trkpt lat="44.99305" lon="5.20393">
        <ele>560.11</ele>
        <time>2016-08-28T07:23:24Z</time>
      </trkpt>
      <trkpt lat="44.99314" lon="5.20394">
        <ele>562.51</ele>
        <time>2016-08-28T07:23:35Z</time>
      </trkpt>
      <trkpt lat="44.99318" lon="5.20395">
        <ele>563.95</ele>
        <time>2016-08-28T07:23:40Z</time>
      </trkpt>
      <trkpt lat="44.99327" lon="5.20396">
        <ele>566.35</ele>
        <time>2016-08-28T07:23:54Z</time>
      </trkpt>
      <trkpt lat="44.99335" lon="5.20395">
        <ele>569.24</ele>
        <time>2016-08-28T07:24:07Z</time>
      </trkpt>
      <trkpt lat="44.99341" lon="5.20391">
        <ele>571.16</ele>
        <time>2016-08-28T07:24:27Z</time>
      </trkpt>
      <trkpt lat="44.99347" lon="5.20379">
        <ele>572.6</ele>
        <time>2016-08-28T07:24:42Z</time>
      </trkpt>
      <trkpt lat="44.99348" lon="5.20368">
        <ele>572.6</ele>
        <time>2016-08-28T07:24:50Z</time>
      </trkpt>
      <trkpt lat="44.9935" lon="5.20358">
        <ele>573.56</ele>
        <time>2016-08-28T07:25:05Z</time>
      </trkpt>
      <trkpt lat="44.99352" lon="5.20358">
        <ele>573.08</ele>
        <time>2016-08-28T07:25:28Z</time>
      </trkpt>
      <trkpt lat="44.99357" lon="5.20361">
        <ele>575.97</ele>
        <time>2016-08-28T07:25:40Z</time>
      </trkpt>
      <trkpt lat="44.9936" lon="5.20362">
        <ele>576.45</ele>
        <time>2016-08-28T07:25:55Z</time>
      </trkpt>
      <trkpt lat="44.99367" lon="5.20367">
        <ele>577.89</ele>
        <time>2016-08-28T07:26:12Z</time>
      </trkpt>
      <trkpt lat="44.99368" lon="5.20359">
        <ele>579.33</ele>
        <time>2016-08-28T07:26:24Z</time>
      </trkpt>
      <trkpt lat="44.99363" lon="5.20344">
        <ele>580.77</ele>
        <time>2016-08-28T07:26:38Z</time>
      </trkpt>
      <trkpt lat="44.9936" lon="5.20331">
        <ele>580.29</ele>
        <time>2016-08-28T07:26:52Z</time>
      </trkpt>
      <trkpt lat="44.99364" lon="5.20322">
        <ele>583.18</ele>
        <time>2016-08-28T07:27:08Z</time>
      </trkpt>
      <trkpt lat="44.99366" lon="5.20315">
        <ele>582.7</ele>
        <time>2016-08-28T07:27:20Z</time>
      </trkpt>
      <trkpt lat="44.99364" lon="5.2031">
        <ele>582.22</ele>
        <time>2016-08-28T07:27:46Z</time>
      </trkpt>
      <trkpt lat="44.99364" lon="5.20309">
        <ele>582.22</ele>
        <time>2016-08-28T07:27:55Z</time>
      </trkpt>
      <trkpt lat="44.99362" lon="5.20305">
        <ele>580.29</ele>
        <time>2016-08-28T07:28:07Z</time>
      </trkpt>
      <trkpt lat="44.99359" lon="5.203">
        <ele>577.41</ele>
        <time>2016-08-28T07:28:22Z</time>
      </trkpt>
      <trkpt lat="44.99355" lon="5.20296">
        <ele>574.04</ele>
        <time>2016-08-28T07:28:31Z</time>
      </trkpt>
      <trkpt lat="44.99354" lon="5.20294">
        <ele>574.04</ele>
        <time>2016-08-28T07:28:44Z</time>
      </trkpt>
      <trkpt lat="44.99349" lon="5.20289">
        <ele>573.08</ele>
        <time>2016-08-28T07:28:59Z</time>
      </trkpt>
      <trkpt lat="44.99348" lon="5.20286">
        <ele>571.16</ele>
        <time>2016-08-28T07:29:07Z</time>
      </trkpt>
      <trkpt lat="44.99346" lon="5.20272">
        <ele>570.68</ele>
        <time>2016-08-28T07:29:21Z</time>
      </trkpt>
      <trkpt lat="44.99346" lon="5.20256">
        <ele>572.12</ele>
        <time>2016-08-28T07:29:36Z</time>
      </trkpt>
      <trkpt lat="44.9934" lon="5.20261">
        <ele>572.6</ele>
        <time>2016-08-28T07:29:59Z</time>
      </trkpt>
      <trkpt lat="44.9934" lon="5.20261">
        <ele>569.24</ele>
        <time>2016-08-28T07:30:02Z</time>
      </trkpt>
      <trkpt lat="44.9934" lon="5.20261">
        <ele>574.53</ele>
        <time>2016-08-28T07:30:03Z</time>
      </trkpt>
      <trkpt lat="44.9934" lon="5.20261">
        <ele>571.64</ele>
        <time>2016-08-28T07:30:04Z</time>
      </trkpt>
      <trkpt lat="44.99344" lon="5.20253">
        <ele>572.12</ele>
        <time>2016-08-28T07:30:41Z</time>
      </trkpt>
      <trkpt lat="44.99348" lon="5.20251">
        <ele>572.12</ele>
        <time>2016-08-28T07:31:16Z</time>
      </trkpt>
      <trkpt lat="44.99348" lon="5.2025">
        <ele>572.12</ele>
        <time>2016-08-28T07:31:17Z</time>
      </trkpt>
      <trkpt lat="44.9935" lon="5.20244">
        <ele>573.56</ele>
        <time>2016-08-28T07:31:23Z</time>
      </trkpt>
      <trkpt lat="44.99355" lon="5.20231">
        <ele>575.49</ele>
        <time>2016-08-28T07:31:35Z</time>
      </trkpt>
      <trkpt lat="44.99359" lon="5.20221">
        <ele>577.41</ele>
        <time>2016-08-28T07:31:46Z</time>
      </trkpt>
      <trkpt lat="44.99362" lon="5.20213">
        <ele>579.81</ele>
        <time>2016-08-28T07:31:58Z</time>
      </trkpt>
      <trkpt lat="44.99363" lon="5.20201">
        <ele>583.18</ele>
        <time>2016-08-28T07:32:09Z</time>
      </trkpt>
      <trkpt lat="44.99366" lon="5.20188">
        <ele>585.58</ele>
        <time>2016-08-28T07:32:25Z</time>
      </trkpt>
      <trkpt lat="44.99366" lon="5.20186">
        <ele>586.06</ele>
        <time>2016-08-28T07:32:28Z</time>
      </trkpt>
      <trkpt lat="44.99368" lon="5.20176">
        <ele>589.43</ele>
        <time>2016-08-28T07:32:41Z</time>
      </trkpt>
      <trkpt lat="44.99367" lon="5.20173">
        <ele>589.43</ele>
        <time>2016-08-28T07:33:01Z</time>
      </trkpt>
      <trkpt lat="44.99369" lon="5.20165">
        <ele>591.83</ele>
        <time>2016-08-28T07:33:11Z</time>
      </trkpt>
      <trkpt lat="44.99371" lon="5.20156">
        <ele>594.23</ele>
        <time>2016-08-28T07:33:21Z</time>
      </trkpt>
      <trkpt lat="44.9937" lon="5.20153">
        <ele>595.19</ele>
        <time>2016-08-28T07:33:26Z</time>
      </trkpt>
      <trkpt lat="44.99373" lon="5.20141">
        <ele>598.56</ele>
        <time>2016-08-28T07:33:42Z</time>
      </trkpt>
      <trkpt lat="44.99375" lon="5.20132">
        <ele>600.48</ele>
        <time>2016-08-28T07:33:56Z</time>
      </trkpt>
      <trkpt lat="44.99379" lon="5.20132">
        <ele>602.4</ele>
        <time>2016-08-28T07:34:08Z</time>
      </trkpt>
      <trkpt lat="44.99381" lon="5.20136">
        <ele>604.33</ele>
        <time>2016-08-28T07:34:15Z</time>
      </trkpt>
      <trkpt lat="44.99382" lon="5.2014">
        <ele>604.81</ele>
        <time>2016-08-28T07:34:30Z</time>
      </trkpt>
      <trkpt lat="44.99383" lon="5.20142">
        <ele>605.29</ele>
        <time>2016-08-28T07:34:45Z</time>
      </trkpt>
      <trkpt lat="44.99382" lon="5.20143">
        <ele>604.81</ele>
        <time>2016-08-28T07:35:05Z</time>
      </trkpt>
      <trkpt lat="44.99379" lon="5.20143">
        <ele>605.29</ele>
        <time>2016-08-28T07:35:29Z</time>
      </trkpt>
      <trkpt lat="44.99382" lon="5.20137">
        <ele>605.29</ele>
        <time>2016-08-28T07:35:51Z</time>
      </trkpt>
      <trkpt lat="44.99381" lon="5.20141">
        <ele>605.29</ele>
        <time>2016-08-28T07:36:18Z</time>
      </trkpt>
      <trkpt lat="44.99383" lon="5.20142">
        <ele>605.77</ele>
        <time>2016-08-28T07:36:47Z</time>
      </trkpt>
      <trkpt lat="44.99384" lon="5.20143">
        <ele>605.77</ele>
        <time>2016-08-28T07:36:49Z</time>
      </trkpt>
      <trkpt lat="44.99389" lon="5.20143">
        <ele>608.65</ele>
        <time>2016-08-28T07:36:58Z</time>
      </trkpt>
      <trkpt lat="44.99391" lon="5.20143">
        <ele>609.13</ele>
        <time>2016-08-28T07:37:01Z</time>
      </trkpt>
      <trkpt lat="44.99397" lon="5.2015">
        <ele>611.54</ele>
        <time>2016-08-28T07:37:14Z</time>
      </trkpt>
      <trkpt lat="44.994" lon="5.20154">
        <ele>612.98</ele>
        <time>2016-08-28T07:37:21Z</time>
      </trkpt>
      <trkpt lat="44.99406" lon="5.20158">
        <ele>615.38</ele>
        <time>2016-08-28T07:37:33Z</time>
      </trkpt>
      <trkpt lat="44.9941" lon="5.20164">
        <ele>618.26</ele>
        <time>2016-08-28T07:37:44Z</time>
      </trkpt>
      <trkpt lat="44.99411" lon="5.20162">
        <ele>618.26</ele>
        <time>2016-08-28T07:37:56Z</time>
      </trkpt>
      <trkpt lat="44.99412" lon="5.20165">
        <ele>618.75</ele>
        <time>2016-08-28T07:38:23Z</time>
      </trkpt>
      <trkpt lat="44.99415" lon="5.20166">
        <ele>620.67</ele>
        <time>2016-08-28T07:38:36Z</time>
      </trkpt>
      <trkpt lat="44.99422" lon="5.20171">
        <ele>623.07</ele>
        <time>2016-08-28T07:38:47Z</time>
      </trkpt>
      <trkpt lat="44.9943" lon="5.20176">
        <ele>626.44</ele>
        <time>2016-08-28T07:39:00Z</time>
      </trkpt>
      <trkpt lat="44.99436" lon="5.20176">
        <ele>628.84</ele>
        <time>2016-08-28T07:39:11Z</time>
      </trkpt>
      <trkpt lat="44.9944" lon="5.2018">
        <ele>632.2</ele>
        <time>2016-08-28T07:39:26Z</time>
      </trkpt>
      <trkpt lat="44.99442" lon="5.20169">
        <ele>634.13</ele>
        <time>2016-08-28T07:39:39Z</time>
      </trkpt>
      <trkpt lat="44.99442" lon="5.20171">
        <ele>636.05</ele>
        <time>2016-08-28T07:39:53Z</time>
      </trkpt>
      <trkpt lat="44.99444" lon="5.20173">
        <ele>636.53</ele>
        <time>2016-08-28T07:40:05Z</time>
      </trkpt>
      <trkpt lat="44.9945" lon="5.20174">
        <ele>638.93</ele>
        <time>2016-08-28T07:40:17Z</time>
      </trkpt>
      <trkpt lat="44.99451" lon="5.20178">
        <ele>641.34</ele>
        <time>2016-08-28T07:40:28Z</time>
      </trkpt>
      <trkpt lat="44.99456" lon="5.20179">
        <ele>643.26</ele>
        <time>2016-08-28T07:40:40Z</time>
      </trkpt>
      <trkpt lat="44.99457" lon="5.20165">
        <ele>643.26</ele>
        <time>2016-08-28T07:41:06Z</time>
      </trkpt>
      <trkpt lat="44.99455" lon="5.20166">
        <ele>643.74</ele>
        <time>2016-08-28T07:41:27Z</time>
      </trkpt>
      <trkpt lat="44.9946" lon="5.20166">
        <ele>644.7</ele>
        <time>2016-08-28T07:41:43Z</time>
      </trkpt>
      <trkpt lat="44.99461" lon="5.20162">
        <ele>646.14</ele>
        <time>2016-08-28T07:41:46Z</time>
      </trkpt>
      <trkpt lat="44.99461" lon="5.20154">
        <ele>648.55</ele>
        <time>2016-08-28T07:42:02Z</time>
      </trkpt>
      <trkpt lat="44.99461" lon="5.20155">
        <ele>648.55</ele>
        <time>2016-08-28T07:42:20Z</time>
      </trkpt>
      <trkpt lat="44.99457" lon="5.20154">
        <ele>648.55</ele>
        <time>2016-08-28T07:42:41Z</time>
      </trkpt>
      <trkpt lat="44.99459" lon="5.20143">
        <ele>651.43</ele>
        <time>2016-08-28T07:43:02Z</time>
      </trkpt>
      <trkpt lat="44.99461" lon="5.20133">
        <ele>654.8</ele>
        <time>2016-08-28T07:43:14Z</time>
      </trkpt>
      <trkpt lat="44.99462" lon="5.20121">
        <ele>657.2</ele>
        <time>2016-08-28T07:43:28Z</time>
      </trkpt>
      <trkpt lat="44.99465" lon="5.20124">
        <ele>659.6</ele>
        <time>2016-08-28T07:43:40Z</time>
      </trkpt>
      <trkpt lat="44.9947" lon="5.20127">
        <ele>662.01</ele>
        <time>2016-08-28T07:43:52Z</time>
      </trkpt>
      <trkpt lat="44.99472" lon="5.20127">
        <ele>662.49</ele>
        <time>2016-08-28T07:44:06Z</time>
      </trkpt>
      <trkpt lat="44.99473" lon="5.20126">
        <ele>663.93</ele>
        <time>2016-08-28T07:44:27Z</time>
      </trkpt>
      <trkpt lat="44.99477" lon="5.20129">
        <ele>665.37</ele>
        <time>2016-08-28T07:44:38Z</time>
      </trkpt>
      <trkpt lat="44.9948" lon="5.20134">
        <ele>667.77</ele>
        <time>2016-08-28T07:44:56Z</time>
      </trkpt>
      <trkpt lat="44.99482" lon="5.20134">
        <ele>669.7</ele>
        <time>2016-08-28T07:45:01Z</time>
      </trkpt>
      <trkpt lat="44.99486" lon="5.20137">
        <ele>671.14</ele>
        <time>2016-08-28T07:45:08Z</time>
      </trkpt>
      <trkpt lat="44.99493" lon="5.20138">
        <ele>673.54</ele>
        <time>2016-08-28T07:45:19Z</time>
      </trkpt>
      <trkpt lat="44.99496" lon="5.20139">
        <ele>675.94</ele>
        <time>2016-08-28T07:45:31Z</time>
      </trkpt>
      <trkpt lat="44.99502" lon="5.20144">
        <ele>677.87</ele>
        <time>2016-08-28T07:45:45Z</time>
      </trkpt>
      <trkpt lat="44.99506" lon="5.20147">
        <ele>678.35</ele>
        <time>2016-08-28T07:46:03Z</time>
      </trkpt>
      <trkpt lat="44.99505" lon="5.20143">
        <ele>677.87</ele>
        <time>2016-08-28T07:46:25Z</time>
      </trkpt>
      <trkpt lat="44.99505" lon="5.20142">
        <ele>678.83</ele>
        <time>2016-08-28T07:46:48Z</time>
      </trkpt>
      <trkpt lat="44.99507" lon="5.20141">
        <ele>678.83</ele>
        <time>2016-08-28T07:47:17Z</time>
      </trkpt>
      <trkpt lat="44.99508" lon="5.20148">
        <ele>679.31</ele>
        <time>2016-08-28T07:47:49Z</time>
      </trkpt>
      <trkpt lat="44.99508" lon="5.20148">
        <ele>679.79</ele>
        <time>2016-08-28T07:47:51Z</time>
      </trkpt>
      <trkpt lat="44.99509" lon="5.20152">
        <ele>681.23</ele>
        <time>2016-08-28T07:48:02Z</time>
      </trkpt>
      <trkpt lat="44.99515" lon="5.20158">
        <ele>684.12</ele>
        <time>2016-08-28T07:48:14Z</time>
      </trkpt>
      <trkpt lat="44.99521" lon="5.20163">
        <ele>687</ele>
        <time>2016-08-28T07:48:27Z</time>
      </trkpt>
      <trkpt lat="44.99524" lon="5.20169">
        <ele>689.4</ele>
        <time>2016-08-28T07:48:40Z</time>
      </trkpt>
      <trkpt lat="44.99531" lon="5.20174">
        <ele>691.81</ele>
        <time>2016-08-28T07:48:51Z</time>
      </trkpt>
      <trkpt lat="44.99534" lon="5.20179">
        <ele>694.21</ele>
        <time>2016-08-28T07:49:01Z</time>
      </trkpt>
      <trkpt lat="44.99539" lon="5.20185">
        <ele>697.09</ele>
        <time>2016-08-28T07:49:13Z</time>
      </trkpt>
      <trkpt lat="44.99544" lon="5.20193">
        <ele>698.53</ele>
        <time>2016-08-28T07:49:26Z</time>
      </trkpt>
      <trkpt lat="44.99546" lon="5.20197">
        <ele>699.98</ele>
        <time>2016-08-28T07:49:35Z</time>
      </trkpt>
      <trkpt lat="44.9955" lon="5.20206">
        <ele>701.9</ele>
        <time>2016-08-28T07:49:47Z</time>
      </trkpt>
      <trkpt lat="44.99553" lon="5.20209">
        <ele>704.78</ele>
        <time>2016-08-28T07:49:59Z</time>
      </trkpt>
      <trkpt lat="44.99556" lon="5.20213">
        <ele>706.71</ele>
        <time>2016-08-28T07:50:12Z</time>
      </trkpt>
      <trkpt lat="44.99557" lon="5.20214">
        <ele>707.19</ele>
        <time>2016-08-28T07:50:33Z</time>
      </trkpt>
      <trkpt lat="44.99558" lon="5.20214">
        <ele>706.71</ele>
        <time>2016-08-28T07:50:56Z</time>
      </trkpt>
      <trkpt lat="44.99565" lon="5.20224">
        <ele>710.07</ele>
        <time>2016-08-28T07:51:10Z</time>
      </trkpt>
      <trkpt lat="44.99569" lon="5.20233">
        <ele>711.51</ele>
        <time>2016-08-28T07:51:23Z</time>
      </trkpt>
      <trkpt lat="44.9957" lon="5.20241">
        <ele>713.44</ele>
        <time>2016-08-28T07:51:37Z</time>
      </trkpt>
      <trkpt lat="44.99574" lon="5.20245">
        <ele>716.32</ele>
        <time>2016-08-28T07:51:51Z</time>
      </trkpt>
      <trkpt lat="44.99578" lon="5.20247">
        <ele>718.24</ele>
        <time>2016-08-28T07:52:01Z</time>
      </trkpt>
      <trkpt lat="44.99581" lon="5.20251">
        <ele>719.68</ele>
        <time>2016-08-28T07:52:12Z</time>
      </trkpt>
      <trkpt lat="44.99583" lon="5.20252">
        <ele>720.16</ele>
        <time>2016-08-28T07:52:14Z</time>
      </trkpt>
      <trkpt lat="44.99586" lon="5.20259">
        <ele>722.57</ele>
        <time>2016-08-28T07:52:25Z</time>
      </trkpt>
      <trkpt lat="44.99592" lon="5.20265">
        <ele>724.97</ele>
        <time>2016-08-28T07:52:39Z</time>
      </trkpt>
      <trkpt lat="44.99594" lon="5.20274">
        <ele>727.86</ele>
        <time>2016-08-28T07:52:53Z</time>
      </trkpt>
      <trkpt lat="44.99595" lon="5.20281">
        <ele>728.82</ele>
        <time>2016-08-28T07:53:06Z</time>
      </trkpt>
      <trkpt lat="44.99599" lon="5.20288">
        <ele>730.74</ele>
        <time>2016-08-28T07:53:19Z</time>
      </trkpt>
      <trkpt lat="44.99597" lon="5.20296">
        <ele>733.62</ele>
        <time>2016-08-28T07:53:33Z</time>
      </trkpt>
      <trkpt lat="44.99599" lon="5.20304">
        <ele>735.07</ele>
        <time>2016-08-28T07:53:42Z</time>
      </trkpt>
      <trkpt lat="44.996" lon="5.20317">
        <ele>736.51</ele>
        <time>2016-08-28T07:53:55Z</time>
      </trkpt>
      <trkpt lat="44.99601" lon="5.20324">
        <ele>737.95</ele>
        <time>2016-08-28T07:54:06Z</time>
      </trkpt>
      <trkpt lat="44.99602" lon="5.20326">
        <ele>738.91</ele>
        <time>2016-08-28T07:54:09Z</time>
      </trkpt>
      <trkpt lat="44.99602" lon="5.2033">
        <ele>740.83</ele>
        <time>2016-08-28T07:54:16Z</time>
      </trkpt>
      <trkpt lat="44.99604" lon="5.20335">
        <ele>742.76</ele>
        <time>2016-08-28T07:54:28Z</time>
      </trkpt>
      <trkpt lat="44.99604" lon="5.20338">
        <ele>743.72</ele>
        <time>2016-08-28T07:54:32Z</time>
      </trkpt>
      <trkpt lat="44.99602" lon="5.20345">
        <ele>745.64</ele>
        <time>2016-08-28T07:54:43Z</time>
      </trkpt>
      <trkpt lat="44.99602" lon="5.20344">
        <ele>745.16</ele>
        <time>2016-08-28T07:54:56Z</time>
      </trkpt>
      <trkpt lat="44.99598" lon="5.20341">
        <ele>745.16</ele>
        <time>2016-08-28T07:55:10Z</time>
      </trkpt>
      <trkpt lat="44.99598" lon="5.20341">
        <ele>745.16</ele>
        <time>2016-08-28T07:55:23Z</time>
      </trkpt>
      <trkpt lat="44.99598" lon="5.20341">
        <ele>745.64</ele>
        <time>2016-08-28T07:55:41Z</time>
      </trkpt>
      <trkpt lat="44.99599" lon="5.20344">
        <ele>745.64</ele>
        <time>2016-08-28T07:55:55Z</time>
      </trkpt>
      <trkpt lat="44.99597" lon="5.20345">
        <ele>745.16</ele>
        <time>2016-08-28T07:56:15Z</time>
      </trkpt>
      <trkpt lat="44.99601" lon="5.20342">
        <ele>745.16</ele>
        <time>2016-08-28T07:56:32Z</time>
      </trkpt>
      <trkpt lat="44.99597" lon="5.20338">
        <ele>746.12</ele>
        <time>2016-08-28T07:57:08Z</time>
      </trkpt>
      <trkpt lat="44.99596" lon="5.20343">
        <ele>746.12</ele>
        <time>2016-08-28T07:57:31Z</time>
      </trkpt>
      <trkpt lat="44.99599" lon="5.20344">
        <ele>745.64</ele>
        <time>2016-08-28T07:57:52Z</time>
      </trkpt>
      <trkpt lat="44.99598" lon="5.20348">
        <ele>744.68</ele>
        <time>2016-08-28T07:57:59Z</time>
      </trkpt>
      <trkpt lat="44.99593" lon="5.2035">
        <ele>742.28</ele>
        <time>2016-08-28T07:58:11Z</time>
      </trkpt>
      <trkpt lat="44.99591" lon="5.20345">
        <ele>740.35</ele>
        <time>2016-08-28T07:58:24Z</time>
      </trkpt>
      <trkpt lat="44.99586" lon="5.20346">
        <ele>737.95</ele>
        <time>2016-08-28T07:58:37Z</time>
      </trkpt>
      <trkpt lat="44.99582" lon="5.20351">
        <ele>735.07</ele>
        <time>2016-08-28T07:58:48Z</time>
      </trkpt>
      <trkpt lat="44.99582" lon="5.20351">
        <ele>734.1</ele>
        <time>2016-08-28T07:58:58Z</time>
      </trkpt>
      <trkpt lat="44.99582" lon="5.20355">
        <ele>734.58</ele>
        <time>2016-08-28T07:59:11Z</time>
      </trkpt>
      <trkpt lat="44.99585" lon="5.20354">
        <ele>736.03</ele>
        <time>2016-08-28T07:59:16Z</time>
      </trkpt>
      <trkpt lat="44.99591" lon="5.20348">
        <ele>738.43</ele>
        <time>2016-08-28T07:59:27Z</time>
      </trkpt>
      <trkpt lat="44.99596" lon="5.2035">
        <ele>740.83</ele>
        <time>2016-08-28T07:59:38Z</time>
      </trkpt>
      <trkpt lat="44.99598" lon="5.20351">
        <ele>743.24</ele>
        <time>2016-08-28T07:59:51Z</time>
      </trkpt>
      <trkpt lat="44.99602" lon="5.20342">
        <ele>746.6</ele>
        <time>2016-08-28T08:00:01Z</time>
      </trkpt>
      <trkpt lat="44.99606" lon="5.20345">
        <ele>747.56</ele>
        <time>2016-08-28T08:00:09Z</time>
      </trkpt>
      <trkpt lat="44.99602" lon="5.2034">
        <ele>746.12</ele>
        <time>2016-08-28T08:00:20Z</time>
      </trkpt>
      <trkpt lat="44.996" lon="5.2034">
        <ele>746.6</ele>
        <time>2016-08-28T08:01:12Z</time>
      </trkpt>
      <trkpt lat="44.99602" lon="5.20344">
        <ele>746.6</ele>
        <time>2016-08-28T08:01:56Z</time>
      </trkpt>
      <trkpt lat="44.99601" lon="5.20344">
        <ele>746.6</ele>
        <time>2016-08-28T08:02:33Z</time>
      </trkpt>
      <trkpt lat="44.99607" lon="5.20346">
        <ele>746.6</ele>
        <time>2016-08-28T08:03:15Z</time>
      </trkpt>
      <trkpt lat="44.99611" lon="5.20343">
        <ele>746.6</ele>
        <time>2016-08-28T08:03:51Z</time>
      </trkpt>
      <trkpt lat="44.99608" lon="5.20344">
        <ele>746.12</ele>
        <time>2016-08-28T08:04:25Z</time>
      </trkpt>
      <trkpt lat="44.99607" lon="5.20345">
        <ele>746.6</ele>
        <time>2016-08-28T08:04:56Z</time>
      </trkpt>
      <trkpt lat="44.99603" lon="5.20346">
        <ele>745.64</ele>
        <time>2016-08-28T08:05:33Z</time>
      </trkpt>
      <trkpt lat="44.99606" lon="5.20345">
        <ele>746.12</ele>
        <time>2016-08-28T08:06:01Z</time>
      </trkpt>
      <trkpt lat="44.99601" lon="5.20345">
        <ele>746.12</ele>
        <time>2016-08-28T08:06:32Z</time>
      </trkpt>
      <trkpt lat="44.99601" lon="5.20345">
        <ele>746.6</ele>
        <time>2016-08-28T08:06:57Z</time>
      </trkpt>
      <trkpt lat="44.99601" lon="5.20346">
        <ele>747.08</ele>
        <time>2016-08-28T08:07:17Z</time>
      </trkpt>
      <trkpt lat="44.99606" lon="5.20346">
        <ele>747.08</ele>
        <time>2016-08-28T08:07:36Z</time>
      </trkpt>
      <trkpt lat="44.99609" lon="5.20347">
        <ele>747.56</ele>
        <time>2016-08-28T08:07:59Z</time>
      </trkpt>
      <trkpt lat="44.99601" lon="5.2035">
        <ele>749.49</ele>
        <time>2016-08-28T08:08:16Z</time>
      </trkpt>
      <trkpt lat="44.99607" lon="5.2035">
        <ele>751.89</ele>
        <time>2016-08-28T08:08:34Z</time>
      </trkpt>
      <trkpt lat="44.99603" lon="5.20347">
        <ele>755.25</ele>
        <time>2016-08-28T08:08:52Z</time>
      </trkpt>
      <trkpt lat="44.996" lon="5.20348">
        <ele>755.73</ele>
        <time>2016-08-28T08:09:10Z</time>
      </trkpt>
      <trkpt lat="44.99594" lon="5.20353">
        <ele>754.77</ele>
        <time>2016-08-28T08:09:28Z</time>
      </trkpt>
      <trkpt lat="44.99591" lon="5.20347">
        <ele>754.77</ele>
        <time>2016-08-28T08:09:45Z</time>
      </trkpt>
      <trkpt lat="44.99589" lon="5.20362">
        <ele>757.66</ele>
        <time>2016-08-28T08:10:11Z</time>
      </trkpt>
      <trkpt lat="44.99586" lon="5.20368">
        <ele>760.54</ele>
        <time>2016-08-28T08:10:24Z</time>
      </trkpt>
      <trkpt lat="44.99588" lon="5.20381">
        <ele>762.94</ele>
        <time>2016-08-28T08:10:41Z</time>
      </trkpt>
      <trkpt lat="44.99591" lon="5.20387">
        <ele>763.42</ele>
        <time>2016-08-28T08:11:04Z</time>
      </trkpt>
      <trkpt lat="44.99587" lon="5.20388">
        <ele>764.39</ele>
        <time>2016-08-28T08:11:21Z</time>
      </trkpt>
      <trkpt lat="44.996" lon="5.20402">
        <ele>764.87</ele>
        <time>2016-08-28T08:11:39Z</time>
      </trkpt>
      <trkpt lat="44.99601" lon="5.20398">
        <ele>765.83</ele>
        <time>2016-08-28T08:12:01Z</time>
      </trkpt>
      <trkpt lat="44.99601" lon="5.204">
        <ele>768.71</ele>
        <time>2016-08-28T08:12:12Z</time>
      </trkpt>
      <trkpt lat="44.99608" lon="5.20408">
        <ele>771.6</ele>
        <time>2016-08-28T08:12:32Z</time>
      </trkpt>
      <trkpt lat="44.99607" lon="5.2041">
        <ele>771.6</ele>
        <time>2016-08-28T08:12:56Z</time>
      </trkpt>
      <trkpt lat="44.99601" lon="5.20409">
        <ele>771.11</ele>
        <time>2016-08-28T08:13:13Z</time>
      </trkpt>
      <trkpt lat="44.99601" lon="5.20411">
        <ele>771.6</ele>
        <time>2016-08-28T08:13:36Z</time>
      </trkpt>
      <trkpt lat="44.99601" lon="5.20412">
        <ele>771.6</ele>
        <time>2016-08-28T08:14:03Z</time>
      </trkpt>
      <trkpt lat="44.996" lon="5.20415">
        <ele>773.04</ele>
        <time>2016-08-28T08:14:23Z</time>
      </trkpt>
      <trkpt lat="44.99609" lon="5.20414">
        <ele>774</ele>
        <time>2016-08-28T08:14:41Z</time>
      </trkpt>
      <trkpt lat="44.99604" lon="5.20422">
        <ele>775.44</ele>
        <time>2016-08-28T08:14:59Z</time>
      </trkpt>
      <trkpt lat="44.99606" lon="5.20413">
        <ele>776.4</ele>
        <time>2016-08-28T08:15:21Z</time>
      </trkpt>
      <trkpt lat="44.99607" lon="5.20412">
        <ele>775.44</ele>
        <time>2016-08-28T08:15:35Z</time>
      </trkpt>
      <trkpt lat="44.99613" lon="5.20404">
        <ele>774.96</ele>
        <time>2016-08-28T08:16:01Z</time>
      </trkpt>
      <trkpt lat="44.99613" lon="5.20416">
        <ele>774.96</ele>
        <time>2016-08-28T08:16:25Z</time>
      </trkpt>
      <trkpt lat="44.99619" lon="5.20428">
        <ele>775.44</ele>
        <time>2016-08-28T08:16:48Z</time>
      </trkpt>
      <trkpt lat="44.99631" lon="5.2045">
        <ele>774.96</ele>
        <time>2016-08-28T08:18:40Z</time>
      </trkpt>
      <trkpt lat="44.99635" lon="5.20452">
        <ele>774.48</ele>
        <time>2016-08-28T08:18:52Z</time>
      </trkpt>
      <trkpt lat="44.99633" lon="5.20451">
        <ele>774.96</ele>
        <time>2016-08-28T08:19:27Z</time>
      </trkpt>
      <trkpt lat="44.99629" lon="5.20452">
        <ele>774.48</ele>
        <time>2016-08-28T08:19:41Z</time>
      </trkpt>
      <trkpt lat="44.99629" lon="5.2045">
        <ele>774</ele>
        <time>2016-08-28T08:20:05Z</time>
      </trkpt>
      <trkpt lat="44.99624" lon="5.20448">
        <ele>774.48</ele>
        <time>2016-08-28T08:20:24Z</time>
      </trkpt>
      <trkpt lat="44.99623" lon="5.20444">
        <ele>772.56</ele>
        <time>2016-08-28T08:20:41Z</time>
      </trkpt>
      <trkpt lat="44.99621" lon="5.20434">
        <ele>771.11</ele>
        <time>2016-08-28T08:20:57Z</time>
      </trkpt>
      <trkpt lat="44.99616" lon="5.20426">
        <ele>767.75</ele>
        <time>2016-08-28T08:21:15Z</time>
      </trkpt>
      <trkpt lat="44.99614" lon="5.20402">
        <ele>766.31</ele>
        <time>2016-08-28T08:21:31Z</time>
      </trkpt>
      <trkpt lat="44.99603" lon="5.20397">
        <ele>764.87</ele>
        <time>2016-08-28T08:21:47Z</time>
      </trkpt>
      <trkpt lat="44.99604" lon="5.20404">
        <ele>764.39</ele>
        <time>2016-08-28T08:22:13Z</time>
      </trkpt>
      <trkpt lat="44.99606" lon="5.20393">
        <ele>763.42</ele>
        <time>2016-08-28T08:22:34Z</time>
      </trkpt>
      <trkpt lat="44.99598" lon="5.20392">
        <ele>761.98</ele>
        <time>2016-08-28T08:22:54Z</time>
      </trkpt>
      <trkpt lat="44.99598" lon="5.20389">
        <ele>761.5</ele>
        <time>2016-08-28T08:23:24Z</time>
      </trkpt>
      <trkpt lat="44.99597" lon="5.20394">
        <ele>761.98</ele>
        <time>2016-08-28T08:23:53Z</time>
      </trkpt>
      <trkpt lat="44.99597" lon="5.20382">
        <ele>759.1</ele>
        <time>2016-08-28T08:24:15Z</time>
      </trkpt>
      <trkpt lat="44.99601" lon="5.20367">
        <ele>756.21</ele>
        <time>2016-08-28T08:24:30Z</time>
      </trkpt>
      <trkpt lat="44.99609" lon="5.20357">
        <ele>758.14</ele>
        <time>2016-08-28T08:24:46Z</time>
      </trkpt>
      <trkpt lat="44.99608" lon="5.20346">
        <ele>755.73</ele>
        <time>2016-08-28T08:25:00Z</time>
      </trkpt>
      <trkpt lat="44.99605" lon="5.20351">
        <ele>754.29</ele>
        <time>2016-08-28T08:25:14Z</time>
      </trkpt>
      <trkpt lat="44.99608" lon="5.20352">
        <ele>754.29</ele>
        <time>2016-08-28T08:25:39Z</time>
      </trkpt>
      <trkpt lat="44.99611" lon="5.20342">
        <ele>755.25</ele>
        <time>2016-08-28T08:26:07Z</time>
      </trkpt>
      <trkpt lat="44.99612" lon="5.20334">
        <ele>758.62</ele>
        <time>2016-08-28T08:26:25Z</time>
      </trkpt>
      <trkpt lat="44.99611" lon="5.20331">
        <ele>758.62</ele>
        <time>2016-08-28T08:26:28Z</time>
      </trkpt>
      <trkpt lat="44.99616" lon="5.20327">
        <ele>761.98</ele>
        <time>2016-08-28T08:26:43Z</time>
      </trkpt>
      <trkpt lat="44.99621" lon="5.20326">
        <ele>764.87</ele>
        <time>2016-08-28T08:26:56Z</time>
      </trkpt>
      <trkpt lat="44.99628" lon="5.20321">
        <ele>767.75</ele>
        <time>2016-08-28T08:27:12Z</time>
      </trkpt>
      <trkpt lat="44.99636" lon="5.20316">
        <ele>771.6</ele>
        <time>2016-08-28T08:27:32Z</time>
      </trkpt>
      <trkpt lat="44.99639" lon="5.20318">
        <ele>772.56</ele>
        <time>2016-08-28T08:27:55Z</time>
      </trkpt>
      <trkpt lat="44.99648" lon="5.20321">
        <ele>774.96</ele>
        <time>2016-08-28T08:28:15Z</time>
      </trkpt>
      <trkpt lat="44.9965" lon="5.2031">
        <ele>776.88</ele>
        <time>2016-08-28T08:28:35Z</time>
      </trkpt>
      <trkpt lat="44.9965" lon="5.20303">
        <ele>779.29</ele>
        <time>2016-08-28T08:28:51Z</time>
      </trkpt>
      <trkpt lat="44.99651" lon="5.20298">
        <ele>781.21</ele>
        <time>2016-08-28T08:29:09Z</time>
      </trkpt>
      <trkpt lat="44.99654" lon="5.20292">
        <ele>783.13</ele>
        <time>2016-08-28T08:29:26Z</time>
      </trkpt>
      <trkpt lat="44.99658" lon="5.20287">
        <ele>786.5</ele>
        <time>2016-08-28T08:29:41Z</time>
      </trkpt>
      <trkpt lat="44.99663" lon="5.20284">
        <ele>789.38</ele>
        <time>2016-08-28T08:29:58Z</time>
      </trkpt>
      <trkpt lat="44.99664" lon="5.20286">
        <ele>790.34</ele>
        <time>2016-08-28T08:30:13Z</time>
      </trkpt>
      <trkpt lat="44.99664" lon="5.20284">
        <ele>790.82</ele>
        <time>2016-08-28T08:30:33Z</time>
      </trkpt>
      <trkpt lat="44.99662" lon="5.20282">
        <ele>790.82</ele>
        <time>2016-08-28T08:30:52Z</time>
      </trkpt>
      <trkpt lat="44.99665" lon="5.20287">
        <ele>791.78</ele>
        <time>2016-08-28T08:31:14Z</time>
      </trkpt>
      <trkpt lat="44.99671" lon="5.20286">
        <ele>795.15</ele>
        <time>2016-08-28T08:31:26Z</time>
      </trkpt>
      <trkpt lat="44.99677" lon="5.20277">
        <ele>797.55</ele>
        <time>2016-08-28T08:31:40Z</time>
      </trkpt>
      <trkpt lat="44.99682" lon="5.20272">
        <ele>800.44</ele>
        <time>2016-08-28T08:31:56Z</time>
      </trkpt>
      <trkpt lat="44.99684" lon="5.20272">
        <ele>802.84</ele>
        <time>2016-08-28T08:32:12Z</time>
      </trkpt>
      <trkpt lat="44.99685" lon="5.20269">
        <ele>804.28</ele>
        <time>2016-08-28T08:32:15Z</time>
      </trkpt>
      <trkpt lat="44.99686" lon="5.20262">
        <ele>804.76</ele>
        <time>2016-08-28T08:32:31Z</time>
      </trkpt>
      <trkpt lat="44.99682" lon="5.20258">
        <ele>805.72</ele>
        <time>2016-08-28T08:32:46Z</time>
      </trkpt>
      <trkpt lat="44.99682" lon="5.20252">
        <ele>805.24</ele>
        <time>2016-08-28T08:33:08Z</time>
      </trkpt>
      <trkpt lat="44.99677" lon="5.20253">
        <ele>805.72</ele>
        <time>2016-08-28T08:33:34Z</time>
      </trkpt>
      <trkpt lat="44.99677" lon="5.20258">
        <ele>805.72</ele>
        <time>2016-08-28T08:34:02Z</time>
      </trkpt>
      <trkpt lat="44.99681" lon="5.20256">
        <ele>807.16</ele>
        <time>2016-08-28T08:34:22Z</time>
      </trkpt>
      <trkpt lat="44.99685" lon="5.20251">
        <ele>810.53</ele>
        <time>2016-08-28T08:34:34Z</time>
      </trkpt>
      <trkpt lat="44.99686" lon="5.2025">
        <ele>812.45</ele>
        <time>2016-08-28T08:34:50Z</time>
      </trkpt>
      <trkpt lat="44.99691" lon="5.20252">
        <ele>814.85</ele>
        <time>2016-08-28T08:35:03Z</time>
      </trkpt>
      <trkpt lat="44.99696" lon="5.20253">
        <ele>817.26</ele>
        <time>2016-08-28T08:35:16Z</time>
      </trkpt>
      <trkpt lat="44.99701" lon="5.2025">
        <ele>820.62</ele>
        <time>2016-08-28T08:35:27Z</time>
      </trkpt>
      <trkpt lat="44.99709" lon="5.20251">
        <ele>823.03</ele>
        <time>2016-08-28T08:35:40Z</time>
      </trkpt>
      <trkpt lat="44.99709" lon="5.20251">
        <ele>823.51</ele>
        <time>2016-08-28T08:36:04Z</time>
      </trkpt>
      <trkpt lat="44.99707" lon="5.20248">
        <ele>823.03</ele>
        <time>2016-08-28T08:36:31Z</time>
      </trkpt>
      <trkpt lat="44.99709" lon="5.20252">
        <ele>823.03</ele>
        <time>2016-08-28T08:37:03Z</time>
      </trkpt>
      <trkpt lat="44.9971" lon="5.20252">
        <ele>822.55</ele>
        <time>2016-08-28T08:37:26Z</time>
      </trkpt>
      <trkpt lat="44.99711" lon="5.20248">
        <ele>823.51</ele>
        <time>2016-08-28T08:37:46Z</time>
      </trkpt>
      <trkpt lat="44.99709" lon="5.20246">
        <ele>823.99</ele>
        <time>2016-08-28T08:38:03Z</time>
      </trkpt>
      <trkpt lat="44.9971" lon="5.20247">
        <ele>823.03</ele>
        <time>2016-08-28T08:38:20Z</time>
      </trkpt>
      <trkpt lat="44.9971" lon="5.2025">
        <ele>823.03</ele>
        <time>2016-08-28T08:38:42Z</time>
      </trkpt>
      <trkpt lat="44.99712" lon="5.20246">
        <ele>823.51</ele>
        <time>2016-08-28T08:38:59Z</time>
      </trkpt>
      <trkpt lat="44.99718" lon="5.20257">
        <ele>823.03</ele>
        <time>2016-08-28T08:39:11Z</time>
      </trkpt>
      <trkpt lat="44.99725" lon="5.20266">
        <ele>824.47</ele>
        <time>2016-08-28T08:39:26Z</time>
      </trkpt>
      <trkpt lat="44.99735" lon="5.20274">
        <ele>825.43</ele>
        <time>2016-08-28T08:39:41Z</time>
      </trkpt>
      <trkpt lat="44.9975" lon="5.20283">
        <ele>825.91</ele>
        <time>2016-08-28T08:39:57Z</time>
      </trkpt>
      <trkpt lat="44.99757" lon="5.20286">
        <ele>827.35</ele>
        <time>2016-08-28T08:40:19Z</time>
      </trkpt>
      <trkpt lat="44.99764" lon="5.20294">
        <ele>829.27</ele>
        <time>2016-08-28T08:40:29Z</time>
      </trkpt>
      <trkpt lat="44.99772" lon="5.20301">
        <ele>831.68</ele>
        <time>2016-08-28T08:40:46Z</time>
      </trkpt>
      <trkpt lat="44.99782" lon="5.2031">
        <ele>834.08</ele>
        <time>2016-08-28T08:41:01Z</time>
      </trkpt>
      <trkpt lat="44.99788" lon="5.20319">
        <ele>835.52</ele>
        <time>2016-08-28T08:41:12Z</time>
      </trkpt>
      <trkpt lat="44.9979" lon="5.20327">
        <ele>837.93</ele>
        <time>2016-08-28T08:41:23Z</time>
      </trkpt>
      <trkpt lat="44.99796" lon="5.20336">
        <ele>839.85</ele>
        <time>2016-08-28T08:41:37Z</time>
      </trkpt>
      <trkpt lat="44.99797" lon="5.20344">
        <ele>841.29</ele>
        <time>2016-08-28T08:41:48Z</time>
      </trkpt>
      <trkpt lat="44.99798" lon="5.20345">
        <ele>841.29</ele>
        <time>2016-08-28T08:42:07Z</time>
      </trkpt>
      <trkpt lat="44.99801" lon="5.20349">
        <ele>841.77</ele>
        <time>2016-08-28T08:42:19Z</time>
      </trkpt>
      <trkpt lat="44.99805" lon="5.20355">
        <ele>843.69</ele>
        <time>2016-08-28T08:42:30Z</time>
      </trkpt>
      <trkpt lat="44.99808" lon="5.20361">
        <ele>844.18</ele>
        <time>2016-08-28T08:42:37Z</time>
      </trkpt>
      <trkpt lat="44.99813" lon="5.2037">
        <ele>845.62</ele>
        <time>2016-08-28T08:42:47Z</time>
      </trkpt>
      <trkpt lat="44.99815" lon="5.20374">
        <ele>847.06</ele>
        <time>2016-08-28T08:42:54Z</time>
      </trkpt>
      <trkpt lat="44.99815" lon="5.20377">
        <ele>847.54</ele>
        <time>2016-08-28T08:43:07Z</time>
      </trkpt>
      <trkpt lat="44.99818" lon="5.2038">
        <ele>848.02</ele>
        <time>2016-08-28T08:43:25Z</time>
      </trkpt>
      <trkpt lat="44.99824" lon="5.20387">
        <ele>849.46</ele>
        <time>2016-08-28T08:43:36Z</time>
      </trkpt>
      <trkpt lat="44.99831" lon="5.20393">
        <ele>851.38</ele>
        <time>2016-08-28T08:43:49Z</time>
      </trkpt>
      <trkpt lat="44.99834" lon="5.20398">
        <ele>851.87</ele>
        <time>2016-08-28T08:44:04Z</time>
      </trkpt>
      <trkpt lat="44.99832" lon="5.20399">
        <ele>852.35</ele>
        <time>2016-08-28T08:44:22Z</time>
      </trkpt>
      <trkpt lat="44.99834" lon="5.20399">
        <ele>851.87</ele>
        <time>2016-08-28T08:44:41Z</time>
      </trkpt>
      <trkpt lat="44.99838" lon="5.20404">
        <ele>852.83</ele>
        <time>2016-08-28T08:44:58Z</time>
      </trkpt>
      <trkpt lat="44.9984" lon="5.20417">
        <ele>854.75</ele>
        <time>2016-08-28T08:45:11Z</time>
      </trkpt>
      <trkpt lat="44.99841" lon="5.20421">
        <ele>856.67</ele>
        <time>2016-08-28T08:45:28Z</time>
      </trkpt>
      <trkpt lat="44.99849" lon="5.20434">
        <ele>859.56</ele>
        <time>2016-08-28T08:45:43Z</time>
      </trkpt>
      <trkpt lat="44.99852" lon="5.20439">
        <ele>861.48</ele>
        <time>2016-08-28T08:45:57Z</time>
      </trkpt>
      <trkpt lat="44.99852" lon="5.20432">
        <ele>861.48</ele>
        <time>2016-08-28T08:46:18Z</time>
      </trkpt>
      <trkpt lat="44.99854" lon="5.20435">
        <ele>861</ele>
        <time>2016-08-28T08:46:42Z</time>
      </trkpt>
      <trkpt lat="44.99851" lon="5.20436">
        <ele>861.96</ele>
        <time>2016-08-28T08:47:07Z</time>
      </trkpt>
      <trkpt lat="44.99852" lon="5.20426">
        <ele>861.48</ele>
        <time>2016-08-28T08:47:31Z</time>
      </trkpt>
      <trkpt lat="44.99852" lon="5.2043">
        <ele>861.48</ele>
        <time>2016-08-28T08:48:00Z</time>
      </trkpt>
      <trkpt lat="44.9985" lon="5.20427">
        <ele>861.96</ele>
        <time>2016-08-28T08:48:26Z</time>
      </trkpt>
      <trkpt lat="44.99849" lon="5.20436">
        <ele>861.96</ele>
        <time>2016-08-28T08:48:53Z</time>
      </trkpt>
      <trkpt lat="44.99849" lon="5.20438">
        <ele>861.96</ele>
        <time>2016-08-28T08:49:11Z</time>
      </trkpt>
      <trkpt lat="44.99849" lon="5.20442">
        <ele>861.96</ele>
        <time>2016-08-28T08:49:29Z</time>
      </trkpt>
      <trkpt lat="44.99849" lon="5.20441">
        <ele>862.92</ele>
        <time>2016-08-28T08:49:41Z</time>
      </trkpt>
      <trkpt lat="44.99852" lon="5.2044">
        <ele>862.92</ele>
        <time>2016-08-28T08:50:03Z</time>
      </trkpt>
      <trkpt lat="44.99853" lon="5.20438">
        <ele>863.4</ele>
        <time>2016-08-28T08:50:21Z</time>
      </trkpt>
      <trkpt lat="44.99861" lon="5.20427">
        <ele>863.88</ele>
        <time>2016-08-28T08:50:37Z</time>
      </trkpt>
      <trkpt lat="44.99872" lon="5.20418">
        <ele>865.8</ele>
        <time>2016-08-28T08:50:53Z</time>
      </trkpt>
      <trkpt lat="44.99882" lon="5.20409">
        <ele>868.21</ele>
        <time>2016-08-28T08:51:09Z</time>
      </trkpt>
      <trkpt lat="44.99891" lon="5.2041">
        <ele>871.57</ele>
        <time>2016-08-28T08:51:23Z</time>
      </trkpt>
      <trkpt lat="44.99901" lon="5.20414">
        <ele>873.98</ele>
        <time>2016-08-28T08:51:38Z</time>
      </trkpt>
      <trkpt lat="44.99905" lon="5.20416">
        <ele>875.42</ele>
        <time>2016-08-28T08:51:52Z</time>
      </trkpt>
      <trkpt lat="44.99908" lon="5.20418">
        <ele>874.94</ele>
        <time>2016-08-28T08:51:59Z</time>
      </trkpt>
      <trkpt lat="44.99911" lon="5.20425">
        <ele>876.86</ele>
        <time>2016-08-28T08:52:11Z</time>
      </trkpt>
      <trkpt lat="44.99911" lon="5.20426">
        <ele>877.34</ele>
        <time>2016-08-28T08:52:26Z</time>
      </trkpt>
      <trkpt lat="44.99914" lon="5.20426">
        <ele>877.82</ele>
        <time>2016-08-28T08:52:46Z</time>
      </trkpt>
      <trkpt lat="44.99914" lon="5.20423">
        <ele>877.34</ele>
        <time>2016-08-28T08:52:54Z</time>
      </trkpt>
      <trkpt lat="44.99909" lon="5.20411">
        <ele>874.94</ele>
        <time>2016-08-28T08:53:09Z</time>
      </trkpt>
      <trkpt lat="44.99917" lon="5.20404">
        <ele>873.5</ele>
        <time>2016-08-28T08:53:23Z</time>
      </trkpt>
      <trkpt lat="44.9992" lon="5.20405">
        <ele>873.5</ele>
        <time>2016-08-28T08:53:26Z</time>
      </trkpt>
      <trkpt lat="44.99926" lon="5.20404">
        <ele>873.01</ele>
        <time>2016-08-28T08:53:32Z</time>
      </trkpt>
      <trkpt lat="44.9993" lon="5.20394">
        <ele>875.9</ele>
        <time>2016-08-28T08:53:45Z</time>
      </trkpt>
      <trkpt lat="44.99931" lon="5.20392">
        <ele>876.38</ele>
        <time>2016-08-28T08:54:09Z</time>
      </trkpt>
      <trkpt lat="44.9993" lon="5.2039">
        <ele>875.9</ele>
        <time>2016-08-28T08:54:34Z</time>
      </trkpt>
      <trkpt lat="44.99933" lon="5.20393">
        <ele>875.9</ele>
        <time>2016-08-28T08:54:53Z</time>
      </trkpt>
      <trkpt lat="44.9993" lon="5.20397">
        <ele>876.38</ele>
        <time>2016-08-28T08:55:16Z</time>
      </trkpt>
      <trkpt lat="44.99928" lon="5.20403">
        <ele>876.38</ele>
        <time>2016-08-28T08:55:36Z</time>
      </trkpt>
      <trkpt lat="44.99929" lon="5.20399">
        <ele>877.34</ele>
        <time>2016-08-28T08:55:59Z</time>
      </trkpt>
      <trkpt lat="44.99928" lon="5.20397">
        <ele>877.34</ele>
        <time>2016-08-28T08:56:23Z</time>
      </trkpt>
      <trkpt lat="44.99931" lon="5.20399">
        <ele>877.34</ele>
        <time>2016-08-28T08:56:50Z</time>
      </trkpt>
      <trkpt lat="44.99932" lon="5.20398">
        <ele>876.86</ele>
        <time>2016-08-28T08:57:15Z</time>
      </trkpt>
      <trkpt lat="44.99931" lon="5.20397">
        <ele>877.34</ele>
        <time>2016-08-28T08:57:45Z</time>
      </trkpt>
      <trkpt lat="44.99928" lon="5.20395">
        <ele>877.82</ele>
        <time>2016-08-28T08:58:08Z</time>
      </trkpt>
      <trkpt lat="44.99931" lon="5.20402">
        <ele>876.86</ele>
        <time>2016-08-28T08:58:37Z</time>
      </trkpt>
      <trkpt lat="44.99927" lon="5.20406">
        <ele>876.86</ele>
        <time>2016-08-28T08:58:55Z</time>
      </trkpt>
      <trkpt lat="44.99925" lon="5.20409">
        <ele>872.05</ele>
        <time>2016-08-28T08:59:04Z</time>
      </trkpt>
      <trkpt lat="44.99925" lon="5.2041">
        <ele>872.05</ele>
        <time>2016-08-28T08:59:05Z</time>
      </trkpt>
      <trkpt lat="44.99925" lon="5.20411">
        <ele>875.9</ele>
        <time>2016-08-28T08:59:06Z</time>
      </trkpt>
      <trkpt lat="44.99925" lon="5.20411">
        <ele>874.94</ele>
        <time>2016-08-28T08:59:07Z</time>
      </trkpt>
      <trkpt lat="44.99925" lon="5.20423">
        <ele>875.42</ele>
        <time>2016-08-28T08:59:23Z</time>
      </trkpt>
      <trkpt lat="44.99922" lon="5.20417">
        <ele>876.38</ele>
        <time>2016-08-28T08:59:41Z</time>
      </trkpt>
      <trkpt lat="44.99922" lon="5.20422">
        <ele>876.86</ele>
        <time>2016-08-28T09:00:05Z</time>
      </trkpt>
      <trkpt lat="44.99917" lon="5.20431">
        <ele>879.74</ele>
        <time>2016-08-28T09:00:16Z</time>
      </trkpt>
      <trkpt lat="44.99922" lon="5.20439">
        <ele>880.71</ele>
        <time>2016-08-28T09:00:29Z</time>
      </trkpt>
      <trkpt lat="44.99924" lon="5.20449">
        <ele>882.63</ele>
        <time>2016-08-28T09:00:44Z</time>
      </trkpt>
      <trkpt lat="44.99927" lon="5.20456">
        <ele>883.11</ele>
        <time>2016-08-28T09:00:51Z</time>
      </trkpt>
      <trkpt lat="44.99927" lon="5.20467">
        <ele>886.95</ele>
        <time>2016-08-28T09:01:04Z</time>
      </trkpt>
      <trkpt lat="44.99926" lon="5.20478">
        <ele>889.84</ele>
        <time>2016-08-28T09:01:18Z</time>
      </trkpt>
      <trkpt lat="44.99928" lon="5.20491">
        <ele>892.72</ele>
        <time>2016-08-28T09:01:34Z</time>
      </trkpt>
      <trkpt lat="44.9993" lon="5.20504">
        <ele>894.64</ele>
        <time>2016-08-28T09:01:49Z</time>
      </trkpt>
      <trkpt lat="44.99927" lon="5.20514">
        <ele>896.57</ele>
        <time>2016-08-28T09:02:00Z</time>
      </trkpt>
      <trkpt lat="44.99925" lon="5.20517">
        <ele>896.09</ele>
        <time>2016-08-28T09:02:17Z</time>
      </trkpt>
      <trkpt lat="44.99924" lon="5.20519">
        <ele>896.57</ele>
        <time>2016-08-28T09:02:33Z</time>
      </trkpt>
      <trkpt lat="44.99926" lon="5.2052">
        <ele>896.57</ele>
        <time>2016-08-28T09:02:48Z</time>
      </trkpt>
      <trkpt lat="44.99925" lon="5.20525">
        <ele>897.53</ele>
        <time>2016-08-28T09:02:55Z</time>
      </trkpt>
      <trkpt lat="44.99923" lon="5.2054">
        <ele>899.45</ele>
        <time>2016-08-28T09:03:11Z</time>
      </trkpt>
      <trkpt lat="44.99919" lon="5.20557">
        <ele>901.37</ele>
        <time>2016-08-28T09:03:27Z</time>
      </trkpt>
      <trkpt lat="44.99913" lon="5.20572">
        <ele>903.3</ele>
        <time>2016-08-28T09:03:43Z</time>
      </trkpt>
      <trkpt lat="44.99907" lon="5.20593">
        <ele>904.74</ele>
        <time>2016-08-28T09:04:01Z</time>
      </trkpt>
      <trkpt lat="44.99902" lon="5.20608">
        <ele>905.7</ele>
        <time>2016-08-28T09:04:13Z</time>
      </trkpt>
      <trkpt lat="44.99895" lon="5.20628">
        <ele>906.66</ele>
        <time>2016-08-28T09:04:31Z</time>
      </trkpt>
      <trkpt lat="44.99891" lon="5.20639">
        <ele>907.62</ele>
        <time>2016-08-28T09:04:47Z</time>
      </trkpt>
      <trkpt lat="44.99887" lon="5.20654">
        <ele>909.54</ele>
        <time>2016-08-28T09:05:04Z</time>
      </trkpt>
      <trkpt lat="44.99885" lon="5.20669">
        <ele>912.91</ele>
        <time>2016-08-28T09:05:19Z</time>
      </trkpt>
      <trkpt lat="44.99884" lon="5.20681">
        <ele>914.35</ele>
        <time>2016-08-28T09:05:32Z</time>
      </trkpt>
      <trkpt lat="44.99883" lon="5.20682">
        <ele>915.79</ele>
        <time>2016-08-28T09:05:34Z</time>
      </trkpt>
      <trkpt lat="44.99881" lon="5.20696">
        <ele>918.68</ele>
        <time>2016-08-28T09:05:49Z</time>
      </trkpt>
      <trkpt lat="44.99876" lon="5.20709">
        <ele>920.6</ele>
        <time>2016-08-28T09:06:03Z</time>
      </trkpt>
      <trkpt lat="44.9987" lon="5.20721">
        <ele>922.52</ele>
        <time>2016-08-28T09:06:18Z</time>
      </trkpt>
      <trkpt lat="44.99866" lon="5.20729">
        <ele>925.41</ele>
        <time>2016-08-28T09:06:28Z</time>
      </trkpt>
      <trkpt lat="44.99864" lon="5.20734">
        <ele>926.37</ele>
        <time>2016-08-28T09:06:34Z</time>
      </trkpt>
      <trkpt lat="44.99858" lon="5.20748">
        <ele>926.85</ele>
        <time>2016-08-28T09:06:48Z</time>
      </trkpt>
      <trkpt lat="44.99857" lon="5.2075">
        <ele>930.21</ele>
        <time>2016-08-28T09:06:51Z</time>
      </trkpt>
      <trkpt lat="44.99852" lon="5.20756">
        <ele>926.85</ele>
        <time>2016-08-28T09:06:58Z</time>
      </trkpt>
      <trkpt lat="44.99852" lon="5.20757">
        <ele>926.37</ele>
        <time>2016-08-28T09:06:59Z</time>
      </trkpt>
      <trkpt lat="44.99851" lon="5.20758">
        <ele>930.69</ele>
        <time>2016-08-28T09:07:01Z</time>
      </trkpt>
      <trkpt lat="44.99847" lon="5.20763">
        <ele>927.33</ele>
        <time>2016-08-28T09:07:08Z</time>
      </trkpt>
      <trkpt lat="44.99847" lon="5.20763">
        <ele>929.25</ele>
        <time>2016-08-28T09:07:11Z</time>
      </trkpt>
      <trkpt lat="44.99846" lon="5.20764">
        <ele>930.69</ele>
        <time>2016-08-28T09:07:20Z</time>
      </trkpt>
      <trkpt lat="44.99846" lon="5.20765">
        <ele>926.85</ele>
        <time>2016-08-28T09:07:27Z</time>
      </trkpt>
      <trkpt lat="44.99847" lon="5.20765">
        <ele>931.65</ele>
        <time>2016-08-28T09:07:29Z</time>
      </trkpt>
      <trkpt lat="44.99847" lon="5.20765">
        <ele>927.81</ele>
        <time>2016-08-28T09:07:30Z</time>
      </trkpt>
      <trkpt lat="44.99846" lon="5.20764">
        <ele>931.17</ele>
        <time>2016-08-28T09:07:35Z</time>
      </trkpt>
      <trkpt lat="44.99847" lon="5.20766">
        <ele>930.69</ele>
        <time>2016-08-28T09:07:53Z</time>
      </trkpt>
      <trkpt lat="44.99847" lon="5.20766">
        <ele>929.73</ele>
        <time>2016-08-28T09:07:55Z</time>
      </trkpt>
      <trkpt lat="44.99847" lon="5.20765">
        <ele>928.77</ele>
        <time>2016-08-28T09:08:31Z</time>
      </trkpt>
      <trkpt lat="44.99848" lon="5.20769">
        <ele>930.69</ele>
        <time>2016-08-28T09:08:54Z</time>
      </trkpt>
      <trkpt lat="44.99847" lon="5.20769">
        <ele>930.69</ele>
        <time>2016-08-28T09:09:19Z</time>
      </trkpt>
      <trkpt lat="44.99847" lon="5.2077">
        <ele>930.69</ele>
        <time>2016-08-28T09:09:39Z</time>
      </trkpt>
      <trkpt lat="44.99845" lon="5.20771">
        <ele>930.21</ele>
        <time>2016-08-28T09:10:01Z</time>
      </trkpt>
      <trkpt lat="44.99843" lon="5.20773">
        <ele>929.25</ele>
        <time>2016-08-28T09:10:05Z</time>
      </trkpt>
      <trkpt lat="44.99846" lon="5.20791">
        <ele>928.29</ele>
        <time>2016-08-28T09:10:21Z</time>
      </trkpt>
      <trkpt lat="44.99856" lon="5.20794">
        <ele>926.37</ele>
        <time>2016-08-28T09:10:34Z</time>
      </trkpt>
      <trkpt lat="44.99874" lon="5.20799">
        <ele>924.45</ele>
        <time>2016-08-28T09:10:52Z</time>
      </trkpt>
      <trkpt lat="44.9989" lon="5.20813">
        <ele>922.04</ele>
        <time>2016-08-28T09:11:12Z</time>
      </trkpt>
      <trkpt lat="44.99898" lon="5.20819">
        <ele>922.04</ele>
        <time>2016-08-28T09:11:30Z</time>
      </trkpt>
      <trkpt lat="44.99907" lon="5.20829">
        <ele>918.68</ele>
        <time>2016-08-28T09:11:42Z</time>
      </trkpt>
      <trkpt lat="44.99917" lon="5.20841">
        <ele>918.68</ele>
        <time>2016-08-28T09:11:58Z</time>
      </trkpt>
      <trkpt lat="44.9993" lon="5.20857">
        <ele>916.75</ele>
        <time>2016-08-28T09:12:14Z</time>
      </trkpt>
      <trkpt lat="44.99937" lon="5.20871">
        <ele>915.31</ele>
        <time>2016-08-28T09:12:28Z</time>
      </trkpt>
      <trkpt lat="44.99943" lon="5.20887">
        <ele>912.43</ele>
        <time>2016-08-28T09:12:41Z</time>
      </trkpt>
      <trkpt lat="44.99939" lon="5.20904">
        <ele>912.91</ele>
        <time>2016-08-28T09:12:53Z</time>
      </trkpt>
      <trkpt lat="44.9994" lon="5.20925">
        <ele>912.91</ele>
        <time>2016-08-28T09:13:07Z</time>
      </trkpt>
      <trkpt lat="44.9994" lon="5.20926">
        <ele>912.91</ele>
        <time>2016-08-28T09:13:08Z</time>
      </trkpt>
      <trkpt lat="44.99938" lon="5.20946">
        <ele>912.91</ele>
        <time>2016-08-28T09:13:21Z</time>
      </trkpt>
      <trkpt lat="44.99937" lon="5.20957">
        <ele>916.27</ele>
        <time>2016-08-28T09:13:30Z</time>
      </trkpt>
      <trkpt lat="44.99936" lon="5.20958">
        <ele>915.31</ele>
        <time>2016-08-28T09:13:33Z</time>
      </trkpt>
      <trkpt lat="44.99937" lon="5.20961">
        <ele>917.72</ele>
        <time>2016-08-28T09:13:38Z</time>
      </trkpt>
      <trkpt lat="44.99937" lon="5.20962">
        <ele>912.91</ele>
        <time>2016-08-28T09:13:39Z</time>
      </trkpt>
      <trkpt lat="44.99937" lon="5.20963">
        <ele>914.35</ele>
        <time>2016-08-28T09:13:40Z</time>
      </trkpt>
      <trkpt lat="44.99937" lon="5.20965">
        <ele>917.72</ele>
        <time>2016-08-28T09:13:42Z</time>
      </trkpt>
      <trkpt lat="44.99938" lon="5.20967">
        <ele>916.75</ele>
        <time>2016-08-28T09:13:43Z</time>
      </trkpt>
      <trkpt lat="44.99942" lon="5.20988">
        <ele>920.12</ele>
        <time>2016-08-28T09:13:55Z</time>
      </trkpt>
      <trkpt lat="44.99943" lon="5.20989">
        <ele>920.12</ele>
        <time>2016-08-28T09:13:56Z</time>
      </trkpt>
      <trkpt lat="44.99944" lon="5.20991">
        <ele>916.75</ele>
        <time>2016-08-28T09:13:58Z</time>
      </trkpt>
      <trkpt lat="44.99944" lon="5.20992">
        <ele>920.12</ele>
        <time>2016-08-28T09:13:59Z</time>
      </trkpt>
      <trkpt lat="44.99945" lon="5.20996">
        <ele>917.72</ele>
        <time>2016-08-28T09:14:02Z</time>
      </trkpt>
      <trkpt lat="44.99946" lon="5.21001">
        <ele>921.08</ele>
        <time>2016-08-28T09:14:06Z</time>
      </trkpt>
      <trkpt lat="44.99946" lon="5.21002">
        <ele>919.64</ele>
        <time>2016-08-28T09:14:07Z</time>
      </trkpt>
      <trkpt lat="44.99951" lon="5.2102">
        <ele>920.6</ele>
        <time>2016-08-28T09:14:23Z</time>
      </trkpt>
      <trkpt lat="44.99951" lon="5.21021">
        <ele>923.96</ele>
        <time>2016-08-28T09:14:24Z</time>
      </trkpt>
      <trkpt lat="44.99951" lon="5.21022">
        <ele>920.12</ele>
        <time>2016-08-28T09:14:25Z</time>
      </trkpt>
      <trkpt lat="44.99952" lon="5.21025">
        <ele>923.96</ele>
        <time>2016-08-28T09:14:28Z</time>
      </trkpt>
      <trkpt lat="44.99955" lon="5.21039">
        <ele>923.48</ele>
        <time>2016-08-28T09:14:43Z</time>
      </trkpt>
      <trkpt lat="44.99951" lon="5.21032">
        <ele>937.42</ele>
        <time>2016-08-28T09:50:24Z</time>
      </trkpt>
      <trkpt lat="44.9995" lon="5.21032">
        <ele>937.42</ele>
        <time>2016-08-28T09:50:41Z</time>
      </trkpt>
      <trkpt lat="44.99948" lon="5.21032">
        <ele>937.42</ele>
        <time>2016-08-28T09:51:04Z</time>
      </trkpt>
      <trkpt lat="44.99946" lon="5.21032">
        <ele>937.9</ele>
        <time>2016-08-28T09:51:23Z</time>
      </trkpt>
      <trkpt lat="44.99945" lon="5.21033">
        <ele>938.86</ele>
        <time>2016-08-28T09:51:47Z</time>
      </trkpt>
      <trkpt lat="44.99944" lon="5.21042">
        <ele>940.31</ele>
        <time>2016-08-28T09:52:11Z</time>
      </trkpt>
      <trkpt lat="44.99944" lon="5.21053">
        <ele>942.71</ele>
        <time>2016-08-28T09:52:30Z</time>
      </trkpt>
      <trkpt lat="44.99943" lon="5.21063">
        <ele>946.07</ele>
        <time>2016-08-28T09:52:44Z</time>
      </trkpt>
      <trkpt lat="44.99948" lon="5.21081">
        <ele>949.44</ele>
        <time>2016-08-28T09:53:01Z</time>
      </trkpt>
      <trkpt lat="44.99954" lon="5.21099">
        <ele>952.32</ele>
        <time>2016-08-28T09:53:21Z</time>
      </trkpt>
      <trkpt lat="44.99953" lon="5.21115">
        <ele>955.21</ele>
        <time>2016-08-28T09:53:36Z</time>
      </trkpt>
      <trkpt lat="44.99956" lon="5.2114">
        <ele>957.13</ele>
        <time>2016-08-28T09:53:52Z</time>
      </trkpt>
      <trkpt lat="44.99948" lon="5.21157">
        <ele>960.49</ele>
        <time>2016-08-28T09:54:07Z</time>
      </trkpt>
      <trkpt lat="44.99944" lon="5.21176">
        <ele>960.01</ele>
        <time>2016-08-28T09:54:21Z</time>
      </trkpt>
      <trkpt lat="44.99939" lon="5.21197">
        <ele>962.42</ele>
        <time>2016-08-28T09:54:39Z</time>
      </trkpt>
      <trkpt lat="44.99929" lon="5.21225">
        <ele>962.9</ele>
        <time>2016-08-28T09:54:55Z</time>
      </trkpt>
      <trkpt lat="44.99925" lon="5.21244">
        <ele>963.38</ele>
        <time>2016-08-28T09:55:12Z</time>
      </trkpt>
      <trkpt lat="44.99928" lon="5.21261">
        <ele>964.34</ele>
        <time>2016-08-28T09:55:30Z</time>
      </trkpt>
      <trkpt lat="44.99935" lon="5.21268">
        <ele>964.34</ele>
        <time>2016-08-28T09:55:57Z</time>
      </trkpt>
      <trkpt lat="44.99939" lon="5.21275">
        <ele>963.86</ele>
        <time>2016-08-28T09:56:21Z</time>
      </trkpt>
      <trkpt lat="44.99934" lon="5.21268">
        <ele>963.86</ele>
        <time>2016-08-28T09:56:48Z</time>
      </trkpt>
      <trkpt lat="44.99925" lon="5.21279">
        <ele>965.3</ele>
        <time>2016-08-28T09:57:12Z</time>
      </trkpt>
      <trkpt lat="44.99921" lon="5.213">
        <ele>968.18</ele>
        <time>2016-08-28T09:57:28Z</time>
      </trkpt>
      <trkpt lat="44.99928" lon="5.21315">
        <ele>971.55</ele>
        <time>2016-08-28T09:57:45Z</time>
      </trkpt>
      <trkpt lat="44.99927" lon="5.21322">
        <ele>973.95</ele>
        <time>2016-08-28T09:57:58Z</time>
      </trkpt>
      <trkpt lat="44.99932" lon="5.21331">
        <ele>977.32</ele>
        <time>2016-08-28T09:58:11Z</time>
      </trkpt>
      <trkpt lat="44.99936" lon="5.21349">
        <ele>979.72</ele>
        <time>2016-08-28T09:58:30Z</time>
      </trkpt>
      <trkpt lat="44.99937" lon="5.21365">
        <ele>983.09</ele>
        <time>2016-08-28T09:58:47Z</time>
      </trkpt>
      <trkpt lat="44.9994" lon="5.2138">
        <ele>985.49</ele>
        <time>2016-08-28T09:59:06Z</time>
      </trkpt>
      <trkpt lat="44.99939" lon="5.21388">
        <ele>987.89</ele>
        <time>2016-08-28T09:59:16Z</time>
      </trkpt>
      <trkpt lat="44.99937" lon="5.21398">
        <ele>990.78</ele>
        <time>2016-08-28T09:59:31Z</time>
      </trkpt>
      <trkpt lat="44.99939" lon="5.21409">
        <ele>994.62</ele>
        <time>2016-08-28T09:59:45Z</time>
      </trkpt>
      <trkpt lat="44.99943" lon="5.21425">
        <ele>996.54</ele>
        <time>2016-08-28T10:00:04Z</time>
      </trkpt>
      <trkpt lat="44.99941" lon="5.21431">
        <ele>998.95</ele>
        <time>2016-08-28T10:00:15Z</time>
      </trkpt>
      <trkpt lat="44.99941" lon="5.21448">
        <ele>1002.31</ele>
        <time>2016-08-28T10:00:34Z</time>
      </trkpt>
      <trkpt lat="44.99945" lon="5.21459">
        <ele>1005.2</ele>
        <time>2016-08-28T10:00:51Z</time>
      </trkpt>
      <trkpt lat="44.99944" lon="5.21476">
        <ele>1008.56</ele>
        <time>2016-08-28T10:01:09Z</time>
      </trkpt>
      <trkpt lat="44.99945" lon="5.2149">
        <ele>1009.04</ele>
        <time>2016-08-28T10:01:25Z</time>
      </trkpt>
      <trkpt lat="44.99956" lon="5.21503">
        <ele>1009.04</ele>
        <time>2016-08-28T10:01:45Z</time>
      </trkpt>
      <trkpt lat="44.99952" lon="5.21509">
        <ele>1009.52</ele>
        <time>2016-08-28T10:02:07Z</time>
      </trkpt>
      <trkpt lat="44.99955" lon="5.21503">
        <ele>1009.04</ele>
        <time>2016-08-28T10:02:37Z</time>
      </trkpt>
      <trkpt lat="44.99951" lon="5.21506">
        <ele>1009.04</ele>
        <time>2016-08-28T10:03:14Z</time>
      </trkpt>
      <trkpt lat="44.99964" lon="5.21516">
        <ele>1007.12</ele>
        <time>2016-08-28T10:03:38Z</time>
      </trkpt>
      <trkpt lat="44.99979" lon="5.21539">
        <ele>1008.56</ele>
        <time>2016-08-28T10:03:56Z</time>
      </trkpt>
      <trkpt lat="44.9998" lon="5.2154">
        <ele>1008.56</ele>
        <time>2016-08-28T10:03:57Z</time>
      </trkpt>
      <trkpt lat="44.99994" lon="5.21556">
        <ele>1009.52</ele>
        <time>2016-08-28T10:04:14Z</time>
      </trkpt>
      <trkpt lat="45.0001" lon="5.2157">
        <ele>1011.44</ele>
        <time>2016-08-28T10:04:29Z</time>
      </trkpt>
      <trkpt lat="45.00014" lon="5.21585">
        <ele>1014.33</ele>
        <time>2016-08-28T10:04:42Z</time>
      </trkpt>
      <trkpt lat="45.0002" lon="5.21609">
        <ele>1016.73</ele>
        <time>2016-08-28T10:05:04Z</time>
      </trkpt>
      <trkpt lat="45.00018" lon="5.21626">
        <ele>1015.77</ele>
        <time>2016-08-28T10:05:16Z</time>
      </trkpt>
      <trkpt lat="45.00022" lon="5.21642">
        <ele>1016.73</ele>
        <time>2016-08-28T10:05:36Z</time>
      </trkpt>
      <trkpt lat="45.00015" lon="5.21661">
        <ele>1018.17</ele>
        <time>2016-08-28T10:05:51Z</time>
      </trkpt>
      <trkpt lat="45.0001" lon="5.21681">
        <ele>1016.73</ele>
        <time>2016-08-28T10:06:07Z</time>
      </trkpt>
      <trkpt lat="45.00005" lon="5.21702">
        <ele>1019.13</ele>
        <time>2016-08-28T10:06:25Z</time>
      </trkpt>
      <trkpt lat="45.00001" lon="5.21728">
        <ele>1022.02</ele>
        <time>2016-08-28T10:06:43Z</time>
      </trkpt>
      <trkpt lat="45.00002" lon="5.21761">
        <ele>1022.5</ele>
        <time>2016-08-28T10:07:04Z</time>
      </trkpt>
      <trkpt lat="45.00002" lon="5.21778">
        <ele>1023.94</ele>
        <time>2016-08-28T10:07:16Z</time>
      </trkpt>
      <trkpt lat="45.00002" lon="5.21781">
        <ele>1022.5</ele>
        <time>2016-08-28T10:07:18Z</time>
      </trkpt>
      <trkpt lat="45.00002" lon="5.2181">
        <ele>1023.94</ele>
        <time>2016-08-28T10:07:36Z</time>
      </trkpt>
      <trkpt lat="45.00002" lon="5.21836">
        <ele>1024.9</ele>
        <time>2016-08-28T10:07:54Z</time>
      </trkpt>
      <trkpt lat="45.00006" lon="5.21866">
        <ele>1025.86</ele>
        <time>2016-08-28T10:08:12Z</time>
      </trkpt>
      <trkpt lat="45.00013" lon="5.2189">
        <ele>1027.79</ele>
        <time>2016-08-28T10:08:32Z</time>
      </trkpt>
      <trkpt lat="45.00016" lon="5.21906">
        <ele>1029.23</ele>
        <time>2016-08-28T10:08:47Z</time>
      </trkpt>
      <trkpt lat="45.00014" lon="5.21925">
        <ele>1031.63</ele>
        <time>2016-08-28T10:09:02Z</time>
      </trkpt>
      <trkpt lat="45.00012" lon="5.21951">
        <ele>1032.59</ele>
        <time>2016-08-28T10:09:20Z</time>
      </trkpt>
      <trkpt lat="45.00007" lon="5.2197">
        <ele>1033.55</ele>
        <time>2016-08-28T10:09:37Z</time>
      </trkpt>
      <trkpt lat="45" lon="5.21984">
        <ele>1035</ele>
        <time>2016-08-28T10:09:51Z</time>
      </trkpt>
      <trkpt lat="44.9999" lon="5.22006">
        <ele>1036.44</ele>
        <time>2016-08-28T10:10:09Z</time>
      </trkpt>
      <trkpt lat="44.99984" lon="5.22019">
        <ele>1037.4</ele>
        <time>2016-08-28T10:10:25Z</time>
      </trkpt>
      <trkpt lat="44.99973" lon="5.22033">
        <ele>1037.4</ele>
        <time>2016-08-28T10:10:41Z</time>
      </trkpt>
      <trkpt lat="44.99961" lon="5.2205">
        <ele>1038.84</ele>
        <time>2016-08-28T10:10:58Z</time>
      </trkpt>
      <trkpt lat="44.99956" lon="5.22055">
        <ele>1040.76</ele>
        <time>2016-08-28T10:11:07Z</time>
      </trkpt>
      <trkpt lat="44.99947" lon="5.2206">
        <ele>1042.21</ele>
        <time>2016-08-28T10:11:24Z</time>
      </trkpt>
      <trkpt lat="44.99938" lon="5.22061">
        <ele>1044.13</ele>
        <time>2016-08-28T10:11:44Z</time>
      </trkpt>
      <trkpt lat="44.9993" lon="5.2205">
        <ele>1043.17</ele>
        <time>2016-08-28T10:12:00Z</time>
      </trkpt>
      <trkpt lat="44.99936" lon="5.22053">
        <ele>1044.13</ele>
        <time>2016-08-28T10:12:27Z</time>
      </trkpt>
      <trkpt lat="44.99923" lon="5.22049">
        <ele>1043.65</ele>
        <time>2016-08-28T10:12:56Z</time>
      </trkpt>
      <trkpt lat="44.99927" lon="5.2204">
        <ele>1043.65</ele>
        <time>2016-08-28T10:13:26Z</time>
      </trkpt>
      <trkpt lat="44.99932" lon="5.22045">
        <ele>1043.65</ele>
        <time>2016-08-28T10:13:54Z</time>
      </trkpt>
      <trkpt lat="44.99929" lon="5.22047">
        <ele>1044.61</ele>
        <time>2016-08-28T10:14:28Z</time>
      </trkpt>
      <trkpt lat="44.9992" lon="5.2205">
        <ele>1047.01</ele>
        <time>2016-08-28T10:14:42Z</time>
      </trkpt>
      <trkpt lat="44.99909" lon="5.22056">
        <ele>1049.9</ele>
        <time>2016-08-28T10:15:00Z</time>
      </trkpt>
      <trkpt lat="44.999" lon="5.22056">
        <ele>1050.86</ele>
        <time>2016-08-28T10:15:25Z</time>
      </trkpt>
      <trkpt lat="44.99901" lon="5.22056">
        <ele>1050.86</ele>
        <time>2016-08-28T10:15:53Z</time>
      </trkpt>
      <trkpt lat="44.99905" lon="5.22054">
        <ele>1050.86</ele>
        <time>2016-08-28T10:16:27Z</time>
      </trkpt>
      <trkpt lat="44.9991" lon="5.22059">
        <ele>1050.86</ele>
        <time>2016-08-28T10:16:56Z</time>
      </trkpt>
      <trkpt lat="44.99903" lon="5.22073">
        <ele>1050.86</ele>
        <time>2016-08-28T10:17:29Z</time>
      </trkpt>
      <trkpt lat="44.99901" lon="5.22071">
        <ele>1050.38</ele>
        <time>2016-08-28T10:17:59Z</time>
      </trkpt>
      <trkpt lat="44.99894" lon="5.22066">
        <ele>1051.34</ele>
        <time>2016-08-28T10:18:32Z</time>
      </trkpt>
      <trkpt lat="44.99883" lon="5.22053">
        <ele>1052.78</ele>
        <time>2016-08-28T10:19:00Z</time>
      </trkpt>
      <trkpt lat="44.99874" lon="5.2205">
        <ele>1054.7</ele>
        <time>2016-08-28T10:19:14Z</time>
      </trkpt>
      <trkpt lat="44.99873" lon="5.22051">
        <ele>1058.07</ele>
        <time>2016-08-28T10:19:16Z</time>
      </trkpt>
      <trkpt lat="44.99873" lon="5.22053">
        <ele>1056.63</ele>
        <time>2016-08-28T10:19:17Z</time>
      </trkpt>
      <trkpt lat="44.99872" lon="5.22054">
        <ele>1055.18</ele>
        <time>2016-08-28T10:19:19Z</time>
      </trkpt>
      <trkpt lat="44.99863" lon="5.2206">
        <ele>1055.67</ele>
        <time>2016-08-28T10:19:29Z</time>
      </trkpt>
      <trkpt lat="44.99861" lon="5.22059">
        <ele>1057.11</ele>
        <time>2016-08-28T10:19:31Z</time>
      </trkpt>
      <trkpt lat="44.99853" lon="5.22057">
        <ele>1060.47</ele>
        <time>2016-08-28T10:19:44Z</time>
      </trkpt>
      <trkpt lat="44.99839" lon="5.2206">
        <ele>1064.8</ele>
        <time>2016-08-28T10:20:03Z</time>
      </trkpt>
      <trkpt lat="44.99838" lon="5.2206">
        <ele>1064.32</ele>
        <time>2016-08-28T10:20:04Z</time>
      </trkpt>
      <trkpt lat="44.99824" lon="5.22061">
        <ele>1066.24</ele>
        <time>2016-08-28T10:20:19Z</time>
      </trkpt>
      <trkpt lat="44.99815" lon="5.22064">
        <ele>1069.6</ele>
        <time>2016-08-28T10:20:31Z</time>
      </trkpt>
      <trkpt lat="44.99803" lon="5.22071">
        <ele>1072.49</ele>
        <time>2016-08-28T10:20:49Z</time>
      </trkpt>
      <trkpt lat="44.99797" lon="5.22085">
        <ele>1075.37</ele>
        <time>2016-08-28T10:21:07Z</time>
      </trkpt>
      <trkpt lat="44.99802" lon="5.22096">
        <ele>1078.26</ele>
        <time>2016-08-28T10:21:25Z</time>
      </trkpt>
      <trkpt lat="44.99805" lon="5.22107">
        <ele>1080.66</ele>
        <time>2016-08-28T10:21:34Z</time>
      </trkpt>
      <trkpt lat="44.99807" lon="5.22108">
        <ele>1080.18</ele>
        <time>2016-08-28T10:21:54Z</time>
      </trkpt>
      <trkpt lat="44.99803" lon="5.22114">
        <ele>1080.18</ele>
        <time>2016-08-28T10:22:18Z</time>
      </trkpt>
      <trkpt lat="44.99812" lon="5.2212">
        <ele>1083.06</ele>
        <time>2016-08-28T10:22:35Z</time>
      </trkpt>
      <trkpt lat="44.99816" lon="5.22122">
        <ele>1084.5</ele>
        <time>2016-08-28T10:22:50Z</time>
      </trkpt>
      <trkpt lat="44.99818" lon="5.22123">
        <ele>1084.5</ele>
        <time>2016-08-28T10:23:18Z</time>
      </trkpt>
      <trkpt lat="44.99829" lon="5.22133">
        <ele>1085.95</ele>
        <time>2016-08-28T10:23:35Z</time>
      </trkpt>
      <trkpt lat="44.9984" lon="5.22143">
        <ele>1087.87</ele>
        <time>2016-08-28T10:23:51Z</time>
      </trkpt>
      <trkpt lat="44.99854" lon="5.22148">
        <ele>1089.79</ele>
        <time>2016-08-28T10:24:10Z</time>
      </trkpt>
      <trkpt lat="44.99867" lon="5.22165">
        <ele>1093.16</ele>
        <time>2016-08-28T10:24:28Z</time>
      </trkpt>
      <trkpt lat="44.99879" lon="5.22167">
        <ele>1094.6</ele>
        <time>2016-08-28T10:24:43Z</time>
      </trkpt>
      <trkpt lat="44.99888" lon="5.22178">
        <ele>1096.52</ele>
        <time>2016-08-28T10:24:56Z</time>
      </trkpt>
      <trkpt lat="44.99903" lon="5.22187">
        <ele>1098.92</ele>
        <time>2016-08-28T10:25:13Z</time>
      </trkpt>
      <trkpt lat="44.99907" lon="5.22188">
        <ele>1099.89</ele>
        <time>2016-08-28T10:25:19Z</time>
      </trkpt>
      <trkpt lat="44.99918" lon="5.22194">
        <ele>1102.29</ele>
        <time>2016-08-28T10:25:33Z</time>
      </trkpt>
      <trkpt lat="44.99932" lon="5.22203">
        <ele>1103.25</ele>
        <time>2016-08-28T10:25:51Z</time>
      </trkpt>
      <trkpt lat="44.99945" lon="5.22207">
        <ele>1105.17</ele>
        <time>2016-08-28T10:26:06Z</time>
      </trkpt>
      <trkpt lat="44.99948" lon="5.22212">
        <ele>1107.1</ele>
        <time>2016-08-28T10:26:22Z</time>
      </trkpt>
      <trkpt lat="44.99953" lon="5.22215">
        <ele>1108.06</ele>
        <time>2016-08-28T10:26:41Z</time>
      </trkpt>
      <trkpt lat="44.99964" lon="5.22218">
        <ele>1109.02</ele>
        <time>2016-08-28T10:26:54Z</time>
      </trkpt>
      <trkpt lat="44.99969" lon="5.22218">
        <ele>1110.46</ele>
        <time>2016-08-28T10:27:12Z</time>
      </trkpt>
      <trkpt lat="44.99973" lon="5.2223">
        <ele>1112.38</ele>
        <time>2016-08-28T10:27:30Z</time>
      </trkpt>
      <trkpt lat="44.99981" lon="5.22231">
        <ele>1113.82</ele>
        <time>2016-08-28T10:27:49Z</time>
      </trkpt>
      <trkpt lat="44.99995" lon="5.22225">
        <ele>1113.82</ele>
        <time>2016-08-28T10:28:05Z</time>
      </trkpt>
      <trkpt lat="45.00009" lon="5.22224">
        <ele>1115.75</ele>
        <time>2016-08-28T10:28:18Z</time>
      </trkpt>
      <trkpt lat="45.00018" lon="5.22224">
        <ele>1117.67</ele>
        <time>2016-08-28T10:28:33Z</time>
      </trkpt>
      <trkpt lat="45.00023" lon="5.22223">
        <ele>1118.15</ele>
        <time>2016-08-28T10:28:38Z</time>
      </trkpt>
      <trkpt lat="45.00033" lon="5.22227">
        <ele>1119.11</ele>
        <time>2016-08-28T10:28:52Z</time>
      </trkpt>
      <trkpt lat="45.00044" lon="5.22229">
        <ele>1122.48</ele>
        <time>2016-08-28T10:29:06Z</time>
      </trkpt>
      <trkpt lat="45.0005" lon="5.22233">
        <ele>1122.96</ele>
        <time>2016-08-28T10:29:21Z</time>
      </trkpt>
      <trkpt lat="45.00059" lon="5.22226">
        <ele>1124.4</ele>
        <time>2016-08-28T10:29:34Z</time>
      </trkpt>
      <trkpt lat="45.00073" lon="5.2222">
        <ele>1126.32</ele>
        <time>2016-08-28T10:29:52Z</time>
      </trkpt>
      <trkpt lat="45.00084" lon="5.22211">
        <ele>1129.21</ele>
        <time>2016-08-28T10:30:09Z</time>
      </trkpt>
      <trkpt lat="45.00093" lon="5.22195">
        <ele>1131.13</ele>
        <time>2016-08-28T10:30:25Z</time>
      </trkpt>
      <trkpt lat="45.00106" lon="5.22185">
        <ele>1134.01</ele>
        <time>2016-08-28T10:30:42Z</time>
      </trkpt>
      <trkpt lat="45.0011" lon="5.22181">
        <ele>1135.45</ele>
        <time>2016-08-28T10:30:49Z</time>
      </trkpt>
      <trkpt lat="45.00112" lon="5.22172">
        <ele>1137.38</ele>
        <time>2016-08-28T10:31:01Z</time>
      </trkpt>
      <trkpt lat="45.00118" lon="5.22165">
        <ele>1139.3</ele>
        <time>2016-08-28T10:31:12Z</time>
      </trkpt>
      <trkpt lat="45.00126" lon="5.22159">
        <ele>1139.3</ele>
        <time>2016-08-28T10:31:26Z</time>
      </trkpt>
      <trkpt lat="45.00123" lon="5.22163">
        <ele>1138.82</ele>
        <time>2016-08-28T10:31:54Z</time>
      </trkpt>
      <trkpt lat="45.00132" lon="5.22146">
        <ele>1137.86</ele>
        <time>2016-08-28T10:32:12Z</time>
      </trkpt>
      <trkpt lat="45.00131" lon="5.22133">
        <ele>1136.9</ele>
        <time>2016-08-28T10:32:28Z</time>
      </trkpt>
      <trkpt lat="45.00132" lon="5.22134">
        <ele>1137.86</ele>
        <time>2016-08-28T10:32:50Z</time>
      </trkpt>
      <trkpt lat="45.00129" lon="5.22131">
        <ele>1138.34</ele>
        <time>2016-08-28T10:33:13Z</time>
      </trkpt>
      <trkpt lat="45.00126" lon="5.22134">
        <ele>1137.38</ele>
        <time>2016-08-28T10:33:36Z</time>
      </trkpt>
      <trkpt lat="45.00126" lon="5.22144">
        <ele>1138.34</ele>
        <time>2016-08-28T10:34:00Z</time>
      </trkpt>
      <trkpt lat="45.00131" lon="5.22149">
        <ele>1138.82</ele>
        <time>2016-08-28T10:34:06Z</time>
      </trkpt>
      <trkpt lat="45.00143" lon="5.22149">
        <ele>1138.34</ele>
        <time>2016-08-28T10:34:18Z</time>
      </trkpt>
      <trkpt lat="45.0014" lon="5.22146">
        <ele>1138.82</ele>
        <time>2016-08-28T10:34:45Z</time>
      </trkpt>
      <trkpt lat="45.00142" lon="5.22144">
        <ele>1138.82</ele>
        <time>2016-08-28T10:35:17Z</time>
      </trkpt>
      <trkpt lat="45.00142" lon="5.22147">
        <ele>1138.34</ele>
        <time>2016-08-28T10:35:38Z</time>
      </trkpt>
      <trkpt lat="45.0014" lon="5.22151">
        <ele>1138.82</ele>
        <time>2016-08-28T10:35:54Z</time>
      </trkpt>
      <trkpt lat="45.00136" lon="5.2217">
        <ele>1139.3</ele>
        <time>2016-08-28T10:36:07Z</time>
      </trkpt>
      <trkpt lat="45.00136" lon="5.22179">
        <ele>1139.3</ele>
        <time>2016-08-28T10:36:13Z</time>
      </trkpt>
      <trkpt lat="45.00137" lon="5.22184">
        <ele>1138.82</ele>
        <time>2016-08-28T10:36:16Z</time>
      </trkpt>
      <trkpt lat="45.00137" lon="5.22204">
        <ele>1139.78</ele>
        <time>2016-08-28T10:36:32Z</time>
      </trkpt>
      <trkpt lat="45.00135" lon="5.22225">
        <ele>1142.66</ele>
        <time>2016-08-28T10:36:48Z</time>
      </trkpt>
      <trkpt lat="45.00137" lon="5.22243">
        <ele>1144.11</ele>
        <time>2016-08-28T10:37:03Z</time>
      </trkpt>
      <trkpt lat="45.00134" lon="5.22255">
        <ele>1145.55</ele>
        <time>2016-08-28T10:37:16Z</time>
      </trkpt>
      <trkpt lat="45.00128" lon="5.22271">
        <ele>1148.91</ele>
        <time>2016-08-28T10:37:32Z</time>
      </trkpt>
      <trkpt lat="45.00125" lon="5.22285">
        <ele>1149.39</ele>
        <time>2016-08-28T10:37:44Z</time>
      </trkpt>
      <trkpt lat="45.00122" lon="5.22301">
        <ele>1152.28</ele>
        <time>2016-08-28T10:37:59Z</time>
      </trkpt>
      <trkpt lat="45.00118" lon="5.22317">
        <ele>1153.24</ele>
        <time>2016-08-28T10:38:14Z</time>
      </trkpt>
      <trkpt lat="45.00115" lon="5.22329">
        <ele>1156.6</ele>
        <time>2016-08-28T10:38:27Z</time>
      </trkpt>
      <trkpt lat="45.00109" lon="5.22343">
        <ele>1157.56</ele>
        <time>2016-08-28T10:38:44Z</time>
      </trkpt>
      <trkpt lat="45.00103" lon="5.22354">
        <ele>1160.93</ele>
        <time>2016-08-28T10:38:57Z</time>
      </trkpt>
      <trkpt lat="45.00101" lon="5.22358">
        <ele>1161.89</ele>
        <time>2016-08-28T10:39:01Z</time>
      </trkpt>
      <trkpt lat="45.00095" lon="5.22371">
        <ele>1164.29</ele>
        <time>2016-08-28T10:39:18Z</time>
      </trkpt>
      <trkpt lat="45.00091" lon="5.22383">
        <ele>1167.18</ele>
        <time>2016-08-28T10:39:32Z</time>
      </trkpt>
      <trkpt lat="45.00085" lon="5.22391">
        <ele>1169.1</ele>
        <time>2016-08-28T10:39:47Z</time>
      </trkpt>
      <trkpt lat="45.0008" lon="5.22398">
        <ele>1172.47</ele>
        <time>2016-08-28T10:39:59Z</time>
      </trkpt>
      <trkpt lat="45.00075" lon="5.22407">
        <ele>1174.39</ele>
        <time>2016-08-28T10:40:15Z</time>
      </trkpt>
      <trkpt lat="45.0007" lon="5.22415">
        <ele>1177.27</ele>
        <time>2016-08-28T10:40:30Z</time>
      </trkpt>
      <trkpt lat="45.00065" lon="5.22427">
        <ele>1179.67</ele>
        <time>2016-08-28T10:40:47Z</time>
      </trkpt>
      <trkpt lat="45.00057" lon="5.22436">
        <ele>1182.56</ele>
        <time>2016-08-28T10:41:04Z</time>
      </trkpt>
      <trkpt lat="45.00051" lon="5.22442">
        <ele>1185.44</ele>
        <time>2016-08-28T10:41:19Z</time>
      </trkpt>
      <trkpt lat="45.00044" lon="5.2245">
        <ele>1187.85</ele>
        <time>2016-08-28T10:41:36Z</time>
      </trkpt>
      <trkpt lat="45.00037" lon="5.22458">
        <ele>1190.73</ele>
        <time>2016-08-28T10:41:51Z</time>
      </trkpt>
      <trkpt lat="45.00034" lon="5.22466">
        <ele>1192.65</ele>
        <time>2016-08-28T10:42:06Z</time>
      </trkpt>
      <trkpt lat="45.0003" lon="5.22473">
        <ele>1195.54</ele>
        <time>2016-08-28T10:42:21Z</time>
      </trkpt>
      <trkpt lat="45.00026" lon="5.22477">
        <ele>1197.94</ele>
        <time>2016-08-28T10:42:34Z</time>
      </trkpt>
      <trkpt lat="45.00022" lon="5.22486">
        <ele>1200.34</ele>
        <time>2016-08-28T10:42:49Z</time>
      </trkpt>
      <trkpt lat="45.00017" lon="5.22495">
        <ele>1202.75</ele>
        <time>2016-08-28T10:43:04Z</time>
      </trkpt>
      <trkpt lat="45.00011" lon="5.22502">
        <ele>1204.67</ele>
        <time>2016-08-28T10:43:17Z</time>
      </trkpt>
      <trkpt lat="45.00006" lon="5.22511">
        <ele>1207.55</ele>
        <time>2016-08-28T10:43:33Z</time>
      </trkpt>
      <trkpt lat="45.00002" lon="5.2252">
        <ele>1210.44</ele>
        <time>2016-08-28T10:43:48Z</time>
      </trkpt>
      <trkpt lat="44.99998" lon="5.22527">
        <ele>1213.32</ele>
        <time>2016-08-28T10:44:04Z</time>
      </trkpt>
      <trkpt lat="44.99992" lon="5.22533">
        <ele>1215.72</ele>
        <time>2016-08-28T10:44:17Z</time>
      </trkpt>
      <trkpt lat="44.99987" lon="5.22545">
        <ele>1218.61</ele>
        <time>2016-08-28T10:44:32Z</time>
      </trkpt>
      <trkpt lat="44.99985" lon="5.22555">
        <ele>1221.97</ele>
        <time>2016-08-28T10:44:48Z</time>
      </trkpt>
      <trkpt lat="44.99984" lon="5.22562">
        <ele>1223.9</ele>
        <time>2016-08-28T10:45:03Z</time>
      </trkpt>
      <trkpt lat="44.99986" lon="5.2256">
        <ele>1226.3</ele>
        <time>2016-08-28T10:45:23Z</time>
      </trkpt>
      <trkpt lat="44.99976" lon="5.22569">
        <ele>1228.7</ele>
        <time>2016-08-28T10:45:43Z</time>
      </trkpt>
      <trkpt lat="44.99974" lon="5.22575">
        <ele>1229.66</ele>
        <time>2016-08-28T10:46:02Z</time>
      </trkpt>
      <trkpt lat="44.99983" lon="5.22574">
        <ele>1229.18</ele>
        <time>2016-08-28T10:46:24Z</time>
      </trkpt>
      <trkpt lat="44.99982" lon="5.22568">
        <ele>1228.7</ele>
        <time>2016-08-28T10:46:55Z</time>
      </trkpt>
      <trkpt lat="44.99985" lon="5.22571">
        <ele>1229.18</ele>
        <time>2016-08-28T10:47:30Z</time>
      </trkpt>
      <trkpt lat="44.99987" lon="5.22573">
        <ele>1229.18</ele>
        <time>2016-08-28T10:48:01Z</time>
      </trkpt>
      <trkpt lat="44.99982" lon="5.22577">
        <ele>1229.18</ele>
        <time>2016-08-28T10:48:43Z</time>
      </trkpt>
      <trkpt lat="44.99973" lon="5.22575">
        <ele>1228.7</ele>
        <time>2016-08-28T10:49:18Z</time>
      </trkpt>
      <trkpt lat="44.99984" lon="5.22568">
        <ele>1229.18</ele>
        <time>2016-08-28T10:49:42Z</time>
      </trkpt>
      <trkpt lat="44.99987" lon="5.22582">
        <ele>1230.62</ele>
        <time>2016-08-28T10:50:09Z</time>
      </trkpt>
      <trkpt lat="44.99993" lon="5.22579">
        <ele>1230.62</ele>
        <time>2016-08-28T10:50:37Z</time>
      </trkpt>
      <trkpt lat="44.99976" lon="5.22581">
        <ele>1230.62</ele>
        <time>2016-08-28T10:51:11Z</time>
      </trkpt>
      <trkpt lat="44.99975" lon="5.22581">
        <ele>1230.62</ele>
        <time>2016-08-28T10:51:48Z</time>
      </trkpt>
      <trkpt lat="44.99988" lon="5.22577">
        <ele>1232.07</ele>
        <time>2016-08-28T10:52:23Z</time>
      </trkpt>
      <trkpt lat="44.99993" lon="5.22572">
        <ele>1231.59</ele>
        <time>2016-08-28T10:52:50Z</time>
      </trkpt>
      <trkpt lat="44.99974" lon="5.22575">
        <ele>1232.07</ele>
        <time>2016-08-28T10:53:18Z</time>
      </trkpt>
      <trkpt lat="44.99973" lon="5.22577">
        <ele>1232.07</ele>
        <time>2016-08-28T10:53:49Z</time>
      </trkpt>
      <trkpt lat="44.99976" lon="5.22575">
        <ele>1232.07</ele>
        <time>2016-08-28T10:54:19Z</time>
      </trkpt>
      <trkpt lat="44.99973" lon="5.22579">
        <ele>1232.55</ele>
        <time>2016-08-28T10:54:48Z</time>
      </trkpt>
      <trkpt lat="44.99976" lon="5.22573">
        <ele>1232.07</ele>
        <time>2016-08-28T10:55:14Z</time>
      </trkpt>
      <trkpt lat="44.99973" lon="5.22575">
        <ele>1234.95</ele>
        <time>2016-08-28T10:55:35Z</time>
      </trkpt>
      <trkpt lat="44.99977" lon="5.22588">
        <ele>1237.83</ele>
        <time>2016-08-28T10:55:54Z</time>
      </trkpt>
      <trkpt lat="44.9998" lon="5.22599">
        <ele>1241.2</ele>
        <time>2016-08-28T10:56:10Z</time>
      </trkpt>
      <trkpt lat="44.99982" lon="5.22611">
        <ele>1244.56</ele>
        <time>2016-08-28T10:56:27Z</time>
      </trkpt>
      <trkpt lat="44.99982" lon="5.22621">
        <ele>1247.45</ele>
        <time>2016-08-28T10:56:43Z</time>
      </trkpt>
      <trkpt lat="44.99988" lon="5.22631">
        <ele>1250.81</ele>
        <time>2016-08-28T10:57:03Z</time>
      </trkpt>
      <trkpt lat="44.99992" lon="5.22635">
        <ele>1252.74</ele>
        <time>2016-08-28T10:57:20Z</time>
      </trkpt>
      <trkpt lat="44.99993" lon="5.2265">
        <ele>1255.62</ele>
        <time>2016-08-28T10:57:39Z</time>
      </trkpt>
      <trkpt lat="44.99994" lon="5.22658">
        <ele>1258.5</ele>
        <time>2016-08-28T10:57:59Z</time>
      </trkpt>
      <trkpt lat="44.99995" lon="5.2267">
        <ele>1261.87</ele>
        <time>2016-08-28T10:58:18Z</time>
      </trkpt>
      <trkpt lat="44.99997" lon="5.22672">
        <ele>1264.75</ele>
        <time>2016-08-28T10:58:38Z</time>
      </trkpt>
      <trkpt lat="44.99995" lon="5.22673">
        <ele>1266.19</ele>
        <time>2016-08-28T10:58:57Z</time>
      </trkpt>
      <trkpt lat="44.99995" lon="5.22677">
        <ele>1268.12</ele>
        <time>2016-08-28T10:59:05Z</time>
      </trkpt>
      <trkpt lat="44.9999" lon="5.22683">
        <ele>1269.56</ele>
        <time>2016-08-28T10:59:21Z</time>
      </trkpt>
      <trkpt lat="44.99995" lon="5.22681">
        <ele>1268.6</ele>
        <time>2016-08-28T10:59:42Z</time>
      </trkpt>
      <trkpt lat="44.99994" lon="5.22677">
        <ele>1267.64</ele>
        <time>2016-08-28T11:00:04Z</time>
      </trkpt>
      <trkpt lat="44.99991" lon="5.22684">
        <ele>1269.08</ele>
        <time>2016-08-28T11:00:26Z</time>
      </trkpt>
      <trkpt lat="44.99988" lon="5.22676">
        <ele>1270.04</ele>
        <time>2016-08-28T11:00:58Z</time>
      </trkpt>
      <trkpt lat="44.99989" lon="5.22676">
        <ele>1270.04</ele>
        <time>2016-08-28T11:01:25Z</time>
      </trkpt>
      <trkpt lat="44.99987" lon="5.22674">
        <ele>1270.52</ele>
        <time>2016-08-28T11:01:48Z</time>
      </trkpt>
      <trkpt lat="44.99974" lon="5.22671">
        <ele>1270.52</ele>
        <time>2016-08-28T11:02:04Z</time>
      </trkpt>
      <trkpt lat="44.99964" lon="5.2267">
        <ele>1271.48</ele>
        <time>2016-08-28T11:02:18Z</time>
      </trkpt>
      <trkpt lat="44.99945" lon="5.22669">
        <ele>1273.4</ele>
        <time>2016-08-28T11:02:35Z</time>
      </trkpt>
      <trkpt lat="44.99928" lon="5.22666">
        <ele>1275.81</ele>
        <time>2016-08-28T11:02:52Z</time>
      </trkpt>
      <trkpt lat="44.99913" lon="5.22658">
        <ele>1278.69</ele>
        <time>2016-08-28T11:03:11Z</time>
      </trkpt>
      <trkpt lat="44.99912" lon="5.22658">
        <ele>1278.21</ele>
        <time>2016-08-28T11:03:12Z</time>
      </trkpt>
      <trkpt lat="44.99909" lon="5.22657">
        <ele>1279.17</ele>
        <time>2016-08-28T11:03:16Z</time>
      </trkpt>
      <trkpt lat="44.99898" lon="5.22649">
        <ele>1281.09</ele>
        <time>2016-08-28T11:03:30Z</time>
      </trkpt>
      <trkpt lat="44.99892" lon="5.22648">
        <ele>1282.06</ele>
        <time>2016-08-28T11:03:40Z</time>
      </trkpt>
      <trkpt lat="44.99883" lon="5.22654">
        <ele>1282.06</ele>
        <time>2016-08-28T11:03:55Z</time>
      </trkpt>
      <trkpt lat="44.99877" lon="5.22645">
        <ele>1283.5</ele>
        <time>2016-08-28T11:04:10Z</time>
      </trkpt>
      <trkpt lat="44.99876" lon="5.22641">
        <ele>1283.98</ele>
        <time>2016-08-28T11:04:29Z</time>
      </trkpt>
      <trkpt lat="44.99876" lon="5.22648">
        <ele>1283.5</ele>
        <time>2016-08-28T11:04:44Z</time>
      </trkpt>
      <trkpt lat="44.99877" lon="5.22647">
        <ele>1283.98</ele>
        <time>2016-08-28T11:04:58Z</time>
      </trkpt>
      <trkpt lat="44.99877" lon="5.22645">
        <ele>1282.54</ele>
        <time>2016-08-28T11:05:16Z</time>
      </trkpt>
      <trkpt lat="44.99874" lon="5.22645">
        <ele>1283.02</ele>
        <time>2016-08-28T11:05:37Z</time>
      </trkpt>
      <trkpt lat="44.99877" lon="5.22645">
        <ele>1282.54</ele>
        <time>2016-08-28T11:06:09Z</time>
      </trkpt>
      <trkpt lat="44.99875" lon="5.22644">
        <ele>1283.02</ele>
        <time>2016-08-28T11:06:40Z</time>
      </trkpt>
      <trkpt lat="44.99876" lon="5.22646">
        <ele>1283.02</ele>
        <time>2016-08-28T11:07:12Z</time>
      </trkpt>
      <trkpt lat="44.99874" lon="5.22645">
        <ele>1283.5</ele>
        <time>2016-08-28T11:07:44Z</time>
      </trkpt>
      <trkpt lat="44.99874" lon="5.22645">
        <ele>1283.5</ele>
        <time>2016-08-28T11:08:20Z</time>
      </trkpt>
      <trkpt lat="44.99874" lon="5.22645">
        <ele>1283.98</ele>
        <time>2016-08-28T11:08:55Z</time>
      </trkpt>
      <trkpt lat="44.99874" lon="5.22645">
        <ele>1283.5</ele>
        <time>2016-08-28T11:09:32Z</time>
      </trkpt>
      <trkpt lat="44.99874" lon="5.22645">
        <ele>1283.5</ele>
        <time>2016-08-28T11:10:16Z</time>
      </trkpt>
      <trkpt lat="44.99875" lon="5.22645">
        <ele>1284.46</ele>
        <time>2016-08-28T11:10:54Z</time>
      </trkpt>
      <trkpt lat="44.99876" lon="5.22645">
        <ele>1283.5</ele>
        <time>2016-08-28T11:11:26Z</time>
      </trkpt>
      <trkpt lat="44.99875" lon="5.22645">
        <ele>1284.46</ele>
        <time>2016-08-28T11:12:07Z</time>
      </trkpt>
      <trkpt lat="44.99875" lon="5.22644">
        <ele>1283.5</ele>
        <time>2016-08-28T11:12:40Z</time>
      </trkpt>
      <trkpt lat="44.99875" lon="5.22645">
        <ele>1283.98</ele>
        <time>2016-08-28T11:13:19Z</time>
      </trkpt>
      <trkpt lat="44.99875" lon="5.22645">
        <ele>1284.46</ele>
        <time>2016-08-28T11:13:48Z</time>
      </trkpt>
      <trkpt lat="44.99875" lon="5.22645">
        <ele>1283.98</ele>
        <time>2016-08-28T11:14:27Z</time>
      </trkpt>
      <trkpt lat="44.99876" lon="5.22645">
        <ele>1283.98</ele>
        <time>2016-08-28T11:15:04Z</time>
      </trkpt>
      <trkpt lat="44.99875" lon="5.22644">
        <ele>1283.98</ele>
        <time>2016-08-28T11:15:36Z</time>
      </trkpt>
      <trkpt lat="44.99877" lon="5.22645">
        <ele>1284.46</ele>
        <time>2016-08-28T11:16:13Z</time>
      </trkpt>
      <trkpt lat="44.99877" lon="5.22644">
        <ele>1284.46</ele>
        <time>2016-08-28T11:16:48Z</time>
      </trkpt>
      <trkpt lat="44.99876" lon="5.22644">
        <ele>1284.46</ele>
        <time>2016-08-28T11:17:17Z</time>
      </trkpt>
      <trkpt lat="44.99876" lon="5.22644">
        <ele>1284.46</ele>
        <time>2016-08-28T11:17:48Z</time>
      </trkpt>
      <trkpt lat="44.99875" lon="5.22645">
        <ele>1283.98</ele>
        <time>2016-08-28T11:18:19Z</time>
      </trkpt>
      <trkpt lat="44.99875" lon="5.22645">
        <ele>1283.98</ele>
        <time>2016-08-28T11:18:51Z</time>
      </trkpt>
      <trkpt lat="44.99877" lon="5.22645">
        <ele>1283.98</ele>
        <time>2016-08-28T11:19:27Z</time>
      </trkpt>
      <trkpt lat="44.99877" lon="5.22645">
        <ele>1283.98</ele>
        <time>2016-08-28T11:20:02Z</time>
      </trkpt>
      <trkpt lat="44.99877" lon="5.22646">
        <ele>1284.94</ele>
        <time>2016-08-28T11:20:40Z</time>
      </trkpt>
      <trkpt lat="44.99878" lon="5.22645">
        <ele>1284.46</ele>
        <time>2016-08-28T11:21:17Z</time>
      </trkpt>
      <trkpt lat="44.99878" lon="5.22645">
        <ele>1284.46</ele>
        <time>2016-08-28T11:21:51Z</time>
      </trkpt>
      <trkpt lat="44.99877" lon="5.22645">
        <ele>1284.94</ele>
        <time>2016-08-28T11:22:25Z</time>
      </trkpt>
      <trkpt lat="44.99877" lon="5.22645">
        <ele>1285.42</ele>
        <time>2016-08-28T11:23:01Z</time>
      </trkpt>
      <trkpt lat="44.99876" lon="5.22647">
        <ele>1284.94</ele>
        <time>2016-08-28T11:23:33Z</time>
      </trkpt>
      <trkpt lat="44.99876" lon="5.22646">
        <ele>1284.94</ele>
        <time>2016-08-28T11:24:08Z</time>
      </trkpt>
      <trkpt lat="44.99876" lon="5.22645">
        <ele>1285.42</ele>
        <time>2016-08-28T11:24:47Z</time>
      </trkpt>
      <trkpt lat="44.99878" lon="5.22646">
        <ele>1284.94</ele>
        <time>2016-08-28T11:25:24Z</time>
      </trkpt>
      <trkpt lat="44.99878" lon="5.22646">
        <ele>1284.46</ele>
        <time>2016-08-28T11:26:00Z</time>
      </trkpt>
      <trkpt lat="44.99876" lon="5.22647">
        <ele>1284.94</ele>
        <time>2016-08-28T11:26:35Z</time>
      </trkpt>
      <trkpt lat="44.99875" lon="5.22646">
        <ele>1284.46</ele>
        <time>2016-08-28T11:27:08Z</time>
      </trkpt>
      <trkpt lat="44.99877" lon="5.22647">
        <ele>1284.46</ele>
        <time>2016-08-28T11:27:41Z</time>
      </trkpt>
      <trkpt lat="44.99878" lon="5.22648">
        <ele>1284.94</ele>
        <time>2016-08-28T11:28:15Z</time>
      </trkpt>
      <trkpt lat="44.99877" lon="5.22647">
        <ele>1284.94</ele>
        <time>2016-08-28T11:28:53Z</time>
      </trkpt>
      <trkpt lat="44.99877" lon="5.22648">
        <ele>1284.94</ele>
        <time>2016-08-28T11:29:33Z</time>
      </trkpt>
      <trkpt lat="44.99877" lon="5.22647">
        <ele>1284.46</ele>
        <time>2016-08-28T11:30:17Z</time>
      </trkpt>
      <trkpt lat="44.99877" lon="5.22646">
        <ele>1284.94</ele>
        <time>2016-08-28T11:30:56Z</time>
      </trkpt>
      <trkpt lat="44.99877" lon="5.22645">
        <ele>1284.94</ele>
        <time>2016-08-28T11:31:34Z</time>
      </trkpt>
      <trkpt lat="44.99876" lon="5.22645">
        <ele>1284.94</ele>
        <time>2016-08-28T11:32:16Z</time>
      </trkpt>
      <trkpt lat="44.99876" lon="5.22646">
        <ele>1285.9</ele>
        <time>2016-08-28T11:32:40Z</time>
      </trkpt>
      <trkpt lat="44.99875" lon="5.22648">
        <ele>1285.42</ele>
        <time>2016-08-28T11:32:58Z</time>
      </trkpt>
      <trkpt lat="44.99875" lon="5.22648">
        <ele>1284.46</ele>
        <time>2016-08-28T11:33:07Z</time>
      </trkpt>
      <trkpt lat="44.99877" lon="5.22648">
        <ele>1286.38</ele>
        <time>2016-08-28T11:33:36Z</time>
      </trkpt>
      <trkpt lat="44.99877" lon="5.22647">
        <ele>1285.9</ele>
        <time>2016-08-28T11:33:51Z</time>
      </trkpt>
      <trkpt lat="44.99877" lon="5.22652">
        <ele>1285.9</ele>
        <time>2016-08-28T11:34:06Z</time>
      </trkpt>
      <trkpt lat="44.99874" lon="5.22651">
        <ele>1285.42</ele>
        <time>2016-08-28T11:34:23Z</time>
      </trkpt>
      <trkpt lat="44.99877" lon="5.22656">
        <ele>1285.42</ele>
        <time>2016-08-28T11:34:52Z</time>
      </trkpt>
      <trkpt lat="44.99875" lon="5.22649">
        <ele>1285.42</ele>
        <time>2016-08-28T11:35:10Z</time>
      </trkpt>
      <trkpt lat="44.99872" lon="5.22649">
        <ele>1285.42</ele>
        <time>2016-08-28T11:35:42Z</time>
      </trkpt>
      <trkpt lat="44.99879" lon="5.2265">
        <ele>1285.9</ele>
        <time>2016-08-28T11:36:04Z</time>
      </trkpt>
      <trkpt lat="44.99879" lon="5.22648">
        <ele>1285.9</ele>
        <time>2016-08-28T11:36:24Z</time>
      </trkpt>
      <trkpt lat="44.99879" lon="5.22649">
        <ele>1286.38</ele>
        <time>2016-08-28T11:36:49Z</time>
      </trkpt>
      <trkpt lat="44.99879" lon="5.2265">
        <ele>1285.9</ele>
        <time>2016-08-28T11:37:09Z</time>
      </trkpt>
      <trkpt lat="44.99872" lon="5.22653">
        <ele>1285.42</ele>
        <time>2016-08-28T11:37:15Z</time>
      </trkpt>
      <trkpt lat="44.99868" lon="5.22656">
        <ele>1285.42</ele>
        <time>2016-08-28T11:37:19Z</time>
      </trkpt>
      <trkpt lat="44.99854" lon="5.2266">
        <ele>1284.94</ele>
        <time>2016-08-28T11:37:34Z</time>
      </trkpt>
      <trkpt lat="44.99852" lon="5.22665">
        <ele>1284.94</ele>
        <time>2016-08-28T11:37:52Z</time>
      </trkpt>
      <trkpt lat="44.99845" lon="5.22659">
        <ele>1285.42</ele>
        <time>2016-08-28T11:38:07Z</time>
      </trkpt>
      <trkpt lat="44.99835" lon="5.22656">
        <ele>1287.34</ele>
        <time>2016-08-28T11:38:19Z</time>
      </trkpt>
      <trkpt lat="44.99822" lon="5.22651">
        <ele>1287.82</ele>
        <time>2016-08-28T11:38:34Z</time>
      </trkpt>
      <trkpt lat="44.99817" lon="5.22649">
        <ele>1288.3</ele>
        <time>2016-08-28T11:38:41Z</time>
      </trkpt>
      <trkpt lat="44.99806" lon="5.22655">
        <ele>1287.82</ele>
        <time>2016-08-28T11:38:55Z</time>
      </trkpt>
      <trkpt lat="44.99796" lon="5.2265">
        <ele>1287.82</ele>
        <time>2016-08-28T11:39:09Z</time>
      </trkpt>
      <trkpt lat="44.99794" lon="5.22651">
        <ele>1287.82</ele>
        <time>2016-08-28T11:39:11Z</time>
      </trkpt>
      <trkpt lat="44.99781" lon="5.22654">
        <ele>1287.82</ele>
        <time>2016-08-28T11:39:25Z</time>
      </trkpt>
      <trkpt lat="44.9977" lon="5.22656">
        <ele>1286.38</ele>
        <time>2016-08-28T11:39:40Z</time>
      </trkpt>
      <trkpt lat="44.99765" lon="5.22656">
        <ele>1285.42</ele>
        <time>2016-08-28T11:39:46Z</time>
      </trkpt>
      <trkpt lat="44.99762" lon="5.22654">
        <ele>1285.9</ele>
        <time>2016-08-28T11:39:49Z</time>
      </trkpt>
      <trkpt lat="44.99754" lon="5.22654">
        <ele>1286.86</ele>
        <time>2016-08-28T11:39:57Z</time>
      </trkpt>
      <trkpt lat="44.99747" lon="5.22654">
        <ele>1285.9</ele>
        <time>2016-08-28T11:40:04Z</time>
      </trkpt>
      <trkpt lat="44.99744" lon="5.22655">
        <ele>1286.38</ele>
        <time>2016-08-28T11:40:19Z</time>
      </trkpt>
      <trkpt lat="44.99735" lon="5.22653">
        <ele>1285.9</ele>
        <time>2016-08-28T11:40:34Z</time>
      </trkpt>
      <trkpt lat="44.99728" lon="5.22647">
        <ele>1286.86</ele>
        <time>2016-08-28T11:40:47Z</time>
      </trkpt>
      <trkpt lat="44.99725" lon="5.22647">
        <ele>1286.86</ele>
        <time>2016-08-28T11:40:51Z</time>
      </trkpt>
      <trkpt lat="44.99714" lon="5.22645">
        <ele>1287.34</ele>
        <time>2016-08-28T11:41:04Z</time>
      </trkpt>
      <trkpt lat="44.99701" lon="5.22649">
        <ele>1287.82</ele>
        <time>2016-08-28T11:41:18Z</time>
      </trkpt>
      <trkpt lat="44.99691" lon="5.22658">
        <ele>1287.34</ele>
        <time>2016-08-28T11:41:33Z</time>
      </trkpt>
      <trkpt lat="44.99677" lon="5.22661">
        <ele>1286.86</ele>
        <time>2016-08-28T11:41:49Z</time>
      </trkpt>
      <trkpt lat="44.99664" lon="5.22662">
        <ele>1288.3</ele>
        <time>2016-08-28T11:42:04Z</time>
      </trkpt>
      <trkpt lat="44.9966" lon="5.22654">
        <ele>1290.71</ele>
        <time>2016-08-28T11:42:17Z</time>
      </trkpt>
      <trkpt lat="44.9965" lon="5.22651">
        <ele>1292.63</ele>
        <time>2016-08-28T11:42:31Z</time>
      </trkpt>
      <trkpt lat="44.99645" lon="5.22642">
        <ele>1294.55</ele>
        <time>2016-08-28T11:42:46Z</time>
      </trkpt>
      <trkpt lat="44.99642" lon="5.22641">
        <ele>1294.55</ele>
        <time>2016-08-28T11:42:49Z</time>
      </trkpt>
      <trkpt lat="44.99634" lon="5.22637">
        <ele>1295.51</ele>
        <time>2016-08-28T11:43:01Z</time>
      </trkpt>
      <trkpt lat="44.99632" lon="5.22637">
        <ele>1295.99</ele>
        <time>2016-08-28T11:43:23Z</time>
      </trkpt>
      <trkpt lat="44.99628" lon="5.22636">
        <ele>1296.48</ele>
        <time>2016-08-28T11:43:41Z</time>
      </trkpt>
      <trkpt lat="44.99628" lon="5.22635">
        <ele>1296.48</ele>
        <time>2016-08-28T11:43:58Z</time>
      </trkpt>
      <trkpt lat="44.99628" lon="5.22635">
        <ele>1295.99</ele>
        <time>2016-08-28T11:44:17Z</time>
      </trkpt>
      <trkpt lat="44.99629" lon="5.22633">
        <ele>1296.48</ele>
        <time>2016-08-28T11:44:45Z</time>
      </trkpt>
      <trkpt lat="44.99628" lon="5.22642">
        <ele>1294.55</ele>
        <time>2016-08-28T11:44:59Z</time>
      </trkpt>
      <trkpt lat="44.99618" lon="5.2265">
        <ele>1291.19</ele>
        <time>2016-08-28T11:45:13Z</time>
      </trkpt>
      <trkpt lat="44.99608" lon="5.22647">
        <ele>1292.63</ele>
        <time>2016-08-28T11:45:27Z</time>
      </trkpt>
      <trkpt lat="44.99596" lon="5.22649">
        <ele>1291.67</ele>
        <time>2016-08-28T11:45:41Z</time>
      </trkpt>
      <trkpt lat="44.99587" lon="5.22647">
        <ele>1290.23</ele>
        <time>2016-08-28T11:45:54Z</time>
      </trkpt>
      <trkpt lat="44.99576" lon="5.22647">
        <ele>1288.78</ele>
        <time>2016-08-28T11:46:09Z</time>
      </trkpt>
      <trkpt lat="44.99573" lon="5.22641">
        <ele>1289.27</ele>
        <time>2016-08-28T11:46:15Z</time>
      </trkpt>
      <trkpt lat="44.99567" lon="5.2263">
        <ele>1290.71</ele>
        <time>2016-08-28T11:46:28Z</time>
      </trkpt>
      <trkpt lat="44.99564" lon="5.22617">
        <ele>1293.11</ele>
        <time>2016-08-28T11:46:42Z</time>
      </trkpt>
      <trkpt lat="44.99564" lon="5.22617">
        <ele>1292.63</ele>
        <time>2016-08-28T11:46:43Z</time>
      </trkpt>
      <trkpt lat="44.99557" lon="5.22612">
        <ele>1293.59</ele>
        <time>2016-08-28T11:46:51Z</time>
      </trkpt>
      <trkpt lat="44.99549" lon="5.22608">
        <ele>1292.63</ele>
        <time>2016-08-28T11:47:01Z</time>
      </trkpt>
      <trkpt lat="44.99536" lon="5.22603">
        <ele>1291.67</ele>
        <time>2016-08-28T11:47:15Z</time>
      </trkpt>
      <trkpt lat="44.99527" lon="5.22608">
        <ele>1288.3</ele>
        <time>2016-08-28T11:47:28Z</time>
      </trkpt>
      <trkpt lat="44.99521" lon="5.22611">
        <ele>1285.9</ele>
        <time>2016-08-28T11:47:45Z</time>
      </trkpt>
      <trkpt lat="44.99514" lon="5.22614">
        <ele>1282.54</ele>
        <time>2016-08-28T11:48:00Z</time>
      </trkpt>
      <trkpt lat="44.9951" lon="5.2262">
        <ele>1280.13</ele>
        <time>2016-08-28T11:48:11Z</time>
      </trkpt>
      <trkpt lat="44.99506" lon="5.22618">
        <ele>1278.21</ele>
        <time>2016-08-28T11:48:27Z</time>
      </trkpt>
      <trkpt lat="44.99501" lon="5.22619">
        <ele>1275.81</ele>
        <time>2016-08-28T11:48:42Z</time>
      </trkpt>
      <trkpt lat="44.99498" lon="5.22619">
        <ele>1274.85</ele>
        <time>2016-08-28T11:48:56Z</time>
      </trkpt>
      <trkpt lat="44.99494" lon="5.22627">
        <ele>1272.92</ele>
        <time>2016-08-28T11:49:14Z</time>
      </trkpt>
      <trkpt lat="44.99488" lon="5.22625">
        <ele>1271</ele>
        <time>2016-08-28T11:49:29Z</time>
      </trkpt>
      <trkpt lat="44.99483" lon="5.22627">
        <ele>1267.64</ele>
        <time>2016-08-28T11:49:38Z</time>
      </trkpt>
      <trkpt lat="44.99481" lon="5.22631">
        <ele>1266.67</ele>
        <time>2016-08-28T11:49:53Z</time>
      </trkpt>
      <trkpt lat="44.99469" lon="5.22629">
        <ele>1265.23</ele>
        <time>2016-08-28T11:50:08Z</time>
      </trkpt>
      <trkpt lat="44.99458" lon="5.22614">
        <ele>1266.19</ele>
        <time>2016-08-28T11:50:26Z</time>
      </trkpt>
      <trkpt lat="44.99451" lon="5.2261">
        <ele>1266.19</ele>
        <time>2016-08-28T11:50:45Z</time>
      </trkpt>
      <trkpt lat="44.99437" lon="5.2261">
        <ele>1265.23</ele>
        <time>2016-08-28T11:51:01Z</time>
      </trkpt>
      <trkpt lat="44.99427" lon="5.22608">
        <ele>1264.75</ele>
        <time>2016-08-28T11:51:17Z</time>
      </trkpt>
      <trkpt lat="44.99418" lon="5.22607">
        <ele>1262.35</ele>
        <time>2016-08-28T11:51:33Z</time>
      </trkpt>
      <trkpt lat="44.99412" lon="5.22602">
        <ele>1258.98</ele>
        <time>2016-08-28T11:51:50Z</time>
      </trkpt>
      <trkpt lat="44.99409" lon="5.22601">
        <ele>1258.5</ele>
        <time>2016-08-28T11:51:54Z</time>
      </trkpt>
      <trkpt lat="44.99397" lon="5.22607">
        <ele>1256.1</ele>
        <time>2016-08-28T11:52:07Z</time>
      </trkpt>
      <trkpt lat="44.99393" lon="5.2261">
        <ele>1255.14</ele>
        <time>2016-08-28T11:52:13Z</time>
      </trkpt>
      <trkpt lat="44.99379" lon="5.22618">
        <ele>1253.22</ele>
        <time>2016-08-28T11:52:30Z</time>
      </trkpt>
      <trkpt lat="44.9937" lon="5.22622">
        <ele>1250.81</ele>
        <time>2016-08-28T11:52:46Z</time>
      </trkpt>
      <trkpt lat="44.99365" lon="5.22629">
        <ele>1248.41</ele>
        <time>2016-08-28T11:53:02Z</time>
      </trkpt>
      <trkpt lat="44.99361" lon="5.22644">
        <ele>1246.01</ele>
        <time>2016-08-28T11:53:16Z</time>
      </trkpt>
      <trkpt lat="44.99362" lon="5.22662">
        <ele>1244.56</ele>
        <time>2016-08-28T11:53:29Z</time>
      </trkpt>
      <trkpt lat="44.99358" lon="5.2267">
        <ele>1242.16</ele>
        <time>2016-08-28T11:53:42Z</time>
      </trkpt>
      <trkpt lat="44.99351" lon="5.22681">
        <ele>1238.8</ele>
        <time>2016-08-28T11:54:02Z</time>
      </trkpt>
      <trkpt lat="44.99346" lon="5.22682">
        <ele>1236.87</ele>
        <time>2016-08-28T11:54:16Z</time>
      </trkpt>
      <trkpt lat="44.9934" lon="5.2267">
        <ele>1237.83</ele>
        <time>2016-08-28T11:54:34Z</time>
      </trkpt>
      <trkpt lat="44.99327" lon="5.22665">
        <ele>1237.83</ele>
        <time>2016-08-28T11:54:53Z</time>
      </trkpt>
      <trkpt lat="44.99319" lon="5.22661">
        <ele>1240.24</ele>
        <time>2016-08-28T11:55:08Z</time>
      </trkpt>
      <trkpt lat="44.99312" lon="5.22648">
        <ele>1243.12</ele>
        <time>2016-08-28T11:55:25Z</time>
      </trkpt>
      <trkpt lat="44.993" lon="5.22634">
        <ele>1244.08</ele>
        <time>2016-08-28T11:55:44Z</time>
      </trkpt>
      <trkpt lat="44.99286" lon="5.22626">
        <ele>1243.6</ele>
        <time>2016-08-28T11:56:02Z</time>
      </trkpt>
      <trkpt lat="44.99274" lon="5.22628">
        <ele>1241.68</ele>
        <time>2016-08-28T11:56:18Z</time>
      </trkpt>
      <trkpt lat="44.99267" lon="5.22636">
        <ele>1238.8</ele>
        <time>2016-08-28T11:56:35Z</time>
      </trkpt>
      <trkpt lat="44.99262" lon="5.22645">
        <ele>1237.35</ele>
        <time>2016-08-28T11:56:50Z</time>
      </trkpt>
      <trkpt lat="44.99252" lon="5.22641">
        <ele>1235.43</ele>
        <time>2016-08-28T11:57:08Z</time>
      </trkpt>
      <trkpt lat="44.99244" lon="5.2263">
        <ele>1235.43</ele>
        <time>2016-08-28T11:57:24Z</time>
      </trkpt>
      <trkpt lat="44.99232" lon="5.22621">
        <ele>1233.99</ele>
        <time>2016-08-28T11:57:44Z</time>
      </trkpt>
      <trkpt lat="44.99224" lon="5.22616">
        <ele>1232.55</ele>
        <time>2016-08-28T11:58:13Z</time>
      </trkpt>
      <trkpt lat="44.9921" lon="5.22613">
        <ele>1230.62</ele>
        <time>2016-08-28T11:58:32Z</time>
      </trkpt>
      <trkpt lat="44.99206" lon="5.22597">
        <ele>1233.51</ele>
        <time>2016-08-28T11:58:52Z</time>
      </trkpt>
      <trkpt lat="44.99202" lon="5.22586">
        <ele>1235.91</ele>
        <time>2016-08-28T11:59:05Z</time>
      </trkpt>
      <trkpt lat="44.99191" lon="5.22577">
        <ele>1236.87</ele>
        <time>2016-08-28T11:59:21Z</time>
      </trkpt>
      <trkpt lat="44.99188" lon="5.22569">
        <ele>1236.39</ele>
        <time>2016-08-28T11:59:38Z</time>
      </trkpt>
      <trkpt lat="44.99188" lon="5.22571">
        <ele>1236.39</ele>
        <time>2016-08-28T12:00:05Z</time>
      </trkpt>
      <trkpt lat="44.99188" lon="5.22574">
        <ele>1236.39</ele>
        <time>2016-08-28T12:00:36Z</time>
      </trkpt>
      <trkpt lat="44.99185" lon="5.22579">
        <ele>1235.91</ele>
        <time>2016-08-28T12:00:53Z</time>
      </trkpt>
      <trkpt lat="44.99185" lon="5.22586">
        <ele>1233.99</ele>
        <time>2016-08-28T12:01:07Z</time>
      </trkpt>
      <trkpt lat="44.99185" lon="5.22586">
        <ele>1233.51</ele>
        <time>2016-08-28T12:01:28Z</time>
      </trkpt>
      <trkpt lat="44.99183" lon="5.22591">
        <ele>1233.03</ele>
        <time>2016-08-28T12:01:44Z</time>
      </trkpt>
      <trkpt lat="44.99182" lon="5.22591">
        <ele>1233.03</ele>
        <time>2016-08-28T12:02:09Z</time>
      </trkpt>
      <trkpt lat="44.99182" lon="5.22597">
        <ele>1232.55</ele>
        <time>2016-08-28T12:02:35Z</time>
      </trkpt>
      <trkpt lat="44.99172" lon="5.22605">
        <ele>1230.14</ele>
        <time>2016-08-28T12:02:51Z</time>
      </trkpt>
      <trkpt lat="44.99162" lon="5.2261">
        <ele>1227.74</ele>
        <time>2016-08-28T12:03:06Z</time>
      </trkpt>
      <trkpt lat="44.99154" lon="5.22619">
        <ele>1224.38</ele>
        <time>2016-08-28T12:03:20Z</time>
      </trkpt>
      <trkpt lat="44.99149" lon="5.22611">
        <ele>1221.49</ele>
        <time>2016-08-28T12:03:38Z</time>
      </trkpt>
      <trkpt lat="44.99144" lon="5.226">
        <ele>1219.09</ele>
        <time>2016-08-28T12:03:57Z</time>
      </trkpt>
      <trkpt lat="44.99138" lon="5.22603">
        <ele>1216.21</ele>
        <time>2016-08-28T12:04:11Z</time>
      </trkpt>
      <trkpt lat="44.9913" lon="5.22604">
        <ele>1214.28</ele>
        <time>2016-08-28T12:04:28Z</time>
      </trkpt>
      <trkpt lat="44.99122" lon="5.22601">
        <ele>1211.88</ele>
        <time>2016-08-28T12:04:49Z</time>
      </trkpt>
      <trkpt lat="44.99114" lon="5.22605">
        <ele>1208.51</ele>
        <time>2016-08-28T12:05:02Z</time>
      </trkpt>
      <trkpt lat="44.99111" lon="5.22609">
        <ele>1207.07</ele>
        <time>2016-08-28T12:05:10Z</time>
      </trkpt>
      <trkpt lat="44.99105" lon="5.22613">
        <ele>1203.23</ele>
        <time>2016-08-28T12:05:22Z</time>
      </trkpt>
      <trkpt lat="44.991" lon="5.22629">
        <ele>1201.3</ele>
        <time>2016-08-28T12:05:41Z</time>
      </trkpt>
      <trkpt lat="44.991" lon="5.2263">
        <ele>1201.3</ele>
        <time>2016-08-28T12:05:42Z</time>
      </trkpt>
      <trkpt lat="44.99093" lon="5.22644">
        <ele>1198.42</ele>
        <time>2016-08-28T12:05:57Z</time>
      </trkpt>
      <trkpt lat="44.99086" lon="5.22643">
        <ele>1195.06</ele>
        <time>2016-08-28T12:06:12Z</time>
      </trkpt>
      <trkpt lat="44.99075" lon="5.22641">
        <ele>1193.61</ele>
        <time>2016-08-28T12:06:37Z</time>
      </trkpt>
      <trkpt lat="44.99064" lon="5.22626">
        <ele>1191.21</ele>
        <time>2016-08-28T12:06:56Z</time>
      </trkpt>
      <trkpt lat="44.99045" lon="5.22618">
        <ele>1191.21</ele>
        <time>2016-08-28T12:07:13Z</time>
      </trkpt>
      <trkpt lat="44.99033" lon="5.22617">
        <ele>1192.17</ele>
        <time>2016-08-28T12:07:31Z</time>
      </trkpt>
      <trkpt lat="44.9903" lon="5.22611">
        <ele>1195.06</ele>
        <time>2016-08-28T12:07:46Z</time>
      </trkpt>
      <trkpt lat="44.99026" lon="5.22604">
        <ele>1196.5</ele>
        <time>2016-08-28T12:08:03Z</time>
      </trkpt>
      <trkpt lat="44.99011" lon="5.22607">
        <ele>1198.9</ele>
        <time>2016-08-28T12:08:18Z</time>
      </trkpt>
      <trkpt lat="44.98999" lon="5.22611">
        <ele>1200.82</ele>
        <time>2016-08-28T12:08:34Z</time>
      </trkpt>
      <trkpt lat="44.98985" lon="5.22611">
        <ele>1202.75</ele>
        <time>2016-08-28T12:08:51Z</time>
      </trkpt>
      <trkpt lat="44.9898" lon="5.2261">
        <ele>1202.75</ele>
        <time>2016-08-28T12:09:09Z</time>
      </trkpt>
      <trkpt lat="44.9898" lon="5.22598">
        <ele>1206.11</ele>
        <time>2016-08-28T12:09:23Z</time>
      </trkpt>
      <trkpt lat="44.98979" lon="5.22584">
        <ele>1207.07</ele>
        <time>2016-08-28T12:09:39Z</time>
      </trkpt>
      <trkpt lat="44.98964" lon="5.22586">
        <ele>1208.51</ele>
        <time>2016-08-28T12:09:55Z</time>
      </trkpt>
      <trkpt lat="44.98952" lon="5.22583">
        <ele>1211.4</ele>
        <time>2016-08-28T12:10:10Z</time>
      </trkpt>
      <trkpt lat="44.98949" lon="5.22578">
        <ele>1212.84</ele>
        <time>2016-08-28T12:10:24Z</time>
      </trkpt>
      <trkpt lat="44.98948" lon="5.22564">
        <ele>1214.76</ele>
        <time>2016-08-28T12:10:40Z</time>
      </trkpt>
      <trkpt lat="44.98942" lon="5.22545">
        <ele>1216.21</ele>
        <time>2016-08-28T12:10:56Z</time>
      </trkpt>
      <trkpt lat="44.98935" lon="5.22529">
        <ele>1218.13</ele>
        <time>2016-08-28T12:11:13Z</time>
      </trkpt>
      <trkpt lat="44.98929" lon="5.22524">
        <ele>1218.61</ele>
        <time>2016-08-28T12:11:30Z</time>
      </trkpt>
      <trkpt lat="44.9893" lon="5.22523">
        <ele>1219.09</ele>
        <time>2016-08-28T12:11:56Z</time>
      </trkpt>
      <trkpt lat="44.98915" lon="5.2252">
        <ele>1220.53</ele>
        <time>2016-08-28T12:12:13Z</time>
      </trkpt>
      <trkpt lat="44.98901" lon="5.22519">
        <ele>1223.42</ele>
        <time>2016-08-28T12:12:31Z</time>
      </trkpt>
      <trkpt lat="44.9889" lon="5.22519">
        <ele>1223.9</ele>
        <time>2016-08-28T12:12:47Z</time>
      </trkpt>
      <trkpt lat="44.98876" lon="5.22506">
        <ele>1223.9</ele>
        <time>2016-08-28T12:13:04Z</time>
      </trkpt>
      <trkpt lat="44.98868" lon="5.22499">
        <ele>1223.9</ele>
        <time>2016-08-28T12:13:21Z</time>
      </trkpt>
      <trkpt lat="44.98863" lon="5.22497">
        <ele>1223.9</ele>
        <time>2016-08-28T12:13:44Z</time>
      </trkpt>
      <trkpt lat="44.98857" lon="5.22491">
        <ele>1225.34</ele>
        <time>2016-08-28T12:14:03Z</time>
      </trkpt>
      <trkpt lat="44.98836" lon="5.22483">
        <ele>1226.3</ele>
        <time>2016-08-28T12:14:23Z</time>
      </trkpt>
      <trkpt lat="44.98835" lon="5.225">
        <ele>1225.34</ele>
        <time>2016-08-28T12:14:42Z</time>
      </trkpt>
      <trkpt lat="44.98821" lon="5.2252">
        <ele>1223.42</ele>
        <time>2016-08-28T12:14:58Z</time>
      </trkpt>
      <trkpt lat="44.98807" lon="5.22526">
        <ele>1222.45</ele>
        <time>2016-08-28T12:15:11Z</time>
      </trkpt>
      <trkpt lat="44.98795" lon="5.22528">
        <ele>1221.01</ele>
        <time>2016-08-28T12:15:24Z</time>
      </trkpt>
      <trkpt lat="44.98781" lon="5.2252">
        <ele>1221.01</ele>
        <time>2016-08-28T12:15:39Z</time>
      </trkpt>
      <trkpt lat="44.98768" lon="5.22519">
        <ele>1218.61</ele>
        <time>2016-08-28T12:15:52Z</time>
      </trkpt>
      <trkpt lat="44.98757" lon="5.22518">
        <ele>1217.17</ele>
        <time>2016-08-28T12:16:06Z</time>
      </trkpt>
      <trkpt lat="44.98747" lon="5.22509">
        <ele>1215.72</ele>
        <time>2016-08-28T12:16:23Z</time>
      </trkpt>
      <trkpt lat="44.98742" lon="5.22508">
        <ele>1216.21</ele>
        <time>2016-08-28T12:16:37Z</time>
      </trkpt>
      <trkpt lat="44.9874" lon="5.22488">
        <ele>1217.65</ele>
        <time>2016-08-28T12:16:56Z</time>
      </trkpt>
      <trkpt lat="44.98738" lon="5.22479">
        <ele>1218.61</ele>
        <time>2016-08-28T12:17:06Z</time>
      </trkpt>
      <trkpt lat="44.98739" lon="5.22457">
        <ele>1220.05</ele>
        <time>2016-08-28T12:17:23Z</time>
      </trkpt>
      <trkpt lat="44.98738" lon="5.22443">
        <ele>1221.01</ele>
        <time>2016-08-28T12:17:37Z</time>
      </trkpt>
      <trkpt lat="44.98745" lon="5.22424">
        <ele>1222.45</ele>
        <time>2016-08-28T12:17:53Z</time>
      </trkpt>
      <trkpt lat="44.98745" lon="5.22416">
        <ele>1221.97</ele>
        <time>2016-08-28T12:18:10Z</time>
      </trkpt>
      <trkpt lat="44.98723" lon="5.22405">
        <ele>1220.05</ele>
        <time>2016-08-28T12:18:29Z</time>
      </trkpt>
      <trkpt lat="44.98704" lon="5.22409">
        <ele>1218.61</ele>
        <time>2016-08-28T12:18:45Z</time>
      </trkpt>
      <trkpt lat="44.9869" lon="5.22408">
        <ele>1220.05</ele>
        <time>2016-08-28T12:18:59Z</time>
      </trkpt>
      <trkpt lat="44.98675" lon="5.22419">
        <ele>1221.01</ele>
        <time>2016-08-28T12:19:15Z</time>
      </trkpt>
      <trkpt lat="44.98657" lon="5.22421">
        <ele>1221.97</ele>
        <time>2016-08-28T12:19:34Z</time>
      </trkpt>
      <trkpt lat="44.98641" lon="5.2242">
        <ele>1220.53</ele>
        <time>2016-08-28T12:19:49Z</time>
      </trkpt>
      <trkpt lat="44.98629" lon="5.22424">
        <ele>1216.69</ele>
        <time>2016-08-28T12:20:02Z</time>
      </trkpt>
      <trkpt lat="44.9861" lon="5.22416">
        <ele>1215.72</ele>
        <time>2016-08-28T12:20:21Z</time>
      </trkpt>
      <trkpt lat="44.986" lon="5.22427">
        <ele>1213.8</ele>
        <time>2016-08-28T12:20:36Z</time>
      </trkpt>
      <trkpt lat="44.98593" lon="5.22441">
        <ele>1211.4</ele>
        <time>2016-08-28T12:20:50Z</time>
      </trkpt>
      <trkpt lat="44.9859" lon="5.22452">
        <ele>1209.96</ele>
        <time>2016-08-28T12:20:57Z</time>
      </trkpt>
      <trkpt lat="44.98578" lon="5.22457">
        <ele>1208.51</ele>
        <time>2016-08-28T12:21:14Z</time>
      </trkpt>
      <trkpt lat="44.98563" lon="5.22454">
        <ele>1206.11</ele>
        <time>2016-08-28T12:21:30Z</time>
      </trkpt>
      <trkpt lat="44.9856" lon="5.22451">
        <ele>1205.63</ele>
        <time>2016-08-28T12:21:34Z</time>
      </trkpt>
      <trkpt lat="44.9855" lon="5.22433">
        <ele>1203.23</ele>
        <time>2016-08-28T12:21:49Z</time>
      </trkpt>
      <trkpt lat="44.98547" lon="5.22428">
        <ele>1202.27</ele>
        <time>2016-08-28T12:21:55Z</time>
      </trkpt>
      <trkpt lat="44.98538" lon="5.22409">
        <ele>1202.75</ele>
        <time>2016-08-28T12:22:11Z</time>
      </trkpt>
      <trkpt lat="44.98531" lon="5.2239">
        <ele>1201.3</ele>
        <time>2016-08-28T12:22:26Z</time>
      </trkpt>
      <trkpt lat="44.98529" lon="5.22375">
        <ele>1204.19</ele>
        <time>2016-08-28T12:22:42Z</time>
      </trkpt>
      <trkpt lat="44.98525" lon="5.22362">
        <ele>1206.11</ele>
        <time>2016-08-28T12:22:57Z</time>
      </trkpt>
      <trkpt lat="44.98519" lon="5.22359">
        <ele>1208.51</ele>
        <time>2016-08-28T12:23:11Z</time>
      </trkpt>
      <trkpt lat="44.9851" lon="5.22356">
        <ele>1211.4</ele>
        <time>2016-08-28T12:23:26Z</time>
      </trkpt>
      <trkpt lat="44.98504" lon="5.22347">
        <ele>1212.36</ele>
        <time>2016-08-28T12:23:40Z</time>
      </trkpt>
      <trkpt lat="44.98498" lon="5.22337">
        <ele>1212.36</ele>
        <time>2016-08-28T12:23:53Z</time>
      </trkpt>
      <trkpt lat="44.98492" lon="5.22332">
        <ele>1212.84</ele>
        <time>2016-08-28T12:24:07Z</time>
      </trkpt>
      <trkpt lat="44.9849" lon="5.22334">
        <ele>1211.88</ele>
        <time>2016-08-28T12:24:28Z</time>
      </trkpt>
      <trkpt lat="44.98482" lon="5.22333">
        <ele>1209.48</ele>
        <time>2016-08-28T12:24:42Z</time>
      </trkpt>
      <trkpt lat="44.98475" lon="5.22329">
        <ele>1208.03</ele>
        <time>2016-08-28T12:24:53Z</time>
      </trkpt>
      <trkpt lat="44.98468" lon="5.22325">
        <ele>1208.03</ele>
        <time>2016-08-28T12:24:59Z</time>
      </trkpt>
      <trkpt lat="44.98458" lon="5.22321">
        <ele>1206.59</ele>
        <time>2016-08-28T12:25:13Z</time>
      </trkpt>
      <trkpt lat="44.98455" lon="5.22321">
        <ele>1206.11</ele>
        <time>2016-08-28T12:25:26Z</time>
      </trkpt>
      <trkpt lat="44.98448" lon="5.22317">
        <ele>1204.67</ele>
        <time>2016-08-28T12:25:39Z</time>
      </trkpt>
      <trkpt lat="44.98441" lon="5.22308">
        <ele>1204.67</ele>
        <time>2016-08-28T12:25:53Z</time>
      </trkpt>
      <trkpt lat="44.98434" lon="5.22301">
        <ele>1202.75</ele>
        <time>2016-08-28T12:26:06Z</time>
      </trkpt>
      <trkpt lat="44.98425" lon="5.22293">
        <ele>1201.79</ele>
        <time>2016-08-28T12:26:20Z</time>
      </trkpt>
      <trkpt lat="44.9842" lon="5.22286">
        <ele>1200.34</ele>
        <time>2016-08-28T12:26:31Z</time>
      </trkpt>
      <trkpt lat="44.98414" lon="5.22277">
        <ele>1198.42</ele>
        <time>2016-08-28T12:26:47Z</time>
      </trkpt>
      <trkpt lat="44.98407" lon="5.22267">
        <ele>1198.9</ele>
        <time>2016-08-28T12:27:01Z</time>
      </trkpt>
      <trkpt lat="44.98405" lon="5.22261">
        <ele>1197.94</ele>
        <time>2016-08-28T12:27:18Z</time>
      </trkpt>
      <trkpt lat="44.98404" lon="5.22257">
        <ele>1198.42</ele>
        <time>2016-08-28T12:27:37Z</time>
      </trkpt>
      <trkpt lat="44.984" lon="5.22246">
        <ele>1198.9</ele>
        <time>2016-08-28T12:27:52Z</time>
      </trkpt>
      <trkpt lat="44.98395" lon="5.2224">
        <ele>1196.5</ele>
        <time>2016-08-28T12:28:05Z</time>
      </trkpt>
      <trkpt lat="44.98391" lon="5.22229">
        <ele>1196.98</ele>
        <time>2016-08-28T12:28:20Z</time>
      </trkpt>
      <trkpt lat="44.98391" lon="5.22221">
        <ele>1196.98</ele>
        <time>2016-08-28T12:28:34Z</time>
      </trkpt>
      <trkpt lat="44.9839" lon="5.2222">
        <ele>1196.98</ele>
        <time>2016-08-28T12:28:57Z</time>
      </trkpt>
      <trkpt lat="44.9839" lon="5.22217">
        <ele>1196.98</ele>
        <time>2016-08-28T12:29:05Z</time>
      </trkpt>
      <trkpt lat="44.98393" lon="5.22215">
        <ele>1197.46</ele>
        <time>2016-08-28T12:29:19Z</time>
      </trkpt>
      <trkpt lat="44.98394" lon="5.22214">
        <ele>1197.46</ele>
        <time>2016-08-28T12:29:47Z</time>
      </trkpt>
      <trkpt lat="44.98389" lon="5.22218">
        <ele>1196.5</ele>
        <time>2016-08-28T12:30:08Z</time>
      </trkpt>
      <trkpt lat="44.98389" lon="5.2222">
        <ele>1196.98</ele>
        <time>2016-08-28T12:30:20Z</time>
      </trkpt>
      <trkpt lat="44.98391" lon="5.22219">
        <ele>1196.98</ele>
        <time>2016-08-28T12:30:51Z</time>
      </trkpt>
      <trkpt lat="44.98389" lon="5.22219">
        <ele>1196.5</ele>
        <time>2016-08-28T12:31:15Z</time>
      </trkpt>
      <trkpt lat="44.98383" lon="5.22218">
        <ele>1194.09</ele>
        <time>2016-08-28T12:31:31Z</time>
      </trkpt>
      <trkpt lat="44.98377" lon="5.22222">
        <ele>1191.69</ele>
        <time>2016-08-28T12:31:43Z</time>
      </trkpt>
      <trkpt lat="44.98374" lon="5.22222">
        <ele>1189.77</ele>
        <time>2016-08-28T12:31:57Z</time>
      </trkpt>
      <trkpt lat="44.98367" lon="5.22217">
        <ele>1186.4</ele>
        <time>2016-08-28T12:32:10Z</time>
      </trkpt>
      <trkpt lat="44.9836" lon="5.22214">
        <ele>1184</ele>
        <time>2016-08-28T12:32:23Z</time>
      </trkpt>
      <trkpt lat="44.98355" lon="5.22211">
        <ele>1181.12</ele>
        <time>2016-08-28T12:32:39Z</time>
      </trkpt>
      <trkpt lat="44.98349" lon="5.22209">
        <ele>1178.71</ele>
        <time>2016-08-28T12:32:52Z</time>
      </trkpt>
      <trkpt lat="44.98344" lon="5.2221">
        <ele>1177.27</ele>
        <time>2016-08-28T12:33:07Z</time>
      </trkpt>
      <trkpt lat="44.98342" lon="5.22212">
        <ele>1175.35</ele>
        <time>2016-08-28T12:33:17Z</time>
      </trkpt>
      <trkpt lat="44.98338" lon="5.22206">
        <ele>1173.91</ele>
        <time>2016-08-28T12:33:29Z</time>
      </trkpt>
      <trkpt lat="44.98333" lon="5.22204">
        <ele>1170.54</ele>
        <time>2016-08-28T12:33:41Z</time>
      </trkpt>
      <trkpt lat="44.98325" lon="5.22203">
        <ele>1167.66</ele>
        <time>2016-08-28T12:33:55Z</time>
      </trkpt>
      <trkpt lat="44.98322" lon="5.22206">
        <ele>1165.74</ele>
        <time>2016-08-28T12:34:06Z</time>
      </trkpt>
      <trkpt lat="44.98318" lon="5.22202">
        <ele>1162.85</ele>
        <time>2016-08-28T12:34:17Z</time>
      </trkpt>
      <trkpt lat="44.98317" lon="5.222">
        <ele>1162.85</ele>
        <time>2016-08-28T12:34:34Z</time>
      </trkpt>
      <trkpt lat="44.98309" lon="5.22201">
        <ele>1161.41</ele>
        <time>2016-08-28T12:34:52Z</time>
      </trkpt>
      <trkpt lat="44.98305" lon="5.222">
        <ele>1160.45</ele>
        <time>2016-08-28T12:35:05Z</time>
      </trkpt>
      <trkpt lat="44.983" lon="5.22194">
        <ele>1159.49</ele>
        <time>2016-08-28T12:35:16Z</time>
      </trkpt>
      <trkpt lat="44.9829" lon="5.22184">
        <ele>1158.53</ele>
        <time>2016-08-28T12:35:31Z</time>
      </trkpt>
      <trkpt lat="44.98289" lon="5.22184">
        <ele>1158.53</ele>
        <time>2016-08-28T12:35:32Z</time>
      </trkpt>
      <trkpt lat="44.98284" lon="5.22178">
        <ele>1158.53</ele>
        <time>2016-08-28T12:35:47Z</time>
      </trkpt>
      <trkpt lat="44.98283" lon="5.2218">
        <ele>1158.05</ele>
        <time>2016-08-28T12:36:08Z</time>
      </trkpt>
      <trkpt lat="44.98282" lon="5.22177">
        <ele>1159.01</ele>
        <time>2016-08-28T12:36:38Z</time>
      </trkpt>
      <trkpt lat="44.98283" lon="5.22175">
        <ele>1158.05</ele>
        <time>2016-08-28T12:36:54Z</time>
      </trkpt>
      <trkpt lat="44.98285" lon="5.22175">
        <ele>1159.01</ele>
        <time>2016-08-28T12:37:07Z</time>
      </trkpt>
      <trkpt lat="44.98282" lon="5.2217">
        <ele>1158.53</ele>
        <time>2016-08-28T12:37:31Z</time>
      </trkpt>
      <trkpt lat="44.98277" lon="5.22161">
        <ele>1160.45</ele>
        <time>2016-08-28T12:37:43Z</time>
      </trkpt>
      <trkpt lat="44.98271" lon="5.22148">
        <ele>1161.89</ele>
        <time>2016-08-28T12:37:57Z</time>
      </trkpt>
      <trkpt lat="44.98266" lon="5.22136">
        <ele>1163.81</ele>
        <time>2016-08-28T12:38:09Z</time>
      </trkpt>
      <trkpt lat="44.98263" lon="5.22126">
        <ele>1166.22</ele>
        <time>2016-08-28T12:38:20Z</time>
      </trkpt>
      <trkpt lat="44.98257" lon="5.2212">
        <ele>1167.66</ele>
        <time>2016-08-28T12:38:30Z</time>
      </trkpt>
      <trkpt lat="44.98248" lon="5.22116">
        <ele>1166.7</ele>
        <time>2016-08-28T12:38:43Z</time>
      </trkpt>
      <trkpt lat="44.98243" lon="5.2211">
        <ele>1168.14</ele>
        <time>2016-08-28T12:38:53Z</time>
      </trkpt>
      <trkpt lat="44.98239" lon="5.22106">
        <ele>1168.14</ele>
        <time>2016-08-28T12:39:06Z</time>
      </trkpt>
      <trkpt lat="44.98238" lon="5.22105">
        <ele>1168.14</ele>
        <time>2016-08-28T12:39:20Z</time>
      </trkpt>
      <trkpt lat="44.98239" lon="5.22107">
        <ele>1167.18</ele>
        <time>2016-08-28T12:39:40Z</time>
      </trkpt>
      <trkpt lat="44.98238" lon="5.22102">
        <ele>1168.14</ele>
        <time>2016-08-28T12:40:01Z</time>
      </trkpt>
      <trkpt lat="44.98235" lon="5.22101">
        <ele>1168.14</ele>
        <time>2016-08-28T12:40:05Z</time>
      </trkpt>
      <trkpt lat="44.98233" lon="5.22101">
        <ele>1168.14</ele>
        <time>2016-08-28T12:40:07Z</time>
      </trkpt>
      <trkpt lat="44.98231" lon="5.221">
        <ele>1168.14</ele>
        <time>2016-08-28T12:40:11Z</time>
      </trkpt>
      <trkpt lat="44.98224" lon="5.22095">
        <ele>1168.14</ele>
        <time>2016-08-28T12:40:24Z</time>
      </trkpt>
      <trkpt lat="44.98215" lon="5.22086">
        <ele>1169.1</ele>
        <time>2016-08-28T12:40:37Z</time>
      </trkpt>
      <trkpt lat="44.98212" lon="5.22086">
        <ele>1167.66</ele>
        <time>2016-08-28T12:40:41Z</time>
      </trkpt>
      <trkpt lat="44.98205" lon="5.22083">
        <ele>1166.7</ele>
        <time>2016-08-28T12:40:51Z</time>
      </trkpt>
      <trkpt lat="44.98202" lon="5.22081">
        <ele>1165.74</ele>
        <time>2016-08-28T12:40:54Z</time>
      </trkpt>
      <trkpt lat="44.98194" lon="5.22072">
        <ele>1167.18</ele>
        <time>2016-08-28T12:41:08Z</time>
      </trkpt>
      <trkpt lat="44.98186" lon="5.22064">
        <ele>1169.1</ele>
        <time>2016-08-28T12:41:21Z</time>
      </trkpt>
      <trkpt lat="44.9818" lon="5.22057">
        <ele>1170.54</ele>
        <time>2016-08-28T12:41:34Z</time>
      </trkpt>
      <trkpt lat="44.98173" lon="5.22051">
        <ele>1169.1</ele>
        <time>2016-08-28T12:41:46Z</time>
      </trkpt>
      <trkpt lat="44.9817" lon="5.22047">
        <ele>1170.54</ele>
        <time>2016-08-28T12:42:05Z</time>
      </trkpt>
      <trkpt lat="44.98163" lon="5.22039">
        <ele>1171.02</ele>
        <time>2016-08-28T12:42:19Z</time>
      </trkpt>
      <trkpt lat="44.98159" lon="5.22037">
        <ele>1171.5</ele>
        <time>2016-08-28T12:42:44Z</time>
      </trkpt>
      <trkpt lat="44.98161" lon="5.22027">
        <ele>1173.91</ele>
        <time>2016-08-28T12:42:59Z</time>
      </trkpt>
      <trkpt lat="44.98157" lon="5.22023">
        <ele>1173.91</ele>
        <time>2016-08-28T12:43:13Z</time>
      </trkpt>
      <trkpt lat="44.98164" lon="5.22022">
        <ele>1174.39</ele>
        <time>2016-08-28T12:43:35Z</time>
      </trkpt>
      <trkpt lat="44.98161" lon="5.22013">
        <ele>1171.5</ele>
        <time>2016-08-28T12:43:57Z</time>
      </trkpt>
      <trkpt lat="44.98157" lon="5.22007">
        <ele>1169.58</ele>
        <time>2016-08-28T12:44:09Z</time>
      </trkpt>
      <trkpt lat="44.98154" lon="5.22012">
        <ele>1169.58</ele>
        <time>2016-08-28T12:44:39Z</time>
      </trkpt>
      <trkpt lat="44.98152" lon="5.22008">
        <ele>1169.1</ele>
        <time>2016-08-28T12:45:11Z</time>
      </trkpt>
      <trkpt lat="44.98155" lon="5.22012">
        <ele>1169.1</ele>
        <time>2016-08-28T12:45:38Z</time>
      </trkpt>
      <trkpt lat="44.98154" lon="5.22009">
        <ele>1169.58</ele>
        <time>2016-08-28T12:46:04Z</time>
      </trkpt>
      <trkpt lat="44.98156" lon="5.22013">
        <ele>1169.58</ele>
        <time>2016-08-28T12:46:26Z</time>
      </trkpt>
      <trkpt lat="44.98156" lon="5.22014">
        <ele>1169.58</ele>
        <time>2016-08-28T12:46:47Z</time>
      </trkpt>
      <trkpt lat="44.98157" lon="5.2201">
        <ele>1169.58</ele>
        <time>2016-08-28T12:47:16Z</time>
      </trkpt>
      <trkpt lat="44.98158" lon="5.22009">
        <ele>1169.1</ele>
        <time>2016-08-28T12:47:44Z</time>
      </trkpt>
      <trkpt lat="44.98157" lon="5.22008">
        <ele>1169.58</ele>
        <time>2016-08-28T12:48:12Z</time>
      </trkpt>
      <trkpt lat="44.98155" lon="5.22007">
        <ele>1168.62</ele>
        <time>2016-08-28T12:48:33Z</time>
      </trkpt>
      <trkpt lat="44.98158" lon="5.22008">
        <ele>1169.1</ele>
        <time>2016-08-28T12:49:07Z</time>
      </trkpt>
      <trkpt lat="44.98158" lon="5.22011">
        <ele>1169.1</ele>
        <time>2016-08-28T12:49:31Z</time>
      </trkpt>
      <trkpt lat="44.98158" lon="5.22009">
        <ele>1169.1</ele>
        <time>2016-08-28T12:50:02Z</time>
      </trkpt>
      <trkpt lat="44.98157" lon="5.22008">
        <ele>1169.1</ele>
        <time>2016-08-28T12:50:30Z</time>
      </trkpt>
      <trkpt lat="44.98155" lon="5.22007">
        <ele>1167.66</ele>
        <time>2016-08-28T12:50:34Z</time>
      </trkpt>
      <trkpt lat="44.98153" lon="5.21998">
        <ele>1164.77</ele>
        <time>2016-08-28T12:50:53Z</time>
      </trkpt>
      <trkpt lat="44.98154" lon="5.21994">
        <ele>1161.41</ele>
        <time>2016-08-28T12:51:07Z</time>
      </trkpt>
      <trkpt lat="44.98153" lon="5.21987">
        <ele>1160.45</ele>
        <time>2016-08-28T12:51:25Z</time>
      </trkpt>
      <trkpt lat="44.98156" lon="5.21989">
        <ele>1157.08</ele>
        <time>2016-08-28T12:51:38Z</time>
      </trkpt>
      <trkpt lat="44.98155" lon="5.21976">
        <ele>1155.16</ele>
        <time>2016-08-28T12:51:57Z</time>
      </trkpt>
      <trkpt lat="44.98153" lon="5.2197">
        <ele>1151.8</ele>
        <time>2016-08-28T12:52:12Z</time>
      </trkpt>
      <trkpt lat="44.9815" lon="5.21967">
        <ele>1148.91</ele>
        <time>2016-08-28T12:52:28Z</time>
      </trkpt>
      <trkpt lat="44.98153" lon="5.21982">
        <ele>1147.47</ele>
        <time>2016-08-28T12:52:56Z</time>
      </trkpt>
      <trkpt lat="44.98163" lon="5.21975">
        <ele>1144.59</ele>
        <time>2016-08-28T12:53:16Z</time>
      </trkpt>
      <trkpt lat="44.98157" lon="5.21977">
        <ele>1145.07</ele>
        <time>2016-08-28T12:53:41Z</time>
      </trkpt>
      <trkpt lat="44.98157" lon="5.21973">
        <ele>1145.07</ele>
        <time>2016-08-28T12:54:12Z</time>
      </trkpt>
      <trkpt lat="44.98162" lon="5.21971">
        <ele>1142.18</ele>
        <time>2016-08-28T12:54:35Z</time>
      </trkpt>
      <trkpt lat="44.98157" lon="5.21956">
        <ele>1138.34</ele>
        <time>2016-08-28T12:54:46Z</time>
      </trkpt>
      <trkpt lat="44.98157" lon="5.21954">
        <ele>1137.86</ele>
        <time>2016-08-28T12:55:04Z</time>
      </trkpt>
      <trkpt lat="44.98155" lon="5.21951">
        <ele>1136.42</ele>
        <time>2016-08-28T12:55:21Z</time>
      </trkpt>
      <trkpt lat="44.98154" lon="5.21941">
        <ele>1133.05</ele>
        <time>2016-08-28T12:55:28Z</time>
      </trkpt>
      <trkpt lat="44.9815" lon="5.21931">
        <ele>1130.17</ele>
        <time>2016-08-28T12:55:38Z</time>
      </trkpt>
      <trkpt lat="44.98149" lon="5.21925">
        <ele>1128.73</ele>
        <time>2016-08-28T12:55:43Z</time>
      </trkpt>
      <trkpt lat="44.98148" lon="5.21913">
        <ele>1125.36</ele>
        <time>2016-08-28T12:55:53Z</time>
      </trkpt>
      <trkpt lat="44.98148" lon="5.21911">
        <ele>1124.88</ele>
        <time>2016-08-28T12:55:54Z</time>
      </trkpt>
      <trkpt lat="44.98145" lon="5.21899">
        <ele>1121.52</ele>
        <time>2016-08-28T12:56:07Z</time>
      </trkpt>
      <trkpt lat="44.98144" lon="5.21894">
        <ele>1120.07</ele>
        <time>2016-08-28T12:56:14Z</time>
      </trkpt>
      <trkpt lat="44.98141" lon="5.21886">
        <ele>1116.71</ele>
        <time>2016-08-28T12:56:24Z</time>
      </trkpt>
      <trkpt lat="44.98143" lon="5.21881">
        <ele>1113.82</ele>
        <time>2016-08-28T12:56:46Z</time>
      </trkpt>
      <trkpt lat="44.9814" lon="5.21886">
        <ele>1114.31</ele>
        <time>2016-08-28T12:57:15Z</time>
      </trkpt>
      <trkpt lat="44.98145" lon="5.2188">
        <ele>1110.94</ele>
        <time>2016-08-28T12:57:35Z</time>
      </trkpt>
      <trkpt lat="44.98148" lon="5.21875">
        <ele>1108.06</ele>
        <time>2016-08-28T12:57:44Z</time>
      </trkpt>
      <trkpt lat="44.98148" lon="5.21874">
        <ele>1108.06</ele>
        <time>2016-08-28T12:57:45Z</time>
      </trkpt>
      <trkpt lat="44.98148" lon="5.21862">
        <ele>1104.69</ele>
        <time>2016-08-28T12:58:00Z</time>
      </trkpt>
      <trkpt lat="44.9815" lon="5.21858">
        <ele>1102.77</ele>
        <time>2016-08-28T12:58:20Z</time>
      </trkpt>
      <trkpt lat="44.98149" lon="5.2185">
        <ele>1101.33</ele>
        <time>2016-08-28T12:58:38Z</time>
      </trkpt>
      <trkpt lat="44.98151" lon="5.21847">
        <ele>1097.96</ele>
        <time>2016-08-28T12:58:52Z</time>
      </trkpt>
      <trkpt lat="44.98157" lon="5.21837">
        <ele>1094.6</ele>
        <time>2016-08-28T12:59:04Z</time>
      </trkpt>
      <trkpt lat="44.98155" lon="5.21827">
        <ele>1091.23</ele>
        <time>2016-08-28T12:59:16Z</time>
      </trkpt>
      <trkpt lat="44.98159" lon="5.21822">
        <ele>1087.87</ele>
        <time>2016-08-28T12:59:30Z</time>
      </trkpt>
      <trkpt lat="44.98155" lon="5.21817">
        <ele>1087.39</ele>
        <time>2016-08-28T12:59:51Z</time>
      </trkpt>
      <trkpt lat="44.98156" lon="5.21814">
        <ele>1084.99</ele>
        <time>2016-08-28T13:00:18Z</time>
      </trkpt>
      <trkpt lat="44.98157" lon="5.21808">
        <ele>1082.1</ele>
        <time>2016-08-28T13:00:33Z</time>
      </trkpt>
      <trkpt lat="44.98157" lon="5.21803">
        <ele>1078.74</ele>
        <time>2016-08-28T13:00:49Z</time>
      </trkpt>
      <trkpt lat="44.98158" lon="5.21798">
        <ele>1075.85</ele>
        <time>2016-08-28T13:01:03Z</time>
      </trkpt>
      <trkpt lat="44.98163" lon="5.21793">
        <ele>1072.01</ele>
        <time>2016-08-28T13:01:19Z</time>
      </trkpt>
      <trkpt lat="44.98167" lon="5.21793">
        <ele>1070.57</ele>
        <time>2016-08-28T13:01:38Z</time>
      </trkpt>
      <trkpt lat="44.98165" lon="5.21797">
        <ele>1070.08</ele>
        <time>2016-08-28T13:02:06Z</time>
      </trkpt>
      <trkpt lat="44.98173" lon="5.21798">
        <ele>1070.08</ele>
        <time>2016-08-28T13:02:33Z</time>
      </trkpt>
      <trkpt lat="44.98177" lon="5.2179">
        <ele>1067.2</ele>
        <time>2016-08-28T13:02:52Z</time>
      </trkpt>
      <trkpt lat="44.98174" lon="5.21779">
        <ele>1065.28</ele>
        <time>2016-08-28T13:03:07Z</time>
      </trkpt>
      <trkpt lat="44.98171" lon="5.21766">
        <ele>1062.39</ele>
        <time>2016-08-28T13:03:17Z</time>
      </trkpt>
      <trkpt lat="44.98171" lon="5.21757">
        <ele>1058.55</ele>
        <time>2016-08-28T13:03:30Z</time>
      </trkpt>
      <trkpt lat="44.98173" lon="5.21748">
        <ele>1055.18</ele>
        <time>2016-08-28T13:03:38Z</time>
      </trkpt>
      <trkpt lat="44.98172" lon="5.21739">
        <ele>1051.82</ele>
        <time>2016-08-28T13:03:47Z</time>
      </trkpt>
      <trkpt lat="44.98171" lon="5.21737">
        <ele>1051.82</ele>
        <time>2016-08-28T13:03:48Z</time>
      </trkpt>
      <trkpt lat="44.98175" lon="5.2173">
        <ele>1048.94</ele>
        <time>2016-08-28T13:04:03Z</time>
      </trkpt>
      <trkpt lat="44.98177" lon="5.21718">
        <ele>1045.57</ele>
        <time>2016-08-28T13:04:15Z</time>
      </trkpt>
      <trkpt lat="44.98182" lon="5.21707">
        <ele>1042.21</ele>
        <time>2016-08-28T13:04:26Z</time>
      </trkpt>
      <trkpt lat="44.98182" lon="5.21706">
        <ele>1042.21</ele>
        <time>2016-08-28T13:04:27Z</time>
      </trkpt>
      <trkpt lat="44.98185" lon="5.21694">
        <ele>1038.84</ele>
        <time>2016-08-28T13:04:40Z</time>
      </trkpt>
      <trkpt lat="44.98186" lon="5.21685">
        <ele>1036.92</ele>
        <time>2016-08-28T13:04:46Z</time>
      </trkpt>
      <trkpt lat="44.98184" lon="5.21662">
        <ele>1034.52</ele>
        <time>2016-08-28T13:05:03Z</time>
      </trkpt>
      <trkpt lat="44.98185" lon="5.21646">
        <ele>1032.11</ele>
        <time>2016-08-28T13:05:21Z</time>
      </trkpt>
      <trkpt lat="44.98179" lon="5.21655">
        <ele>1031.15</ele>
        <time>2016-08-28T13:05:47Z</time>
      </trkpt>
      <trkpt lat="44.98177" lon="5.21655">
        <ele>1032.11</ele>
        <time>2016-08-28T13:06:10Z</time>
      </trkpt>
      <trkpt lat="44.98185" lon="5.21632">
        <ele>1028.75</ele>
        <time>2016-08-28T13:06:24Z</time>
      </trkpt>
      <trkpt lat="44.9819" lon="5.21607">
        <ele>1027.79</ele>
        <time>2016-08-28T13:06:39Z</time>
      </trkpt>
      <trkpt lat="44.98191" lon="5.21595">
        <ele>1026.34</ele>
        <time>2016-08-28T13:06:50Z</time>
      </trkpt>
      <trkpt lat="44.982" lon="5.21577">
        <ele>1023.94</ele>
        <time>2016-08-28T13:07:05Z</time>
      </trkpt>
      <trkpt lat="44.98206" lon="5.21569">
        <ele>1020.58</ele>
        <time>2016-08-28T13:07:16Z</time>
      </trkpt>
      <trkpt lat="44.98209" lon="5.21551">
        <ele>1017.69</ele>
        <time>2016-08-28T13:07:26Z</time>
      </trkpt>
      <trkpt lat="44.98214" lon="5.21542">
        <ele>1014.81</ele>
        <time>2016-08-28T13:07:39Z</time>
      </trkpt>
      <trkpt lat="44.9822" lon="5.21536">
        <ele>1011.93</ele>
        <time>2016-08-28T13:07:51Z</time>
      </trkpt>
      <trkpt lat="44.9822" lon="5.21531">
        <ele>1010.96</ele>
        <time>2016-08-28T13:08:08Z</time>
      </trkpt>
      <trkpt lat="44.98227" lon="5.21522">
        <ele>1007.6</ele>
        <time>2016-08-28T13:08:22Z</time>
      </trkpt>
      <trkpt lat="44.98229" lon="5.21519">
        <ele>1006.64</ele>
        <time>2016-08-28T13:08:24Z</time>
      </trkpt>
      <trkpt lat="44.98232" lon="5.21511">
        <ele>1002.79</ele>
        <time>2016-08-28T13:08:34Z</time>
      </trkpt>
      <trkpt lat="44.98243" lon="5.21507">
        <ele>999.43</ele>
        <time>2016-08-28T13:08:48Z</time>
      </trkpt>
      <trkpt lat="44.98249" lon="5.21502">
        <ele>997.99</ele>
        <time>2016-08-28T13:08:55Z</time>
      </trkpt>
      <trkpt lat="44.98252" lon="5.21497">
        <ele>997.02</ele>
        <time>2016-08-28T13:09:00Z</time>
      </trkpt>
      <trkpt lat="44.98258" lon="5.21492">
        <ele>993.66</ele>
        <time>2016-08-28T13:09:09Z</time>
      </trkpt>
      <trkpt lat="44.98264" lon="5.21483">
        <ele>991.26</ele>
        <time>2016-08-28T13:09:24Z</time>
      </trkpt>
      <trkpt lat="44.98267" lon="5.21476">
        <ele>988.37</ele>
        <time>2016-08-28T13:09:32Z</time>
      </trkpt>
      <trkpt lat="44.98272" lon="5.21464">
        <ele>984.53</ele>
        <time>2016-08-28T13:09:46Z</time>
      </trkpt>
      <trkpt lat="44.98276" lon="5.21459">
        <ele>981.64</ele>
        <time>2016-08-28T13:09:56Z</time>
      </trkpt>
      <trkpt lat="44.98278" lon="5.21455">
        <ele>980.2</ele>
        <time>2016-08-28T13:10:02Z</time>
      </trkpt>
      <trkpt lat="44.98286" lon="5.21453">
        <ele>980.2</ele>
        <time>2016-08-28T13:10:21Z</time>
      </trkpt>
      <trkpt lat="44.98284" lon="5.21443">
        <ele>978.76</ele>
        <time>2016-08-28T13:10:32Z</time>
      </trkpt>
      <trkpt lat="44.98288" lon="5.21438">
        <ele>975.39</ele>
        <time>2016-08-28T13:10:39Z</time>
      </trkpt>
      <trkpt lat="44.98293" lon="5.21433">
        <ele>972.51</ele>
        <time>2016-08-28T13:10:50Z</time>
      </trkpt>
      <trkpt lat="44.98304" lon="5.21434">
        <ele>972.03</ele>
        <time>2016-08-28T13:11:03Z</time>
      </trkpt>
      <trkpt lat="44.9831" lon="5.21438">
        <ele>971.07</ele>
        <time>2016-08-28T13:11:19Z</time>
      </trkpt>
      <trkpt lat="44.98309" lon="5.21437">
        <ele>971.55</ele>
        <time>2016-08-28T13:11:26Z</time>
      </trkpt>
      <trkpt lat="44.98308" lon="5.21438">
        <ele>972.99</ele>
        <time>2016-08-28T13:11:52Z</time>
      </trkpt>
      <trkpt lat="44.98308" lon="5.21438">
        <ele>972.99</ele>
        <time>2016-08-28T13:11:53Z</time>
      </trkpt>
      <trkpt lat="44.98306" lon="5.21435">
        <ele>972.51</ele>
        <time>2016-08-28T13:12:28Z</time>
      </trkpt>
      <trkpt lat="44.98309" lon="5.21431">
        <ele>972.51</ele>
        <time>2016-08-28T13:12:52Z</time>
      </trkpt>
      <trkpt lat="44.98308" lon="5.21428">
        <ele>972.03</ele>
        <time>2016-08-28T13:13:19Z</time>
      </trkpt>
      <trkpt lat="44.98309" lon="5.21427">
        <ele>972.51</ele>
        <time>2016-08-28T13:13:55Z</time>
      </trkpt>
      <trkpt lat="44.98313" lon="5.21432">
        <ele>972.03</ele>
        <time>2016-08-28T13:14:27Z</time>
      </trkpt>
      <trkpt lat="44.98313" lon="5.21435">
        <ele>970.59</ele>
        <time>2016-08-28T13:14:53Z</time>
      </trkpt>
      <trkpt lat="44.98313" lon="5.21436">
        <ele>970.59</ele>
        <time>2016-08-28T13:14:54Z</time>
      </trkpt>
      <trkpt lat="44.98312" lon="5.21439">
        <ele>972.03</ele>
        <time>2016-08-28T13:15:13Z</time>
      </trkpt>
      <trkpt lat="44.98295" lon="5.21448">
        <ele>971.55</ele>
        <time>2016-08-28T13:15:45Z</time>
      </trkpt>
      <trkpt lat="44.98306" lon="5.21451">
        <ele>970.11</ele>
        <time>2016-08-28T13:16:04Z</time>
      </trkpt>
      <trkpt lat="44.98313" lon="5.21463">
        <ele>967.7</ele>
        <time>2016-08-28T13:16:17Z</time>
      </trkpt>
      <trkpt lat="44.9832" lon="5.21476">
        <ele>964.82</ele>
        <time>2016-08-28T13:16:28Z</time>
      </trkpt>
      <trkpt lat="44.98322" lon="5.21488">
        <ele>961.46</ele>
        <time>2016-08-28T13:16:39Z</time>
      </trkpt>
      <trkpt lat="44.98322" lon="5.21491">
        <ele>960.98</ele>
        <time>2016-08-28T13:16:43Z</time>
      </trkpt>
      <trkpt lat="44.98318" lon="5.21505">
        <ele>957.61</ele>
        <time>2016-08-28T13:16:55Z</time>
      </trkpt>
      <trkpt lat="44.98318" lon="5.21507">
        <ele>958.09</ele>
        <time>2016-08-28T13:16:56Z</time>
      </trkpt>
      <trkpt lat="44.98314" lon="5.21531">
        <ele>955.21</ele>
        <time>2016-08-28T13:17:10Z</time>
      </trkpt>
      <trkpt lat="44.98314" lon="5.21533">
        <ele>954.73</ele>
        <time>2016-08-28T13:17:11Z</time>
      </trkpt>
      <trkpt lat="44.98314" lon="5.21544">
        <ele>954.25</ele>
        <time>2016-08-28T13:17:18Z</time>
      </trkpt>
      <trkpt lat="44.98316" lon="5.2155">
        <ele>953.28</ele>
        <time>2016-08-28T13:17:22Z</time>
      </trkpt>
      <trkpt lat="44.98319" lon="5.21554">
        <ele>952.8</ele>
        <time>2016-08-28T13:17:25Z</time>
      </trkpt>
      <trkpt lat="44.98325" lon="5.21558">
        <ele>951.36</ele>
        <time>2016-08-28T13:17:31Z</time>
      </trkpt>
      <trkpt lat="44.98336" lon="5.21553">
        <ele>948.48</ele>
        <time>2016-08-28T13:17:43Z</time>
      </trkpt>
      <trkpt lat="44.98353" lon="5.21535">
        <ele>946.07</ele>
        <time>2016-08-28T13:17:57Z</time>
      </trkpt>
      <trkpt lat="44.9836" lon="5.21531">
        <ele>944.63</ele>
        <time>2016-08-28T13:18:07Z</time>
      </trkpt>
      <trkpt lat="44.98375" lon="5.2153">
        <ele>941.75</ele>
        <time>2016-08-28T13:18:21Z</time>
      </trkpt>
      <trkpt lat="44.98379" lon="5.2153">
        <ele>941.27</ele>
        <time>2016-08-28T13:18:25Z</time>
      </trkpt>
      <trkpt lat="44.98386" lon="5.21531">
        <ele>939.35</ele>
        <time>2016-08-28T13:18:33Z</time>
      </trkpt>
      <trkpt lat="44.98389" lon="5.21531">
        <ele>939.35</ele>
        <time>2016-08-28T13:18:36Z</time>
      </trkpt>
      <trkpt lat="44.98403" lon="5.21524">
        <ele>935.98</ele>
        <time>2016-08-28T13:18:49Z</time>
      </trkpt>
      <trkpt lat="44.98414" lon="5.21524">
        <ele>933.58</ele>
        <time>2016-08-28T13:19:01Z</time>
      </trkpt>
      <trkpt lat="44.98419" lon="5.21531">
        <ele>931.65</ele>
        <time>2016-08-28T13:19:17Z</time>
      </trkpt>
      <trkpt lat="44.98413" lon="5.21546">
        <ele>928.29</ele>
        <time>2016-08-28T13:19:29Z</time>
      </trkpt>
      <trkpt lat="44.98416" lon="5.21553">
        <ele>926.85</ele>
        <time>2016-08-28T13:19:40Z</time>
      </trkpt>
      <trkpt lat="44.98414" lon="5.21562">
        <ele>924.93</ele>
        <time>2016-08-28T13:19:50Z</time>
      </trkpt>
      <trkpt lat="44.98406" lon="5.21559">
        <ele>922.04</ele>
        <time>2016-08-28T13:20:01Z</time>
      </trkpt>
      <trkpt lat="44.98399" lon="5.21559">
        <ele>919.64</ele>
        <time>2016-08-28T13:20:09Z</time>
      </trkpt>
      <trkpt lat="44.98394" lon="5.2157">
        <ele>916.75</ele>
        <time>2016-08-28T13:20:22Z</time>
      </trkpt>
      <trkpt lat="44.98401" lon="5.21584">
        <ele>914.83</ele>
        <time>2016-08-28T13:20:30Z</time>
      </trkpt>
      <trkpt lat="44.98406" lon="5.21587">
        <ele>914.35</ele>
        <time>2016-08-28T13:20:46Z</time>
      </trkpt>
      <trkpt lat="44.9841" lon="5.21598">
        <ele>913.39</ele>
        <time>2016-08-28T13:20:53Z</time>
      </trkpt>
      <trkpt lat="44.98423" lon="5.2161">
        <ele>909.06</ele>
        <time>2016-08-28T13:21:07Z</time>
      </trkpt>
      <trkpt lat="44.98424" lon="5.21611">
        <ele>908.58</ele>
        <time>2016-08-28T13:21:08Z</time>
      </trkpt>
      <trkpt lat="44.98429" lon="5.21631">
        <ele>905.7</ele>
        <time>2016-08-28T13:21:20Z</time>
      </trkpt>
      <trkpt lat="44.98434" lon="5.21632">
        <ele>903.78</ele>
        <time>2016-08-28T13:21:25Z</time>
      </trkpt>
      <trkpt lat="44.98442" lon="5.21636">
        <ele>901.85</ele>
        <time>2016-08-28T13:21:36Z</time>
      </trkpt>
      <trkpt lat="44.98443" lon="5.21639">
        <ele>901.37</ele>
        <time>2016-08-28T13:21:42Z</time>
      </trkpt>
      <trkpt lat="44.98454" lon="5.21644">
        <ele>897.53</ele>
        <time>2016-08-28T13:21:54Z</time>
      </trkpt>
      <trkpt lat="44.98456" lon="5.21653">
        <ele>895.12</ele>
        <time>2016-08-28T13:22:06Z</time>
      </trkpt>
      <trkpt lat="44.98461" lon="5.21658">
        <ele>893.68</ele>
        <time>2016-08-28T13:22:12Z</time>
      </trkpt>
      <trkpt lat="44.9847" lon="5.21662">
        <ele>890.8</ele>
        <time>2016-08-28T13:22:21Z</time>
      </trkpt>
      <trkpt lat="44.9847" lon="5.21664">
        <ele>890.32</ele>
        <time>2016-08-28T13:22:23Z</time>
      </trkpt>
      <trkpt lat="44.98484" lon="5.2167">
        <ele>887.43</ele>
        <time>2016-08-28T13:22:36Z</time>
      </trkpt>
      <trkpt lat="44.98492" lon="5.21673">
        <ele>885.99</ele>
        <time>2016-08-28T13:22:49Z</time>
      </trkpt>
      <trkpt lat="44.98491" lon="5.21677">
        <ele>885.99</ele>
        <time>2016-08-28T13:23:05Z</time>
      </trkpt>
      <trkpt lat="44.98491" lon="5.21677">
        <ele>885.99</ele>
        <time>2016-08-28T13:23:06Z</time>
      </trkpt>
      <trkpt lat="44.98492" lon="5.21675">
        <ele>885.03</ele>
        <time>2016-08-28T13:23:09Z</time>
      </trkpt>
      <trkpt lat="44.98496" lon="5.21677">
        <ele>883.59</ele>
        <time>2016-08-28T13:23:15Z</time>
      </trkpt>
      <trkpt lat="44.98503" lon="5.21688">
        <ele>881.19</ele>
        <time>2016-08-28T13:23:26Z</time>
      </trkpt>
      <trkpt lat="44.98513" lon="5.21695">
        <ele>878.78</ele>
        <time>2016-08-28T13:23:38Z</time>
      </trkpt>
      <trkpt lat="44.98522" lon="5.21699">
        <ele>875.9</ele>
        <time>2016-08-28T13:23:51Z</time>
      </trkpt>
      <trkpt lat="44.98521" lon="5.21699">
        <ele>875.9</ele>
        <time>2016-08-28T13:24:05Z</time>
      </trkpt>
      <trkpt lat="44.98519" lon="5.21696">
        <ele>877.34</ele>
        <time>2016-08-28T13:24:23Z</time>
      </trkpt>
      <trkpt lat="44.98522" lon="5.21693">
        <ele>876.86</ele>
        <time>2016-08-28T13:24:44Z</time>
      </trkpt>
      <trkpt lat="44.9853" lon="5.21695">
        <ele>874.46</ele>
        <time>2016-08-28T13:24:59Z</time>
      </trkpt>
      <trkpt lat="44.98525" lon="5.21696">
        <ele>875.42</ele>
        <time>2016-08-28T13:25:17Z</time>
      </trkpt>
      <trkpt lat="44.98526" lon="5.21695">
        <ele>875.9</ele>
        <time>2016-08-28T13:25:37Z</time>
      </trkpt>
      <trkpt lat="44.98538" lon="5.21696">
        <ele>873.98</ele>
        <time>2016-08-28T13:25:53Z</time>
      </trkpt>
      <trkpt lat="44.98541" lon="5.21696">
        <ele>873.01</ele>
        <time>2016-08-28T13:26:08Z</time>
      </trkpt>
      <trkpt lat="44.98548" lon="5.21698">
        <ele>871.57</ele>
        <time>2016-08-28T13:26:22Z</time>
      </trkpt>
      <trkpt lat="44.98559" lon="5.217">
        <ele>869.65</ele>
        <time>2016-08-28T13:26:35Z</time>
      </trkpt>
      <trkpt lat="44.98563" lon="5.21701">
        <ele>867.73</ele>
        <time>2016-08-28T13:26:45Z</time>
      </trkpt>
      <trkpt lat="44.98573" lon="5.21702">
        <ele>865.8</ele>
        <time>2016-08-28T13:26:58Z</time>
      </trkpt>
      <trkpt lat="44.9858" lon="5.217">
        <ele>862.44</ele>
        <time>2016-08-28T13:27:10Z</time>
      </trkpt>
      <trkpt lat="44.9859" lon="5.21699">
        <ele>859.56</ele>
        <time>2016-08-28T13:27:22Z</time>
      </trkpt>
      <trkpt lat="44.98598" lon="5.217">
        <ele>858.59</ele>
        <time>2016-08-28T13:27:43Z</time>
      </trkpt>
      <trkpt lat="44.98605" lon="5.21699">
        <ele>856.19</ele>
        <time>2016-08-28T13:27:54Z</time>
      </trkpt>
      <trkpt lat="44.98612" lon="5.21694">
        <ele>855.23</ele>
        <time>2016-08-28T13:28:03Z</time>
      </trkpt>
      <trkpt lat="44.98619" lon="5.21693">
        <ele>852.35</ele>
        <time>2016-08-28T13:28:15Z</time>
      </trkpt>
      <trkpt lat="44.98629" lon="5.21693">
        <ele>851.38</ele>
        <time>2016-08-28T13:28:29Z</time>
      </trkpt>
      <trkpt lat="44.98627" lon="5.21687">
        <ele>851.38</ele>
        <time>2016-08-28T13:28:46Z</time>
      </trkpt>
      <trkpt lat="44.98622" lon="5.21691">
        <ele>850.42</ele>
        <time>2016-08-28T13:29:00Z</time>
      </trkpt>
      <trkpt lat="44.98622" lon="5.2169">
        <ele>848.98</ele>
        <time>2016-08-28T13:29:04Z</time>
      </trkpt>
      <trkpt lat="44.9865" lon="5.21689">
        <ele>845.62</ele>
        <time>2016-08-28T13:29:17Z</time>
      </trkpt>
      <trkpt lat="44.98651" lon="5.2168">
        <ele>844.18</ele>
        <time>2016-08-28T13:29:27Z</time>
      </trkpt>
      <trkpt lat="44.98657" lon="5.21677">
        <ele>843.21</ele>
        <time>2016-08-28T13:29:32Z</time>
      </trkpt>
      <trkpt lat="44.98661" lon="5.21672">
        <ele>841.77</ele>
        <time>2016-08-28T13:29:39Z</time>
      </trkpt>
      <trkpt lat="44.98674" lon="5.21673">
        <ele>838.89</ele>
        <time>2016-08-28T13:29:52Z</time>
      </trkpt>
      <trkpt lat="44.9868" lon="5.21674">
        <ele>836.48</ele>
        <time>2016-08-28T13:30:05Z</time>
      </trkpt>
      <trkpt lat="44.9868" lon="5.21677">
        <ele>834.56</ele>
        <time>2016-08-28T13:30:14Z</time>
      </trkpt>
      <trkpt lat="44.98675" lon="5.21663">
        <ele>834.56</ele>
        <time>2016-08-28T13:30:27Z</time>
      </trkpt>
      <trkpt lat="44.98662" lon="5.21664">
        <ele>834.56</ele>
        <time>2016-08-28T13:30:48Z</time>
      </trkpt>
      <trkpt lat="44.98666" lon="5.21667">
        <ele>832.64</ele>
        <time>2016-08-28T13:31:00Z</time>
      </trkpt>
      <trkpt lat="44.98671" lon="5.21665">
        <ele>830.72</ele>
        <time>2016-08-28T13:31:07Z</time>
      </trkpt>
      <trkpt lat="44.98673" lon="5.21665">
        <ele>830.72</ele>
        <time>2016-08-28T13:31:09Z</time>
      </trkpt>
      <trkpt lat="44.98683" lon="5.21662">
        <ele>827.35</ele>
        <time>2016-08-28T13:31:22Z</time>
      </trkpt>
      <trkpt lat="44.98686" lon="5.21657">
        <ele>826.87</ele>
        <time>2016-08-28T13:31:42Z</time>
      </trkpt>
      <trkpt lat="44.98694" lon="5.21656">
        <ele>823.51</ele>
        <time>2016-08-28T13:31:52Z</time>
      </trkpt>
      <trkpt lat="44.987" lon="5.21657">
        <ele>820.14</ele>
        <time>2016-08-28T13:32:03Z</time>
      </trkpt>
      <trkpt lat="44.98702" lon="5.21657">
        <ele>820.14</ele>
        <time>2016-08-28T13:32:06Z</time>
      </trkpt>
      <trkpt lat="44.98703" lon="5.21657">
        <ele>819.66</ele>
        <time>2016-08-28T13:32:08Z</time>
      </trkpt>
      <trkpt lat="44.98716" lon="5.2166">
        <ele>815.82</ele>
        <time>2016-08-28T13:32:21Z</time>
      </trkpt>
      <trkpt lat="44.98726" lon="5.21655">
        <ele>812.93</ele>
        <time>2016-08-28T13:32:35Z</time>
      </trkpt>
      <trkpt lat="44.98727" lon="5.21648">
        <ele>811.97</ele>
        <time>2016-08-28T13:32:51Z</time>
      </trkpt>
      <trkpt lat="44.98724" lon="5.21646">
        <ele>811.97</ele>
        <time>2016-08-28T13:33:09Z</time>
      </trkpt>
      <trkpt lat="44.98721" lon="5.21645">
        <ele>812.45</ele>
        <time>2016-08-28T13:33:38Z</time>
      </trkpt>
      <trkpt lat="44.98732" lon="5.21647">
        <ele>811.97</ele>
        <time>2016-08-28T13:34:05Z</time>
      </trkpt>
      <trkpt lat="44.9871" lon="5.21639">
        <ele>812.45</ele>
        <time>2016-08-28T13:34:36Z</time>
      </trkpt>
      <trkpt lat="44.98705" lon="5.21632">
        <ele>812.45</ele>
        <time>2016-08-28T13:35:09Z</time>
      </trkpt>
      <trkpt lat="44.98728" lon="5.2165">
        <ele>811.49</ele>
        <time>2016-08-28T13:35:26Z</time>
      </trkpt>
      <trkpt lat="44.98735" lon="5.21655">
        <ele>809.57</ele>
        <time>2016-08-28T13:35:37Z</time>
      </trkpt>
      <trkpt lat="44.98735" lon="5.21655">
        <ele>809.57</ele>
        <time>2016-08-28T13:35:38Z</time>
      </trkpt>
      <trkpt lat="44.98744" lon="5.2166">
        <ele>808.61</ele>
        <time>2016-08-28T13:35:47Z</time>
      </trkpt>
      <trkpt lat="44.98749" lon="5.21661">
        <ele>805.24</ele>
        <time>2016-08-28T13:35:58Z</time>
      </trkpt>
      <trkpt lat="44.98751" lon="5.21661">
        <ele>805.24</ele>
        <time>2016-08-28T13:36:05Z</time>
      </trkpt>
      <trkpt lat="44.98761" lon="5.21661">
        <ele>801.88</ele>
        <time>2016-08-28T13:36:19Z</time>
      </trkpt>
      <trkpt lat="44.9877" lon="5.21658">
        <ele>798.99</ele>
        <time>2016-08-28T13:36:32Z</time>
      </trkpt>
      <trkpt lat="44.98779" lon="5.2166">
        <ele>796.59</ele>
        <time>2016-08-28T13:36:43Z</time>
      </trkpt>
      <trkpt lat="44.98784" lon="5.21658">
        <ele>796.11</ele>
        <time>2016-08-28T13:36:57Z</time>
      </trkpt>
      <trkpt lat="44.98794" lon="5.2166">
        <ele>794.67</ele>
        <time>2016-08-28T13:37:09Z</time>
      </trkpt>
      <trkpt lat="44.98802" lon="5.21655">
        <ele>793.71</ele>
        <time>2016-08-28T13:37:22Z</time>
      </trkpt>
      <trkpt lat="44.98806" lon="5.21651">
        <ele>791.3</ele>
        <time>2016-08-28T13:37:34Z</time>
      </trkpt>
      <trkpt lat="44.98813" lon="5.21647">
        <ele>790.34</ele>
        <time>2016-08-28T13:37:40Z</time>
      </trkpt>
      <trkpt lat="44.98823" lon="5.21632">
        <ele>787.46</ele>
        <time>2016-08-28T13:37:53Z</time>
      </trkpt>
      <trkpt lat="44.98825" lon="5.21616">
        <ele>785.05</ele>
        <time>2016-08-28T13:38:04Z</time>
      </trkpt>
      <trkpt lat="44.98828" lon="5.21603">
        <ele>782.65</ele>
        <time>2016-08-28T13:38:16Z</time>
      </trkpt>
      <trkpt lat="44.98832" lon="5.21596">
        <ele>781.21</ele>
        <time>2016-08-28T13:38:28Z</time>
      </trkpt>
      <trkpt lat="44.98832" lon="5.21596">
        <ele>781.21</ele>
        <time>2016-08-28T13:38:44Z</time>
      </trkpt>
      <trkpt lat="44.98835" lon="5.21596">
        <ele>781.21</ele>
        <time>2016-08-28T13:39:00Z</time>
      </trkpt>
      <trkpt lat="44.98835" lon="5.21594">
        <ele>781.69</ele>
        <time>2016-08-28T13:39:15Z</time>
      </trkpt>
      <trkpt lat="44.98835" lon="5.21588">
        <ele>780.73</ele>
        <time>2016-08-28T13:39:40Z</time>
      </trkpt>
      <trkpt lat="44.98833" lon="5.21589">
        <ele>780.25</ele>
        <time>2016-08-28T13:40:04Z</time>
      </trkpt>
      <trkpt lat="44.98832" lon="5.21591">
        <ele>779.77</ele>
        <time>2016-08-28T13:40:27Z</time>
      </trkpt>
      <trkpt lat="44.98829" lon="5.21591">
        <ele>779.29</ele>
        <time>2016-08-28T13:40:50Z</time>
      </trkpt>
      <trkpt lat="44.9883" lon="5.21595">
        <ele>778.81</ele>
        <time>2016-08-28T13:41:13Z</time>
      </trkpt>
      <trkpt lat="44.98836" lon="5.21582">
        <ele>777.84</ele>
        <time>2016-08-28T13:41:27Z</time>
      </trkpt>
      <trkpt lat="44.98837" lon="5.21581">
        <ele>777.36</ele>
        <time>2016-08-28T13:41:29Z</time>
      </trkpt>
      <trkpt lat="44.98844" lon="5.21573">
        <ele>776.88</ele>
        <time>2016-08-28T13:41:41Z</time>
      </trkpt>
      <trkpt lat="44.98851" lon="5.21566">
        <ele>774.96</ele>
        <time>2016-08-28T13:41:53Z</time>
      </trkpt>
      <trkpt lat="44.98865" lon="5.21555">
        <ele>773.52</ele>
        <time>2016-08-28T13:42:06Z</time>
      </trkpt>
      <trkpt lat="44.98874" lon="5.21545">
        <ele>770.63</ele>
        <time>2016-08-28T13:42:18Z</time>
      </trkpt>
      <trkpt lat="44.98894" lon="5.21533">
        <ele>768.23</ele>
        <time>2016-08-28T13:42:34Z</time>
      </trkpt>
      <trkpt lat="44.98897" lon="5.21529">
        <ele>767.75</ele>
        <time>2016-08-28T13:42:39Z</time>
      </trkpt>
      <trkpt lat="44.98913" lon="5.21518">
        <ele>766.79</ele>
        <time>2016-08-28T13:42:53Z</time>
      </trkpt>
      <trkpt lat="44.98916" lon="5.21516">
        <ele>765.83</ele>
        <time>2016-08-28T13:42:55Z</time>
      </trkpt>
      <trkpt lat="44.98928" lon="5.21505">
        <ele>764.39</ele>
        <time>2016-08-28T13:43:09Z</time>
      </trkpt>
      <trkpt lat="44.98934" lon="5.21494">
        <ele>763.9</ele>
        <time>2016-08-28T13:43:18Z</time>
      </trkpt>
      <trkpt lat="44.98949" lon="5.21477">
        <ele>761.02</ele>
        <time>2016-08-28T13:43:33Z</time>
      </trkpt>
      <trkpt lat="44.98958" lon="5.21464">
        <ele>759.1</ele>
        <time>2016-08-28T13:43:45Z</time>
      </trkpt>
      <trkpt lat="44.98958" lon="5.21462">
        <ele>758.62</ele>
        <time>2016-08-28T13:43:46Z</time>
      </trkpt>
      <trkpt lat="44.9896" lon="5.2146">
        <ele>758.14</ele>
        <time>2016-08-28T13:43:48Z</time>
      </trkpt>
      <trkpt lat="44.98966" lon="5.21451">
        <ele>758.14</ele>
        <time>2016-08-28T13:43:55Z</time>
      </trkpt>
      <trkpt lat="44.98972" lon="5.21444">
        <ele>757.66</ele>
        <time>2016-08-28T13:44:01Z</time>
      </trkpt>
      <trkpt lat="44.98982" lon="5.21429">
        <ele>756.69</ele>
        <time>2016-08-28T13:44:11Z</time>
      </trkpt>
      <trkpt lat="44.9899" lon="5.2141">
        <ele>756.69</ele>
        <time>2016-08-28T13:44:25Z</time>
      </trkpt>
      <trkpt lat="44.9899" lon="5.21409">
        <ele>756.69</ele>
        <time>2016-08-28T13:44:26Z</time>
      </trkpt>
      <trkpt lat="44.99004" lon="5.21393">
        <ele>755.25</ele>
        <time>2016-08-28T13:44:40Z</time>
      </trkpt>
      <trkpt lat="44.99014" lon="5.21379">
        <ele>752.37</ele>
        <time>2016-08-28T13:44:53Z</time>
      </trkpt>
      <trkpt lat="44.99022" lon="5.21372">
        <ele>748.52</ele>
        <time>2016-08-28T13:45:04Z</time>
      </trkpt>
      <trkpt lat="44.99024" lon="5.21371">
        <ele>748.52</ele>
        <time>2016-08-28T13:45:23Z</time>
      </trkpt>
      <trkpt lat="44.99033" lon="5.21374">
        <ele>746.12</ele>
        <time>2016-08-28T13:45:32Z</time>
      </trkpt>
      <trkpt lat="44.99038" lon="5.21375">
        <ele>744.68</ele>
        <time>2016-08-28T13:45:37Z</time>
      </trkpt>
      <trkpt lat="44.99046" lon="5.21377">
        <ele>741.79</ele>
        <time>2016-08-28T13:45:46Z</time>
      </trkpt>
      <trkpt lat="44.99049" lon="5.21376">
        <ele>741.31</ele>
        <time>2016-08-28T13:45:49Z</time>
      </trkpt>
      <trkpt lat="44.99061" lon="5.21379">
        <ele>736.99</ele>
        <time>2016-08-28T13:46:02Z</time>
      </trkpt>
      <trkpt lat="44.99064" lon="5.21381">
        <ele>736.03</ele>
        <time>2016-08-28T13:46:20Z</time>
      </trkpt>
      <trkpt lat="44.99069" lon="5.21385">
        <ele>734.1</ele>
        <time>2016-08-28T13:46:34Z</time>
      </trkpt>
      <trkpt lat="44.99078" lon="5.21386">
        <ele>730.74</ele>
        <time>2016-08-28T13:46:47Z</time>
      </trkpt>
      <trkpt lat="44.99087" lon="5.21388">
        <ele>728.34</ele>
        <time>2016-08-28T13:46:59Z</time>
      </trkpt>
      <trkpt lat="44.99094" lon="5.21391">
        <ele>726.89</ele>
        <time>2016-08-28T13:47:12Z</time>
      </trkpt>
      <trkpt lat="44.99105" lon="5.21392">
        <ele>724.01</ele>
        <time>2016-08-28T13:47:24Z</time>
      </trkpt>
      <trkpt lat="44.99114" lon="5.21394">
        <ele>721.61</ele>
        <time>2016-08-28T13:47:37Z</time>
      </trkpt>
      <trkpt lat="44.9912" lon="5.21395">
        <ele>719.2</ele>
        <time>2016-08-28T13:47:50Z</time>
      </trkpt>
      <trkpt lat="44.99126" lon="5.21396">
        <ele>716.8</ele>
        <time>2016-08-28T13:48:02Z</time>
      </trkpt>
      <trkpt lat="44.9913" lon="5.21396">
        <ele>715.36</ele>
        <time>2016-08-28T13:48:15Z</time>
      </trkpt>
      <trkpt lat="44.99139" lon="5.214">
        <ele>712.47</ele>
        <time>2016-08-28T13:48:28Z</time>
      </trkpt>
      <trkpt lat="44.9915" lon="5.21398">
        <ele>709.59</ele>
        <time>2016-08-28T13:48:38Z</time>
      </trkpt>
      <trkpt lat="44.99153" lon="5.21396">
        <ele>708.63</ele>
        <time>2016-08-28T13:48:41Z</time>
      </trkpt>
      <trkpt lat="44.99166" lon="5.21388">
        <ele>706.71</ele>
        <time>2016-08-28T13:48:54Z</time>
      </trkpt>
      <trkpt lat="44.99169" lon="5.21389">
        <ele>706.71</ele>
        <time>2016-08-28T13:48:57Z</time>
      </trkpt>
      <trkpt lat="44.99176" lon="5.21393">
        <ele>706.71</ele>
        <time>2016-08-28T13:49:10Z</time>
      </trkpt>
      <trkpt lat="44.99186" lon="5.2138">
        <ele>707.19</ele>
        <time>2016-08-28T13:49:20Z</time>
      </trkpt>
      <trkpt lat="44.9919" lon="5.2138">
        <ele>709.11</ele>
        <time>2016-08-28T13:49:34Z</time>
      </trkpt>
      <trkpt lat="44.99194" lon="5.21379">
        <ele>707.19</ele>
        <time>2016-08-28T13:49:48Z</time>
      </trkpt>
      <trkpt lat="44.99189" lon="5.2138">
        <ele>707.19</ele>
        <time>2016-08-28T13:49:58Z</time>
      </trkpt>
      <trkpt lat="44.99184" lon="5.21383">
        <ele>707.19</ele>
        <time>2016-08-28T13:50:14Z</time>
      </trkpt>
      <trkpt lat="44.99182" lon="5.21377">
        <ele>706.23</ele>
        <time>2016-08-28T13:50:29Z</time>
      </trkpt>
      <trkpt lat="44.99175" lon="5.21376">
        <ele>706.23</ele>
        <time>2016-08-28T13:50:48Z</time>
      </trkpt>
      <trkpt lat="44.99181" lon="5.21382">
        <ele>706.71</ele>
        <time>2016-08-28T13:51:00Z</time>
      </trkpt>
      <trkpt lat="44.9918" lon="5.21386">
        <ele>705.75</ele>
        <time>2016-08-28T13:51:21Z</time>
      </trkpt>
      <trkpt lat="44.99184" lon="5.21389">
        <ele>705.26</ele>
        <time>2016-08-28T13:51:40Z</time>
      </trkpt>
      <trkpt lat="44.99179" lon="5.21388">
        <ele>705.26</ele>
        <time>2016-08-28T13:51:59Z</time>
      </trkpt>
      <trkpt lat="44.99174" lon="5.21386">
        <ele>704.78</ele>
        <time>2016-08-28T13:52:11Z</time>
      </trkpt>
      <trkpt lat="44.99173" lon="5.21388">
        <ele>703.82</ele>
        <time>2016-08-28T13:52:30Z</time>
      </trkpt>
      <trkpt lat="44.99172" lon="5.21392">
        <ele>703.82</ele>
        <time>2016-08-28T13:52:47Z</time>
      </trkpt>
      <trkpt lat="44.99175" lon="5.21395">
        <ele>703.34</ele>
        <time>2016-08-28T13:53:09Z</time>
      </trkpt>
      <trkpt lat="44.99175" lon="5.21393">
        <ele>703.34</ele>
        <time>2016-08-28T13:53:23Z</time>
      </trkpt>
      <trkpt lat="44.99173" lon="5.21392">
        <ele>703.34</ele>
        <time>2016-08-28T13:53:41Z</time>
      </trkpt>
      <trkpt lat="44.99177" lon="5.21387">
        <ele>703.82</ele>
        <time>2016-08-28T13:54:06Z</time>
      </trkpt>
      <trkpt lat="44.99175" lon="5.21391">
        <ele>703.82</ele>
        <time>2016-08-28T13:54:26Z</time>
      </trkpt>
      <trkpt lat="44.99166" lon="5.2138">
        <ele>702.38</ele>
        <time>2016-08-28T13:54:38Z</time>
      </trkpt>
      <trkpt lat="44.99155" lon="5.2137">
        <ele>699.5</ele>
        <time>2016-08-28T13:54:52Z</time>
      </trkpt>
      <trkpt lat="44.99148" lon="5.2136">
        <ele>696.61</ele>
        <time>2016-08-28T13:55:07Z</time>
      </trkpt>
      <trkpt lat="44.99137" lon="5.21344">
        <ele>694.21</ele>
        <time>2016-08-28T13:55:22Z</time>
      </trkpt>
      <trkpt lat="44.99125" lon="5.21329">
        <ele>690.84</ele>
        <time>2016-08-28T13:55:37Z</time>
      </trkpt>
      <trkpt lat="44.99119" lon="5.2132">
        <ele>690.84</ele>
        <time>2016-08-28T13:55:50Z</time>
      </trkpt>
      <trkpt lat="44.99115" lon="5.21308">
        <ele>688.92</ele>
        <time>2016-08-28T13:56:04Z</time>
      </trkpt>
      <trkpt lat="44.99115" lon="5.21305">
        <ele>688.44</ele>
        <time>2016-08-28T13:56:17Z</time>
      </trkpt>
      <trkpt lat="44.99112" lon="5.21299">
        <ele>687.96</ele>
        <time>2016-08-28T13:56:29Z</time>
      </trkpt>
      <trkpt lat="44.99103" lon="5.21279">
        <ele>684.12</ele>
        <time>2016-08-28T13:56:44Z</time>
      </trkpt>
      <trkpt lat="44.99096" lon="5.21261">
        <ele>681.23</ele>
        <time>2016-08-28T13:56:56Z</time>
      </trkpt>
      <trkpt lat="44.99093" lon="5.21252">
        <ele>680.75</ele>
        <time>2016-08-28T13:57:02Z</time>
      </trkpt>
      <trkpt lat="44.99084" lon="5.21227">
        <ele>677.39</ele>
        <time>2016-08-28T13:57:18Z</time>
      </trkpt>
      <trkpt lat="44.99084" lon="5.21225">
        <ele>676.91</ele>
        <time>2016-08-28T13:57:19Z</time>
      </trkpt>
      <trkpt lat="44.99078" lon="5.21207">
        <ele>675.46</ele>
        <time>2016-08-28T13:57:30Z</time>
      </trkpt>
      <trkpt lat="44.99074" lon="5.21199">
        <ele>674.98</ele>
        <time>2016-08-28T13:57:36Z</time>
      </trkpt>
      <trkpt lat="44.99073" lon="5.21196">
        <ele>674.5</ele>
        <time>2016-08-28T13:57:38Z</time>
      </trkpt>
      <trkpt lat="44.99063" lon="5.21183">
        <ele>674.5</ele>
        <time>2016-08-28T13:57:50Z</time>
      </trkpt>
      <trkpt lat="44.99054" lon="5.21181">
        <ele>673.06</ele>
        <time>2016-08-28T13:57:57Z</time>
      </trkpt>
      <trkpt lat="44.99039" lon="5.21186">
        <ele>672.1</ele>
        <time>2016-08-28T13:58:10Z</time>
      </trkpt>
      <trkpt lat="44.99023" lon="5.21196">
        <ele>670.66</ele>
        <time>2016-08-28T13:58:24Z</time>
      </trkpt>
      <trkpt lat="44.99009" lon="5.21203">
        <ele>670.66</ele>
        <time>2016-08-28T13:58:37Z</time>
      </trkpt>
      <trkpt lat="44.98995" lon="5.21192">
        <ele>669.7</ele>
        <time>2016-08-28T13:58:48Z</time>
      </trkpt>
      <trkpt lat="44.98998" lon="5.21178">
        <ele>667.29</ele>
        <time>2016-08-28T13:59:00Z</time>
      </trkpt>
      <trkpt lat="44.99005" lon="5.21162">
        <ele>664.89</ele>
        <time>2016-08-28T13:59:13Z</time>
      </trkpt>
      <trkpt lat="44.99019" lon="5.2114">
        <ele>662.01</ele>
        <time>2016-08-28T13:59:30Z</time>
      </trkpt>
      <trkpt lat="44.99034" lon="5.21125">
        <ele>659.6</ele>
        <time>2016-08-28T13:59:44Z</time>
      </trkpt>
      <trkpt lat="44.99046" lon="5.21113">
        <ele>658.16</ele>
        <time>2016-08-28T13:59:58Z</time>
      </trkpt>
      <trkpt lat="44.99058" lon="5.21111">
        <ele>656.24</ele>
        <time>2016-08-28T14:00:11Z</time>
      </trkpt>
      <trkpt lat="44.99069" lon="5.21104">
        <ele>655.76</ele>
        <time>2016-08-28T14:00:30Z</time>
      </trkpt>
      <trkpt lat="44.99084" lon="5.2109">
        <ele>654.31</ele>
        <time>2016-08-28T14:00:45Z</time>
      </trkpt>
      <trkpt lat="44.99088" lon="5.21083">
        <ele>653.35</ele>
        <time>2016-08-28T14:00:51Z</time>
      </trkpt>
      <trkpt lat="44.99089" lon="5.21056">
        <ele>651.43</ele>
        <time>2016-08-28T14:01:05Z</time>
      </trkpt>
      <trkpt lat="44.99079" lon="5.21035">
        <ele>648.55</ele>
        <time>2016-08-28T14:01:19Z</time>
      </trkpt>
      <trkpt lat="44.99071" lon="5.21029">
        <ele>647.1</ele>
        <time>2016-08-28T14:01:27Z</time>
      </trkpt>
      <trkpt lat="44.99062" lon="5.21017">
        <ele>645.66</ele>
        <time>2016-08-28T14:01:39Z</time>
      </trkpt>
      <trkpt lat="44.9906" lon="5.21012">
        <ele>645.18</ele>
        <time>2016-08-28T14:01:43Z</time>
      </trkpt>
      <trkpt lat="44.99058" lon="5.21004">
        <ele>643.74</ele>
        <time>2016-08-28T14:01:47Z</time>
      </trkpt>
      <trkpt lat="44.99058" lon="5.20997">
        <ele>643.26</ele>
        <time>2016-08-28T14:01:51Z</time>
      </trkpt>
      <trkpt lat="44.99058" lon="5.20994">
        <ele>642.78</ele>
        <time>2016-08-28T14:01:53Z</time>
      </trkpt>
      <trkpt lat="44.99058" lon="5.20982">
        <ele>640.86</ele>
        <time>2016-08-28T14:02:06Z</time>
      </trkpt>
      <trkpt lat="44.99059" lon="5.20976">
        <ele>640.38</ele>
        <time>2016-08-28T14:02:10Z</time>
      </trkpt>
      <trkpt lat="44.99056" lon="5.20961">
        <ele>638.45</ele>
        <time>2016-08-28T14:02:20Z</time>
      </trkpt>
      <trkpt lat="44.99061" lon="5.20938">
        <ele>636.05</ele>
        <time>2016-08-28T14:02:33Z</time>
      </trkpt>
      <trkpt lat="44.99063" lon="5.20933">
        <ele>635.57</ele>
        <time>2016-08-28T14:02:36Z</time>
      </trkpt>
      <trkpt lat="44.99063" lon="5.20932">
        <ele>635.57</ele>
        <time>2016-08-28T14:02:48Z</time>
      </trkpt>
      <trkpt lat="44.99063" lon="5.20936">
        <ele>635.09</ele>
        <time>2016-08-28T14:03:11Z</time>
      </trkpt>
      <trkpt lat="44.99062" lon="5.20919">
        <ele>633.65</ele>
        <time>2016-08-28T14:03:19Z</time>
      </trkpt>
      <trkpt lat="44.99063" lon="5.20912">
        <ele>633.65</ele>
        <time>2016-08-28T14:03:23Z</time>
      </trkpt>
      <trkpt lat="44.99063" lon="5.20907">
        <ele>633.65</ele>
        <time>2016-08-28T14:03:26Z</time>
      </trkpt>
      <trkpt lat="44.99061" lon="5.20898">
        <ele>632.2</ele>
        <time>2016-08-28T14:03:32Z</time>
      </trkpt>
      <trkpt lat="44.99062" lon="5.20895">
        <ele>631.72</ele>
        <time>2016-08-28T14:03:33Z</time>
      </trkpt>
      <trkpt lat="44.99062" lon="5.2089">
        <ele>631.24</ele>
        <time>2016-08-28T14:03:37Z</time>
      </trkpt>
      <trkpt lat="44.99063" lon="5.20869">
        <ele>630.28</ele>
        <time>2016-08-28T14:03:49Z</time>
      </trkpt>
      <trkpt lat="44.99064" lon="5.20865">
        <ele>629.32</ele>
        <time>2016-08-28T14:03:52Z</time>
      </trkpt>
      <trkpt lat="44.99064" lon="5.20862">
        <ele>629.32</ele>
        <time>2016-08-28T14:03:54Z</time>
      </trkpt>
      <trkpt lat="44.99065" lon="5.20858">
        <ele>628.84</ele>
        <time>2016-08-28T14:03:57Z</time>
      </trkpt>
      <trkpt lat="44.99065" lon="5.20855">
        <ele>628.36</ele>
        <time>2016-08-28T14:03:59Z</time>
      </trkpt>
      <trkpt lat="44.99067" lon="5.20851">
        <ele>627.88</ele>
        <time>2016-08-28T14:04:02Z</time>
      </trkpt>
      <trkpt lat="44.99069" lon="5.20845">
        <ele>626.44</ele>
        <time>2016-08-28T14:04:06Z</time>
      </trkpt>
      <trkpt lat="44.99071" lon="5.20843">
        <ele>626.44</ele>
        <time>2016-08-28T14:04:08Z</time>
      </trkpt>
      <trkpt lat="44.99079" lon="5.20822">
        <ele>624.51</ele>
        <time>2016-08-28T14:04:22Z</time>
      </trkpt>
      <trkpt lat="44.9908" lon="5.20819">
        <ele>623.55</ele>
        <time>2016-08-28T14:04:24Z</time>
      </trkpt>
      <trkpt lat="44.99087" lon="5.20794">
        <ele>620.19</ele>
        <time>2016-08-28T14:04:39Z</time>
      </trkpt>
      <trkpt lat="44.99087" lon="5.2079">
        <ele>620.19</ele>
        <time>2016-08-28T14:04:42Z</time>
      </trkpt>
      <trkpt lat="44.99092" lon="5.20777">
        <ele>618.75</ele>
        <time>2016-08-28T14:04:51Z</time>
      </trkpt>
      <trkpt lat="44.99098" lon="5.20758">
        <ele>617.78</ele>
        <time>2016-08-28T14:05:03Z</time>
      </trkpt>
      <trkpt lat="44.99099" lon="5.20736">
        <ele>615.86</ele>
        <time>2016-08-28T14:05:17Z</time>
      </trkpt>
      <trkpt lat="44.99101" lon="5.20727">
        <ele>615.38</ele>
        <time>2016-08-28T14:05:23Z</time>
      </trkpt>
      <trkpt lat="44.99108" lon="5.20703">
        <ele>612.02</ele>
        <time>2016-08-28T14:05:39Z</time>
      </trkpt>
      <trkpt lat="44.9911" lon="5.20696">
        <ele>611.54</ele>
        <time>2016-08-28T14:05:43Z</time>
      </trkpt>
      <trkpt lat="44.99115" lon="5.20673">
        <ele>608.65</ele>
        <time>2016-08-28T14:05:57Z</time>
      </trkpt>
      <trkpt lat="44.99117" lon="5.20658">
        <ele>607.21</ele>
        <time>2016-08-28T14:06:07Z</time>
      </trkpt>
      <trkpt lat="44.99119" lon="5.20641">
        <ele>605.29</ele>
        <time>2016-08-28T14:06:18Z</time>
      </trkpt>
      <trkpt lat="44.9912" lon="5.20637">
        <ele>604.81</ele>
        <time>2016-08-28T14:06:21Z</time>
      </trkpt>
      <trkpt lat="44.99125" lon="5.20619">
        <ele>601.44</ele>
        <time>2016-08-28T14:06:33Z</time>
      </trkpt>
      <trkpt lat="44.99131" lon="5.20605">
        <ele>599.52</ele>
        <time>2016-08-28T14:06:44Z</time>
      </trkpt>
      <trkpt lat="44.99134" lon="5.206">
        <ele>599.04</ele>
        <time>2016-08-28T14:06:50Z</time>
      </trkpt>
      <trkpt lat="44.99135" lon="5.20597">
        <ele>598.56</ele>
        <time>2016-08-28T14:06:53Z</time>
      </trkpt>
      <trkpt lat="44.99136" lon="5.2059">
        <ele>598.08</ele>
        <time>2016-08-28T14:07:08Z</time>
      </trkpt>
      <trkpt lat="44.99133" lon="5.2059">
        <ele>598.56</ele>
        <time>2016-08-28T14:07:30Z</time>
      </trkpt>
      <trkpt lat="44.99133" lon="5.20591">
        <ele>597.12</ele>
        <time>2016-08-28T14:07:55Z</time>
      </trkpt>
      <trkpt lat="44.99135" lon="5.20592">
        <ele>597.6</ele>
        <time>2016-08-28T14:08:21Z</time>
      </trkpt>
      <trkpt lat="44.99138" lon="5.20585">
        <ele>596.64</ele>
        <time>2016-08-28T14:08:28Z</time>
      </trkpt>
      <trkpt lat="44.99144" lon="5.20582">
        <ele>596.15</ele>
        <time>2016-08-28T14:08:32Z</time>
      </trkpt>
      <trkpt lat="44.99151" lon="5.20574">
        <ele>594.23</ele>
        <time>2016-08-28T14:08:42Z</time>
      </trkpt>
      <trkpt lat="44.99162" lon="5.20561">
        <ele>592.31</ele>
        <time>2016-08-28T14:08:55Z</time>
      </trkpt>
      <trkpt lat="44.99174" lon="5.20549">
        <ele>590.39</ele>
        <time>2016-08-28T14:09:08Z</time>
      </trkpt>
      <trkpt lat="44.99184" lon="5.20541">
        <ele>588.95</ele>
        <time>2016-08-28T14:09:18Z</time>
      </trkpt>
      <trkpt lat="44.99191" lon="5.20534">
        <ele>587.5</ele>
        <time>2016-08-28T14:09:26Z</time>
      </trkpt>
      <trkpt lat="44.99201" lon="5.20523">
        <ele>585.58</ele>
        <time>2016-08-28T14:09:39Z</time>
      </trkpt>
      <trkpt lat="44.99204" lon="5.2052">
        <ele>585.58</ele>
        <time>2016-08-28T14:09:42Z</time>
      </trkpt>
      <trkpt lat="44.99216" lon="5.20509">
        <ele>584.14</ele>
        <time>2016-08-28T14:09:54Z</time>
      </trkpt>
      <trkpt lat="44.99228" lon="5.20498">
        <ele>582.22</ele>
        <time>2016-08-28T14:10:07Z</time>
      </trkpt>
      <trkpt lat="44.99241" lon="5.20483">
        <ele>580.29</ele>
        <time>2016-08-28T14:10:22Z</time>
      </trkpt>
      <trkpt lat="44.99248" lon="5.20472">
        <ele>579.33</ele>
        <time>2016-08-28T14:10:30Z</time>
      </trkpt>
      <trkpt lat="44.99256" lon="5.20445">
        <ele>576.45</ele>
        <time>2016-08-28T14:10:47Z</time>
      </trkpt>
      <trkpt lat="44.99264" lon="5.20424">
        <ele>574.04</ele>
        <time>2016-08-28T14:11:01Z</time>
      </trkpt>
      <trkpt lat="44.99271" lon="5.20409">
        <ele>572.6</ele>
        <time>2016-08-28T14:11:12Z</time>
      </trkpt>
      <trkpt lat="44.99278" lon="5.20388">
        <ele>571.64</ele>
        <time>2016-08-28T14:11:25Z</time>
      </trkpt>
      <trkpt lat="44.99279" lon="5.20379">
        <ele>571.64</ele>
        <time>2016-08-28T14:11:30Z</time>
      </trkpt>
      <trkpt lat="44.99282" lon="5.20355">
        <ele>570.2</ele>
        <time>2016-08-28T14:11:45Z</time>
      </trkpt>
      <trkpt lat="44.99281" lon="5.20349">
        <ele>569.72</ele>
        <time>2016-08-28T14:11:48Z</time>
      </trkpt>
      <trkpt lat="44.9928" lon="5.20321">
        <ele>568.76</ele>
        <time>2016-08-28T14:12:05Z</time>
      </trkpt>
      <trkpt lat="44.99277" lon="5.20299">
        <ele>566.83</ele>
        <time>2016-08-28T14:12:19Z</time>
      </trkpt>
      <trkpt lat="44.99273" lon="5.20273">
        <ele>564.91</ele>
        <time>2016-08-28T14:12:34Z</time>
      </trkpt>
      <trkpt lat="44.99268" lon="5.20245">
        <ele>562.03</ele>
        <time>2016-08-28T14:12:50Z</time>
      </trkpt>
      <trkpt lat="44.99265" lon="5.20229">
        <ele>560.11</ele>
        <time>2016-08-28T14:13:04Z</time>
      </trkpt>
      <trkpt lat="44.99261" lon="5.20205">
        <ele>558.18</ele>
        <time>2016-08-28T14:13:18Z</time>
      </trkpt>
      <trkpt lat="44.99258" lon="5.20195">
        <ele>557.22</ele>
        <time>2016-08-28T14:13:28Z</time>
      </trkpt>
      <trkpt lat="44.99256" lon="5.20172">
        <ele>555.78</ele>
        <time>2016-08-28T14:13:41Z</time>
      </trkpt>
      <trkpt lat="44.9925" lon="5.20149">
        <ele>553.86</ele>
        <time>2016-08-28T14:13:56Z</time>
      </trkpt>
      <trkpt lat="44.99249" lon="5.20143">
        <ele>553.38</ele>
        <time>2016-08-28T14:14:00Z</time>
      </trkpt>
      <trkpt lat="44.99243" lon="5.20122">
        <ele>552.41</ele>
        <time>2016-08-28T14:14:15Z</time>
      </trkpt>
      <trkpt lat="44.9924" lon="5.20113">
        <ele>551.93</ele>
        <time>2016-08-28T14:14:23Z</time>
      </trkpt>
      <trkpt lat="44.99237" lon="5.20107">
        <ele>551.45</ele>
        <time>2016-08-28T14:14:27Z</time>
      </trkpt>
      <trkpt lat="44.99229" lon="5.20089">
        <ele>548.57</ele>
        <time>2016-08-28T14:14:41Z</time>
      </trkpt>
      <trkpt lat="44.99226" lon="5.20074">
        <ele>548.57</ele>
        <time>2016-08-28T14:14:50Z</time>
      </trkpt>
      <trkpt lat="44.99221" lon="5.20051">
        <ele>545.69</ele>
        <time>2016-08-28T14:15:05Z</time>
      </trkpt>
      <trkpt lat="44.99214" lon="5.20025">
        <ele>542.8</ele>
        <time>2016-08-28T14:15:20Z</time>
      </trkpt>
      <trkpt lat="44.99204" lon="5.20002">
        <ele>540.88</ele>
        <time>2016-08-28T14:15:36Z</time>
      </trkpt>
      <trkpt lat="44.99195" lon="5.19985">
        <ele>537.99</ele>
        <time>2016-08-28T14:15:48Z</time>
      </trkpt>
      <trkpt lat="44.99185" lon="5.19969">
        <ele>535.11</ele>
        <time>2016-08-28T14:16:00Z</time>
      </trkpt>
      <trkpt lat="44.99179" lon="5.19959">
        <ele>533.67</ele>
        <time>2016-08-28T14:16:11Z</time>
      </trkpt>
      <trkpt lat="44.99176" lon="5.19953">
        <ele>532.23</ele>
        <time>2016-08-28T14:16:15Z</time>
      </trkpt>
      <trkpt lat="44.9917" lon="5.1994">
        <ele>529.82</ele>
        <time>2016-08-28T14:16:24Z</time>
      </trkpt>
      <trkpt lat="44.99166" lon="5.19917">
        <ele>528.38</ele>
        <time>2016-08-28T14:16:39Z</time>
      </trkpt>
      <trkpt lat="44.99163" lon="5.19895">
        <ele>524.54</ele>
        <time>2016-08-28T14:16:52Z</time>
      </trkpt>
      <trkpt lat="44.99163" lon="5.19873">
        <ele>522.61</ele>
        <time>2016-08-28T14:17:06Z</time>
      </trkpt>
      <trkpt lat="44.99158" lon="5.19874">
        <ele>523.09</ele>
        <time>2016-08-28T14:17:18Z</time>
      </trkpt>
    </trkseg>
  </trk>
</gpx>